<?xml version="1.0" encoding="UTF-8" standalone="no" ?>
<gpx xmlns="http://www.topografix.com/GPX/1/1" xmlns:xsi="http://www.w3.org/2001/XMLSchema-instance" xsi:schemaLocation="http://www.topografix.com/GPX/1/1 http://www.topografix.com/GPX/1/1/gpx.xsd" version="1.1" creator="VisuGPX - https://www.visugpx.com">
  <metadata>
    <name>ND de Cran Trefflean.gpx</name>
  </metadata>
  <trk>
    <name><![CDATA[ND de Cran Trefflean.gpx]]></name>
    <trkseg>
      <trkpt lat="47.66608" lon="-2.60063">
        <ele>79.3</ele>
        <time>2021-04-09T12:01:14Z</time>
      </trkpt>
      <trkpt lat="47.66607" lon="-2.60063">
        <ele>79.3</ele>
        <time>2021-04-09T12:01:15Z</time>
      </trkpt>
      <trkpt lat="47.66604" lon="-2.60057">
        <ele>79.3</ele>
        <time>2021-04-09T12:01:25Z</time>
      </trkpt>
      <trkpt lat="47.66603" lon="-2.60056">
        <ele>79.3</ele>
        <time>2021-04-09T12:01:26Z</time>
      </trkpt>
      <trkpt lat="47.666" lon="-2.60049">
        <ele>79.3</ele>
        <time>2021-04-09T12:01:31Z</time>
      </trkpt>
      <trkpt lat="47.66599" lon="-2.60043">
        <ele>79.3</ele>
        <time>2021-04-09T12:01:35Z</time>
      </trkpt>
      <trkpt lat="47.66598" lon="-2.60036">
        <ele>79.3</ele>
        <time>2021-04-09T12:01:38Z</time>
      </trkpt>
      <trkpt lat="47.66597" lon="-2.6003">
        <ele>79.2</ele>
        <time>2021-04-09T12:01:44Z</time>
      </trkpt>
      <trkpt lat="47.66601" lon="-2.60024">
        <ele>78.9</ele>
        <time>2021-04-09T12:01:49Z</time>
      </trkpt>
      <trkpt lat="47.66607" lon="-2.60022">
        <ele>78.8</ele>
        <time>2021-04-09T12:01:52Z</time>
      </trkpt>
      <trkpt lat="47.66612" lon="-2.60022">
        <ele>78.7</ele>
        <time>2021-04-09T12:01:54Z</time>
      </trkpt>
      <trkpt lat="47.66616" lon="-2.60017">
        <ele>78.6</ele>
        <time>2021-04-09T12:01:58Z</time>
      </trkpt>
      <trkpt lat="47.66616" lon="-2.60009">
        <ele>78.9</ele>
        <time>2021-04-09T12:02:02Z</time>
      </trkpt>
      <trkpt lat="47.66618" lon="-2.60001">
        <ele>79</ele>
        <time>2021-04-09T12:02:06Z</time>
      </trkpt>
      <trkpt lat="47.66623" lon="-2.59999">
        <ele>78.6</ele>
        <time>2021-04-09T12:02:13Z</time>
      </trkpt>
      <trkpt lat="47.66629" lon="-2.60003">
        <ele>78.1</ele>
        <time>2021-04-09T12:02:17Z</time>
      </trkpt>
      <trkpt lat="47.66636" lon="-2.59997">
        <ele>76.5</ele>
        <time>2021-04-09T12:02:24Z</time>
      </trkpt>
      <trkpt lat="47.66632" lon="-2.5999">
        <ele>76</ele>
        <time>2021-04-09T12:02:27Z</time>
      </trkpt>
      <trkpt lat="47.66629" lon="-2.59982">
        <ele>75.9</ele>
        <time>2021-04-09T12:02:30Z</time>
      </trkpt>
      <trkpt lat="47.6663" lon="-2.59973">
        <ele>76.5</ele>
        <time>2021-04-09T12:02:34Z</time>
      </trkpt>
      <trkpt lat="47.66634" lon="-2.59966">
        <ele>76.8</ele>
        <time>2021-04-09T12:02:36Z</time>
      </trkpt>
      <trkpt lat="47.6664" lon="-2.59955">
        <ele>77.3</ele>
        <time>2021-04-09T12:02:39Z</time>
      </trkpt>
      <trkpt lat="47.66638" lon="-2.59948">
        <ele>78.6</ele>
        <time>2021-04-09T12:02:42Z</time>
      </trkpt>
      <trkpt lat="47.66639" lon="-2.59941">
        <ele>79.9</ele>
        <time>2021-04-09T12:02:46Z</time>
      </trkpt>
      <trkpt lat="47.66639" lon="-2.5994">
        <ele>80.1</ele>
        <time>2021-04-09T12:02:47Z</time>
      </trkpt>
      <trkpt lat="47.66639" lon="-2.5994">
        <ele>80.1</ele>
        <time>2021-04-09T12:02:47Z</time>
      </trkpt>
      <trkpt lat="47.66637" lon="-2.59933">
        <ele>80.8</ele>
        <time>2021-04-09T12:02:50Z</time>
      </trkpt>
      <trkpt lat="47.66637" lon="-2.59932">
        <ele>81.2</ele>
        <time>2021-04-09T12:02:51Z</time>
      </trkpt>
      <trkpt lat="47.66636" lon="-2.5993">
        <ele>81.5</ele>
        <time>2021-04-09T12:02:52Z</time>
      </trkpt>
      <trkpt lat="47.66636" lon="-2.59928">
        <ele>81.8</ele>
        <time>2021-04-09T12:02:53Z</time>
      </trkpt>
      <trkpt lat="47.66635" lon="-2.59924">
        <ele>82</ele>
        <time>2021-04-09T12:02:54Z</time>
      </trkpt>
      <trkpt lat="47.66633" lon="-2.59922">
        <ele>82.6</ele>
        <time>2021-04-09T12:02:55Z</time>
      </trkpt>
      <trkpt lat="47.66632" lon="-2.5992">
        <ele>83</ele>
        <time>2021-04-09T12:02:56Z</time>
      </trkpt>
      <trkpt lat="47.66632" lon="-2.59918">
        <ele>83.1</ele>
        <time>2021-04-09T12:02:57Z</time>
      </trkpt>
      <trkpt lat="47.66631" lon="-2.59917">
        <ele>83.3</ele>
        <time>2021-04-09T12:02:58Z</time>
      </trkpt>
      <trkpt lat="47.66631" lon="-2.59916">
        <ele>83.5</ele>
        <time>2021-04-09T12:02:59Z</time>
      </trkpt>
      <trkpt lat="47.66631" lon="-2.59916">
        <ele>83.5</ele>
        <time>2021-04-09T12:02:59Z</time>
      </trkpt>
      <trkpt lat="47.66628" lon="-2.59908">
        <ele>84</ele>
        <time>2021-04-09T12:03:02Z</time>
      </trkpt>
      <trkpt lat="47.66628" lon="-2.59906">
        <ele>84.2</ele>
        <time>2021-04-09T12:03:03Z</time>
      </trkpt>
      <trkpt lat="47.66627" lon="-2.59905">
        <ele>84.4</ele>
        <time>2021-04-09T12:03:04Z</time>
      </trkpt>
      <trkpt lat="47.66627" lon="-2.59903">
        <ele>84.7</ele>
        <time>2021-04-09T12:03:05Z</time>
      </trkpt>
      <trkpt lat="47.66627" lon="-2.59903">
        <ele>84.7</ele>
        <time>2021-04-09T12:03:05Z</time>
      </trkpt>
      <trkpt lat="47.66628" lon="-2.59896">
        <ele>84.3</ele>
        <time>2021-04-09T12:03:10Z</time>
      </trkpt>
      <trkpt lat="47.66628" lon="-2.59895">
        <ele>84.3</ele>
        <time>2021-04-09T12:03:11Z</time>
      </trkpt>
      <trkpt lat="47.66627" lon="-2.59888">
        <ele>84.2</ele>
        <time>2021-04-09T12:03:19Z</time>
      </trkpt>
      <trkpt lat="47.66624" lon="-2.59882">
        <ele>84.7</ele>
        <time>2021-04-09T12:03:23Z</time>
      </trkpt>
      <trkpt lat="47.66623" lon="-2.59872">
        <ele>83.6</ele>
        <time>2021-04-09T12:03:29Z</time>
      </trkpt>
      <trkpt lat="47.66624" lon="-2.59863">
        <ele>83.6</ele>
        <time>2021-04-09T12:03:38Z</time>
      </trkpt>
      <trkpt lat="47.66623" lon="-2.59856">
        <ele>83</ele>
        <time>2021-04-09T12:03:42Z</time>
      </trkpt>
      <trkpt lat="47.66622" lon="-2.59842">
        <ele>82.3</ele>
        <time>2021-04-09T12:03:46Z</time>
      </trkpt>
      <trkpt lat="47.66621" lon="-2.59834">
        <ele>81.5</ele>
        <time>2021-04-09T12:03:49Z</time>
      </trkpt>
      <trkpt lat="47.6662" lon="-2.59826">
        <ele>77.4</ele>
        <time>2021-04-09T12:03:52Z</time>
      </trkpt>
      <trkpt lat="47.6662" lon="-2.59819">
        <ele>76.8</ele>
        <time>2021-04-09T12:03:55Z</time>
      </trkpt>
      <trkpt lat="47.66621" lon="-2.59813">
        <ele>76.3</ele>
        <time>2021-04-09T12:03:57Z</time>
      </trkpt>
      <trkpt lat="47.66626" lon="-2.59806">
        <ele>76.1</ele>
        <time>2021-04-09T12:04:04Z</time>
      </trkpt>
      <trkpt lat="47.66625" lon="-2.59798">
        <ele>75.8</ele>
        <time>2021-04-09T12:04:18Z</time>
      </trkpt>
      <trkpt lat="47.66623" lon="-2.59792">
        <ele>76.1</ele>
        <time>2021-04-09T12:04:22Z</time>
      </trkpt>
      <trkpt lat="47.66621" lon="-2.59783">
        <ele>76.6</ele>
        <time>2021-04-09T12:04:27Z</time>
      </trkpt>
      <trkpt lat="47.66619" lon="-2.59775">
        <ele>77.2</ele>
        <time>2021-04-09T12:04:32Z</time>
      </trkpt>
      <trkpt lat="47.66619" lon="-2.59768">
        <ele>77.5</ele>
        <time>2021-04-09T12:04:36Z</time>
      </trkpt>
      <trkpt lat="47.66617" lon="-2.59762">
        <ele>78</ele>
        <time>2021-04-09T12:04:40Z</time>
      </trkpt>
      <trkpt lat="47.66616" lon="-2.59753">
        <ele>78.8</ele>
        <time>2021-04-09T12:04:47Z</time>
      </trkpt>
      <trkpt lat="47.66618" lon="-2.59746">
        <ele>78.8</ele>
        <time>2021-04-09T12:04:52Z</time>
      </trkpt>
      <trkpt lat="47.66619" lon="-2.59736">
        <ele>79.1</ele>
        <time>2021-04-09T12:04:57Z</time>
      </trkpt>
      <trkpt lat="47.66619" lon="-2.59729">
        <ele>79.4</ele>
        <time>2021-04-09T12:05:01Z</time>
      </trkpt>
      <trkpt lat="47.66616" lon="-2.59724">
        <ele>80.1</ele>
        <time>2021-04-09T12:05:10Z</time>
      </trkpt>
      <trkpt lat="47.66614" lon="-2.59717">
        <ele>80.4</ele>
        <time>2021-04-09T12:05:18Z</time>
      </trkpt>
      <trkpt lat="47.66615" lon="-2.5971">
        <ele>80.9</ele>
        <time>2021-04-09T12:05:24Z</time>
      </trkpt>
      <trkpt lat="47.66617" lon="-2.59703">
        <ele>80.7</ele>
        <time>2021-04-09T12:05:26Z</time>
      </trkpt>
      <trkpt lat="47.66618" lon="-2.59696">
        <ele>80.5</ele>
        <time>2021-04-09T12:05:30Z</time>
      </trkpt>
      <trkpt lat="47.6662" lon="-2.59689">
        <ele>80.1</ele>
        <time>2021-04-09T12:05:34Z</time>
      </trkpt>
      <trkpt lat="47.66621" lon="-2.59683">
        <ele>80</ele>
        <time>2021-04-09T12:05:38Z</time>
      </trkpt>
      <trkpt lat="47.66619" lon="-2.59675">
        <ele>80.3</ele>
        <time>2021-04-09T12:05:43Z</time>
      </trkpt>
      <trkpt lat="47.66617" lon="-2.59667">
        <ele>80.1</ele>
        <time>2021-04-09T12:05:48Z</time>
      </trkpt>
      <trkpt lat="47.66621" lon="-2.5966">
        <ele>80.1</ele>
        <time>2021-04-09T12:05:51Z</time>
      </trkpt>
      <trkpt lat="47.66624" lon="-2.59653">
        <ele>80</ele>
        <time>2021-04-09T12:05:55Z</time>
      </trkpt>
      <trkpt lat="47.66625" lon="-2.59647">
        <ele>80</ele>
        <time>2021-04-09T12:05:58Z</time>
      </trkpt>
      <trkpt lat="47.66621" lon="-2.59641">
        <ele>79.7</ele>
        <time>2021-04-09T12:06:02Z</time>
      </trkpt>
      <trkpt lat="47.66616" lon="-2.59639">
        <ele>79.1</ele>
        <time>2021-04-09T12:06:06Z</time>
      </trkpt>
      <trkpt lat="47.66612" lon="-2.59633">
        <ele>78.1</ele>
        <time>2021-04-09T12:06:11Z</time>
      </trkpt>
      <trkpt lat="47.66614" lon="-2.59627">
        <ele>77.4</ele>
        <time>2021-04-09T12:06:14Z</time>
      </trkpt>
      <trkpt lat="47.66616" lon="-2.5962">
        <ele>76.8</ele>
        <time>2021-04-09T12:06:17Z</time>
      </trkpt>
      <trkpt lat="47.66618" lon="-2.59613">
        <ele>75.7</ele>
        <time>2021-04-09T12:06:21Z</time>
      </trkpt>
      <trkpt lat="47.66621" lon="-2.59605">
        <ele>75.3</ele>
        <time>2021-04-09T12:06:24Z</time>
      </trkpt>
      <trkpt lat="47.66623" lon="-2.59599">
        <ele>75.4</ele>
        <time>2021-04-09T12:06:26Z</time>
      </trkpt>
      <trkpt lat="47.66625" lon="-2.59592">
        <ele>75.6</ele>
        <time>2021-04-09T12:06:28Z</time>
      </trkpt>
      <trkpt lat="47.66625" lon="-2.59584">
        <ele>76.7</ele>
        <time>2021-04-09T12:06:31Z</time>
      </trkpt>
      <trkpt lat="47.66624" lon="-2.59577">
        <ele>77.7</ele>
        <time>2021-04-09T12:06:35Z</time>
      </trkpt>
      <trkpt lat="47.66621" lon="-2.5957">
        <ele>78.7</ele>
        <time>2021-04-09T12:06:39Z</time>
      </trkpt>
      <trkpt lat="47.66621" lon="-2.59563">
        <ele>79</ele>
        <time>2021-04-09T12:06:46Z</time>
      </trkpt>
      <trkpt lat="47.6662" lon="-2.59556">
        <ele>78.9</ele>
        <time>2021-04-09T12:06:51Z</time>
      </trkpt>
      <trkpt lat="47.66615" lon="-2.59553">
        <ele>78.4</ele>
        <time>2021-04-09T12:06:54Z</time>
      </trkpt>
      <trkpt lat="47.66615" lon="-2.59543">
        <ele>78.1</ele>
        <time>2021-04-09T12:06:57Z</time>
      </trkpt>
      <trkpt lat="47.66618" lon="-2.59538">
        <ele>78.8</ele>
        <time>2021-04-09T12:06:59Z</time>
      </trkpt>
      <trkpt lat="47.66622" lon="-2.59534">
        <ele>78</ele>
        <time>2021-04-09T12:07:01Z</time>
      </trkpt>
      <trkpt lat="47.66623" lon="-2.59528">
        <ele>78</ele>
        <time>2021-04-09T12:07:06Z</time>
      </trkpt>
      <trkpt lat="47.66624" lon="-2.5952">
        <ele>79.3</ele>
        <time>2021-04-09T12:07:10Z</time>
      </trkpt>
      <trkpt lat="47.66627" lon="-2.59515">
        <ele>81.3</ele>
        <time>2021-04-09T12:07:13Z</time>
      </trkpt>
      <trkpt lat="47.66626" lon="-2.59508">
        <ele>83</ele>
        <time>2021-04-09T12:07:16Z</time>
      </trkpt>
      <trkpt lat="47.66622" lon="-2.59503">
        <ele>85.3</ele>
        <time>2021-04-09T12:07:20Z</time>
      </trkpt>
      <trkpt lat="47.66621" lon="-2.59501">
        <ele>85.8</ele>
        <time>2021-04-09T12:07:21Z</time>
      </trkpt>
      <trkpt lat="47.66621" lon="-2.59499">
        <ele>86.2</ele>
        <time>2021-04-09T12:07:23Z</time>
      </trkpt>
      <trkpt lat="47.6662" lon="-2.59497">
        <ele>86.4</ele>
        <time>2021-04-09T12:07:24Z</time>
      </trkpt>
      <trkpt lat="47.6662" lon="-2.59495">
        <ele>86.7</ele>
        <time>2021-04-09T12:07:25Z</time>
      </trkpt>
      <trkpt lat="47.6662" lon="-2.59493">
        <ele>86.9</ele>
        <time>2021-04-09T12:07:26Z</time>
      </trkpt>
      <trkpt lat="47.6662" lon="-2.59491">
        <ele>86.9</ele>
        <time>2021-04-09T12:07:27Z</time>
      </trkpt>
      <trkpt lat="47.66621" lon="-2.59483">
        <ele>88</ele>
        <time>2021-04-09T12:07:31Z</time>
      </trkpt>
      <trkpt lat="47.6662" lon="-2.59481">
        <ele>88.5</ele>
        <time>2021-04-09T12:07:32Z</time>
      </trkpt>
      <trkpt lat="47.66621" lon="-2.59478">
        <ele>88.9</ele>
        <time>2021-04-09T12:07:33Z</time>
      </trkpt>
      <trkpt lat="47.66621" lon="-2.59476">
        <ele>89.3</ele>
        <time>2021-04-09T12:07:34Z</time>
      </trkpt>
      <trkpt lat="47.6662" lon="-2.59476">
        <ele>89.6</ele>
        <time>2021-04-09T12:07:35Z</time>
      </trkpt>
      <trkpt lat="47.6662" lon="-2.59476">
        <ele>89.8</ele>
        <time>2021-04-09T12:07:36Z</time>
      </trkpt>
      <trkpt lat="47.66618" lon="-2.59476">
        <ele>89.2</ele>
        <time>2021-04-09T12:07:37Z</time>
      </trkpt>
      <trkpt lat="47.66614" lon="-2.5948">
        <ele>86.6</ele>
        <time>2021-04-09T12:07:44Z</time>
      </trkpt>
      <trkpt lat="47.66611" lon="-2.59485">
        <ele>85.1</ele>
        <time>2021-04-09T12:07:49Z</time>
      </trkpt>
      <trkpt lat="47.66608" lon="-2.59493">
        <ele>84.1</ele>
        <time>2021-04-09T12:07:55Z</time>
      </trkpt>
      <trkpt lat="47.66606" lon="-2.595">
        <ele>84.6</ele>
        <time>2021-04-09T12:08:01Z</time>
      </trkpt>
      <trkpt lat="47.66607" lon="-2.59508">
        <ele>84.7</ele>
        <time>2021-04-09T12:08:07Z</time>
      </trkpt>
      <trkpt lat="47.66609" lon="-2.59516">
        <ele>86.4</ele>
        <time>2021-04-09T12:08:12Z</time>
      </trkpt>
      <trkpt lat="47.66607" lon="-2.59522">
        <ele>87.1</ele>
        <time>2021-04-09T12:08:15Z</time>
      </trkpt>
      <trkpt lat="47.66606" lon="-2.59529">
        <ele>88</ele>
        <time>2021-04-09T12:08:20Z</time>
      </trkpt>
      <trkpt lat="47.66602" lon="-2.59535">
        <ele>88.2</ele>
        <time>2021-04-09T12:08:24Z</time>
      </trkpt>
      <trkpt lat="47.66598" lon="-2.59541">
        <ele>89.1</ele>
        <time>2021-04-09T12:08:28Z</time>
      </trkpt>
      <trkpt lat="47.66594" lon="-2.59546">
        <ele>90.1</ele>
        <time>2021-04-09T12:08:32Z</time>
      </trkpt>
      <trkpt lat="47.66594" lon="-2.59546">
        <ele>90.4</ele>
        <time>2021-04-09T12:08:33Z</time>
      </trkpt>
      <trkpt lat="47.66592" lon="-2.59547">
        <ele>90.5</ele>
        <time>2021-04-09T12:08:34Z</time>
      </trkpt>
      <trkpt lat="47.66591" lon="-2.59548">
        <ele>90.6</ele>
        <time>2021-04-09T12:08:35Z</time>
      </trkpt>
      <trkpt lat="47.66589" lon="-2.59549">
        <ele>90.8</ele>
        <time>2021-04-09T12:08:36Z</time>
      </trkpt>
      <trkpt lat="47.66588" lon="-2.59549">
        <ele>90.8</ele>
        <time>2021-04-09T12:08:37Z</time>
      </trkpt>
      <trkpt lat="47.66584" lon="-2.59554">
        <ele>90.9</ele>
        <time>2021-04-09T12:08:41Z</time>
      </trkpt>
      <trkpt lat="47.66583" lon="-2.59555">
        <ele>91.1</ele>
        <time>2021-04-09T12:08:42Z</time>
      </trkpt>
      <trkpt lat="47.66579" lon="-2.5956">
        <ele>91.6</ele>
        <time>2021-04-09T12:08:46Z</time>
      </trkpt>
      <trkpt lat="47.66578" lon="-2.59561">
        <ele>91.6</ele>
        <time>2021-04-09T12:08:47Z</time>
      </trkpt>
      <trkpt lat="47.66573" lon="-2.59567">
        <ele>92.2</ele>
        <time>2021-04-09T12:08:52Z</time>
      </trkpt>
      <trkpt lat="47.66572" lon="-2.59568">
        <ele>92.3</ele>
        <time>2021-04-09T12:08:53Z</time>
      </trkpt>
      <trkpt lat="47.66571" lon="-2.59569">
        <ele>92.3</ele>
        <time>2021-04-09T12:08:54Z</time>
      </trkpt>
      <trkpt lat="47.66565" lon="-2.59575">
        <ele>92.4</ele>
        <time>2021-04-09T12:08:59Z</time>
      </trkpt>
      <trkpt lat="47.66565" lon="-2.59576">
        <ele>92.4</ele>
        <time>2021-04-09T12:09:00Z</time>
      </trkpt>
      <trkpt lat="47.66561" lon="-2.59581">
        <ele>93.1</ele>
        <time>2021-04-09T12:09:03Z</time>
      </trkpt>
      <trkpt lat="47.6656" lon="-2.59582">
        <ele>93.3</ele>
        <time>2021-04-09T12:09:04Z</time>
      </trkpt>
      <trkpt lat="47.66559" lon="-2.59584">
        <ele>93.4</ele>
        <time>2021-04-09T12:09:05Z</time>
      </trkpt>
      <trkpt lat="47.66558" lon="-2.59586">
        <ele>93.8</ele>
        <time>2021-04-09T12:09:06Z</time>
      </trkpt>
      <trkpt lat="47.66558" lon="-2.59586">
        <ele>93.8</ele>
        <time>2021-04-09T12:09:06Z</time>
      </trkpt>
      <trkpt lat="47.66555" lon="-2.59593">
        <ele>94.7</ele>
        <time>2021-04-09T12:09:09Z</time>
      </trkpt>
      <trkpt lat="47.66555" lon="-2.59594">
        <ele>94.9</ele>
        <time>2021-04-09T12:09:10Z</time>
      </trkpt>
      <trkpt lat="47.66554" lon="-2.59595">
        <ele>95.1</ele>
        <time>2021-04-09T12:09:11Z</time>
      </trkpt>
      <trkpt lat="47.66554" lon="-2.59597">
        <ele>95.2</ele>
        <time>2021-04-09T12:09:12Z</time>
      </trkpt>
      <trkpt lat="47.66554" lon="-2.59598">
        <ele>95.2</ele>
        <time>2021-04-09T12:09:13Z</time>
      </trkpt>
      <trkpt lat="47.6655" lon="-2.59606">
        <ele>95.2</ele>
        <time>2021-04-09T12:09:17Z</time>
      </trkpt>
      <trkpt lat="47.66548" lon="-2.59613">
        <ele>96</ele>
        <time>2021-04-09T12:09:21Z</time>
      </trkpt>
      <trkpt lat="47.66548" lon="-2.59615">
        <ele>96.1</ele>
        <time>2021-04-09T12:09:22Z</time>
      </trkpt>
      <trkpt lat="47.66547" lon="-2.59617">
        <ele>96.2</ele>
        <time>2021-04-09T12:09:23Z</time>
      </trkpt>
      <trkpt lat="47.66547" lon="-2.59619">
        <ele>96.3</ele>
        <time>2021-04-09T12:09:24Z</time>
      </trkpt>
      <trkpt lat="47.66546" lon="-2.59621">
        <ele>96.5</ele>
        <time>2021-04-09T12:09:25Z</time>
      </trkpt>
      <trkpt lat="47.66545" lon="-2.59623">
        <ele>96.6</ele>
        <time>2021-04-09T12:09:26Z</time>
      </trkpt>
      <trkpt lat="47.66544" lon="-2.59625">
        <ele>96.8</ele>
        <time>2021-04-09T12:09:27Z</time>
      </trkpt>
      <trkpt lat="47.66543" lon="-2.59626">
        <ele>96.9</ele>
        <time>2021-04-09T12:09:28Z</time>
      </trkpt>
      <trkpt lat="47.66542" lon="-2.59627">
        <ele>97</ele>
        <time>2021-04-09T12:09:29Z</time>
      </trkpt>
      <trkpt lat="47.66541" lon="-2.59629">
        <ele>97.1</ele>
        <time>2021-04-09T12:09:30Z</time>
      </trkpt>
      <trkpt lat="47.6654" lon="-2.5963">
        <ele>97.1</ele>
        <time>2021-04-09T12:09:31Z</time>
      </trkpt>
      <trkpt lat="47.66538" lon="-2.59638">
        <ele>96.7</ele>
        <time>2021-04-09T12:09:35Z</time>
      </trkpt>
      <trkpt lat="47.66536" lon="-2.59645">
        <ele>97.1</ele>
        <time>2021-04-09T12:09:39Z</time>
      </trkpt>
      <trkpt lat="47.66533" lon="-2.59653">
        <ele>97.9</ele>
        <time>2021-04-09T12:09:44Z</time>
      </trkpt>
      <trkpt lat="47.66533" lon="-2.59655">
        <ele>98.2</ele>
        <time>2021-04-09T12:09:45Z</time>
      </trkpt>
      <trkpt lat="47.66532" lon="-2.59656">
        <ele>98.3</ele>
        <time>2021-04-09T12:09:46Z</time>
      </trkpt>
      <trkpt lat="47.66532" lon="-2.59658">
        <ele>98.4</ele>
        <time>2021-04-09T12:09:47Z</time>
      </trkpt>
      <trkpt lat="47.66531" lon="-2.5966">
        <ele>98.6</ele>
        <time>2021-04-09T12:09:48Z</time>
      </trkpt>
      <trkpt lat="47.6653" lon="-2.59661">
        <ele>98.1</ele>
        <time>2021-04-09T12:09:49Z</time>
      </trkpt>
      <trkpt lat="47.66528" lon="-2.59667">
        <ele>98.1</ele>
        <time>2021-04-09T12:09:55Z</time>
      </trkpt>
      <trkpt lat="47.66522" lon="-2.59669">
        <ele>98.4</ele>
        <time>2021-04-09T12:10:00Z</time>
      </trkpt>
      <trkpt lat="47.66522" lon="-2.5967">
        <ele>98.3</ele>
        <time>2021-04-09T12:10:01Z</time>
      </trkpt>
      <trkpt lat="47.66518" lon="-2.59674">
        <ele>98.1</ele>
        <time>2021-04-09T12:10:06Z</time>
      </trkpt>
      <trkpt lat="47.66513" lon="-2.59677">
        <ele>97.6</ele>
        <time>2021-04-09T12:10:11Z</time>
      </trkpt>
      <trkpt lat="47.66509" lon="-2.5968">
        <ele>97.4</ele>
        <time>2021-04-09T12:10:16Z</time>
      </trkpt>
      <trkpt lat="47.66504" lon="-2.59681">
        <ele>96.4</ele>
        <time>2021-04-09T12:10:20Z</time>
      </trkpt>
      <trkpt lat="47.66499" lon="-2.59683">
        <ele>95.9</ele>
        <time>2021-04-09T12:10:26Z</time>
      </trkpt>
      <trkpt lat="47.66494" lon="-2.59685">
        <ele>95.5</ele>
        <time>2021-04-09T12:10:31Z</time>
      </trkpt>
      <trkpt lat="47.66489" lon="-2.59685">
        <ele>94.9</ele>
        <time>2021-04-09T12:10:35Z</time>
      </trkpt>
      <trkpt lat="47.66483" lon="-2.59685">
        <ele>92.7</ele>
        <time>2021-04-09T12:10:40Z</time>
      </trkpt>
      <trkpt lat="47.66479" lon="-2.59685">
        <ele>91.3</ele>
        <time>2021-04-09T12:10:43Z</time>
      </trkpt>
      <trkpt lat="47.66473" lon="-2.59685">
        <ele>89.8</ele>
        <time>2021-04-09T12:10:47Z</time>
      </trkpt>
      <trkpt lat="47.66469" lon="-2.59685">
        <ele>89.4</ele>
        <time>2021-04-09T12:10:50Z</time>
      </trkpt>
      <trkpt lat="47.66464" lon="-2.59686">
        <ele>88.3</ele>
        <time>2021-04-09T12:10:53Z</time>
      </trkpt>
      <trkpt lat="47.66459" lon="-2.59683">
        <ele>87.3</ele>
        <time>2021-04-09T12:10:57Z</time>
      </trkpt>
      <trkpt lat="47.66455" lon="-2.59678">
        <ele>87.8</ele>
        <time>2021-04-09T12:11:00Z</time>
      </trkpt>
      <trkpt lat="47.66451" lon="-2.59681">
        <ele>86.8</ele>
        <time>2021-04-09T12:11:06Z</time>
      </trkpt>
      <trkpt lat="47.66446" lon="-2.59684">
        <ele>86.8</ele>
        <time>2021-04-09T12:11:10Z</time>
      </trkpt>
      <trkpt lat="47.66442" lon="-2.59688">
        <ele>86.9</ele>
        <time>2021-04-09T12:11:14Z</time>
      </trkpt>
      <trkpt lat="47.66437" lon="-2.59692">
        <ele>86.3</ele>
        <time>2021-04-09T12:11:19Z</time>
      </trkpt>
      <trkpt lat="47.66435" lon="-2.59692">
        <ele>85.5</ele>
        <time>2021-04-09T12:11:36Z</time>
      </trkpt>
      <trkpt lat="47.66435" lon="-2.59692">
        <ele>85.5</ele>
        <time>2021-04-09T12:11:36Z</time>
      </trkpt>
      <trkpt lat="47.66433" lon="-2.59684">
        <ele>85.2</ele>
        <time>2021-04-09T12:11:50Z</time>
      </trkpt>
      <trkpt lat="47.6643" lon="-2.5968">
        <ele>84.8</ele>
        <time>2021-04-09T12:12:01Z</time>
      </trkpt>
      <trkpt lat="47.66427" lon="-2.59675">
        <ele>84.8</ele>
        <time>2021-04-09T12:12:06Z</time>
      </trkpt>
      <trkpt lat="47.66423" lon="-2.5967">
        <ele>85</ele>
        <time>2021-04-09T12:12:10Z</time>
      </trkpt>
      <trkpt lat="47.66418" lon="-2.59674">
        <ele>81.6</ele>
        <time>2021-04-09T12:12:27Z</time>
      </trkpt>
      <trkpt lat="47.66413" lon="-2.59677">
        <ele>80.3</ele>
        <time>2021-04-09T12:12:34Z</time>
      </trkpt>
      <trkpt lat="47.66408" lon="-2.5968">
        <ele>79.2</ele>
        <time>2021-04-09T12:12:40Z</time>
      </trkpt>
      <trkpt lat="47.66405" lon="-2.59686">
        <ele>78.7</ele>
        <time>2021-04-09T12:12:44Z</time>
      </trkpt>
      <trkpt lat="47.66402" lon="-2.59693">
        <ele>77.3</ele>
        <time>2021-04-09T12:12:49Z</time>
      </trkpt>
      <trkpt lat="47.664" lon="-2.59699">
        <ele>75.5</ele>
        <time>2021-04-09T12:12:54Z</time>
      </trkpt>
      <trkpt lat="47.66398" lon="-2.59707">
        <ele>74.2</ele>
        <time>2021-04-09T12:12:59Z</time>
      </trkpt>
      <trkpt lat="47.66394" lon="-2.59711">
        <ele>72.7</ele>
        <time>2021-04-09T12:13:04Z</time>
      </trkpt>
      <trkpt lat="47.66388" lon="-2.59715">
        <ele>70.7</ele>
        <time>2021-04-09T12:13:11Z</time>
      </trkpt>
      <trkpt lat="47.66384" lon="-2.59717">
        <ele>69.9</ele>
        <time>2021-04-09T12:13:16Z</time>
      </trkpt>
      <trkpt lat="47.66383" lon="-2.59724">
        <ele>68.6</ele>
        <time>2021-04-09T12:13:23Z</time>
      </trkpt>
      <trkpt lat="47.66383" lon="-2.59732">
        <ele>67.9</ele>
        <time>2021-04-09T12:13:28Z</time>
      </trkpt>
      <trkpt lat="47.66378" lon="-2.59736">
        <ele>66.9</ele>
        <time>2021-04-09T12:13:35Z</time>
      </trkpt>
      <trkpt lat="47.66375" lon="-2.5974">
        <ele>66.3</ele>
        <time>2021-04-09T12:13:39Z</time>
      </trkpt>
      <trkpt lat="47.66371" lon="-2.59745">
        <ele>65.7</ele>
        <time>2021-04-09T12:13:44Z</time>
      </trkpt>
      <trkpt lat="47.66372" lon="-2.59753">
        <ele>64.7</ele>
        <time>2021-04-09T12:13:50Z</time>
      </trkpt>
      <trkpt lat="47.6637" lon="-2.5976">
        <ele>63.4</ele>
        <time>2021-04-09T12:13:56Z</time>
      </trkpt>
      <trkpt lat="47.66366" lon="-2.59769">
        <ele>62.5</ele>
        <time>2021-04-09T12:14:01Z</time>
      </trkpt>
      <trkpt lat="47.66362" lon="-2.59776">
        <ele>62</ele>
        <time>2021-04-09T12:14:05Z</time>
      </trkpt>
      <trkpt lat="47.66357" lon="-2.5978">
        <ele>61.1</ele>
        <time>2021-04-09T12:14:09Z</time>
      </trkpt>
      <trkpt lat="47.66353" lon="-2.59782">
        <ele>60.2</ele>
        <time>2021-04-09T12:14:13Z</time>
      </trkpt>
      <trkpt lat="47.66348" lon="-2.59784">
        <ele>59.5</ele>
        <time>2021-04-09T12:14:17Z</time>
      </trkpt>
      <trkpt lat="47.66341" lon="-2.59783">
        <ele>58.8</ele>
        <time>2021-04-09T12:14:21Z</time>
      </trkpt>
      <trkpt lat="47.66336" lon="-2.59784">
        <ele>58.3</ele>
        <time>2021-04-09T12:14:24Z</time>
      </trkpt>
      <trkpt lat="47.66332" lon="-2.59788">
        <ele>56.7</ele>
        <time>2021-04-09T12:14:30Z</time>
      </trkpt>
      <trkpt lat="47.66326" lon="-2.59791">
        <ele>54.8</ele>
        <time>2021-04-09T12:14:39Z</time>
      </trkpt>
      <trkpt lat="47.6632" lon="-2.59794">
        <ele>54.6</ele>
        <time>2021-04-09T12:14:42Z</time>
      </trkpt>
      <trkpt lat="47.66314" lon="-2.59795">
        <ele>53.9</ele>
        <time>2021-04-09T12:14:45Z</time>
      </trkpt>
      <trkpt lat="47.66311" lon="-2.59799">
        <ele>52.7</ele>
        <time>2021-04-09T12:14:54Z</time>
      </trkpt>
      <trkpt lat="47.66309" lon="-2.59806">
        <ele>53.5</ele>
        <time>2021-04-09T12:15:04Z</time>
      </trkpt>
      <trkpt lat="47.66308" lon="-2.59813">
        <ele>53.3</ele>
        <time>2021-04-09T12:15:09Z</time>
      </trkpt>
      <trkpt lat="47.66306" lon="-2.5982">
        <ele>53.9</ele>
        <time>2021-04-09T12:15:12Z</time>
      </trkpt>
      <trkpt lat="47.66304" lon="-2.59826">
        <ele>54.7</ele>
        <time>2021-04-09T12:15:16Z</time>
      </trkpt>
      <trkpt lat="47.663" lon="-2.59831">
        <ele>55.3</ele>
        <time>2021-04-09T12:15:21Z</time>
      </trkpt>
      <trkpt lat="47.66296" lon="-2.59835">
        <ele>55.1</ele>
        <time>2021-04-09T12:15:25Z</time>
      </trkpt>
      <trkpt lat="47.66291" lon="-2.59836">
        <ele>54.9</ele>
        <time>2021-04-09T12:15:30Z</time>
      </trkpt>
      <trkpt lat="47.66285" lon="-2.5984">
        <ele>55.5</ele>
        <time>2021-04-09T12:15:33Z</time>
      </trkpt>
      <trkpt lat="47.6628" lon="-2.59842">
        <ele>55.8</ele>
        <time>2021-04-09T12:15:38Z</time>
      </trkpt>
      <trkpt lat="47.66276" lon="-2.59842">
        <ele>55.9</ele>
        <time>2021-04-09T12:15:42Z</time>
      </trkpt>
      <trkpt lat="47.66271" lon="-2.59841">
        <ele>55.6</ele>
        <time>2021-04-09T12:15:48Z</time>
      </trkpt>
      <trkpt lat="47.66266" lon="-2.59839">
        <ele>55.7</ele>
        <time>2021-04-09T12:15:52Z</time>
      </trkpt>
      <trkpt lat="47.6626" lon="-2.5984">
        <ele>55.2</ele>
        <time>2021-04-09T12:15:57Z</time>
      </trkpt>
      <trkpt lat="47.66255" lon="-2.59842">
        <ele>54</ele>
        <time>2021-04-09T12:16:01Z</time>
      </trkpt>
      <trkpt lat="47.6625" lon="-2.59841">
        <ele>52.9</ele>
        <time>2021-04-09T12:16:04Z</time>
      </trkpt>
      <trkpt lat="47.66245" lon="-2.59839">
        <ele>51.9</ele>
        <time>2021-04-09T12:16:10Z</time>
      </trkpt>
      <trkpt lat="47.6624" lon="-2.59839">
        <ele>51.2</ele>
        <time>2021-04-09T12:16:16Z</time>
      </trkpt>
      <trkpt lat="47.66236" lon="-2.59838">
        <ele>50.9</ele>
        <time>2021-04-09T12:16:21Z</time>
      </trkpt>
      <trkpt lat="47.66231" lon="-2.59839">
        <ele>51.2</ele>
        <time>2021-04-09T12:16:28Z</time>
      </trkpt>
      <trkpt lat="47.66227" lon="-2.59843">
        <ele>51.7</ele>
        <time>2021-04-09T12:16:33Z</time>
      </trkpt>
      <trkpt lat="47.66222" lon="-2.59839">
        <ele>55.3</ele>
        <time>2021-04-09T12:16:41Z</time>
      </trkpt>
      <trkpt lat="47.66217" lon="-2.59838">
        <ele>60.2</ele>
        <time>2021-04-09T12:16:52Z</time>
      </trkpt>
      <trkpt lat="47.66211" lon="-2.59838">
        <ele>61.4</ele>
        <time>2021-04-09T12:16:58Z</time>
      </trkpt>
      <trkpt lat="47.66208" lon="-2.59843">
        <ele>68.2</ele>
        <time>2021-04-09T12:17:12Z</time>
      </trkpt>
      <trkpt lat="47.66203" lon="-2.59842">
        <ele>70.4</ele>
        <time>2021-04-09T12:17:15Z</time>
      </trkpt>
      <trkpt lat="47.66198" lon="-2.59844">
        <ele>70.9</ele>
        <time>2021-04-09T12:17:27Z</time>
      </trkpt>
      <trkpt lat="47.66193" lon="-2.59848">
        <ele>71</ele>
        <time>2021-04-09T12:17:33Z</time>
      </trkpt>
      <trkpt lat="47.66188" lon="-2.59853">
        <ele>70.9</ele>
        <time>2021-04-09T12:17:38Z</time>
      </trkpt>
      <trkpt lat="47.66184" lon="-2.59857">
        <ele>70.9</ele>
        <time>2021-04-09T12:17:42Z</time>
      </trkpt>
      <trkpt lat="47.66179" lon="-2.59859">
        <ele>70.8</ele>
        <time>2021-04-09T12:17:45Z</time>
      </trkpt>
      <trkpt lat="47.66174" lon="-2.59864">
        <ele>70.8</ele>
        <time>2021-04-09T12:17:48Z</time>
      </trkpt>
      <trkpt lat="47.6617" lon="-2.59868">
        <ele>70.7</ele>
        <time>2021-04-09T12:17:51Z</time>
      </trkpt>
      <trkpt lat="47.66166" lon="-2.59869">
        <ele>70.4</ele>
        <time>2021-04-09T12:17:54Z</time>
      </trkpt>
      <trkpt lat="47.6616" lon="-2.5987">
        <ele>70.1</ele>
        <time>2021-04-09T12:17:59Z</time>
      </trkpt>
      <trkpt lat="47.66155" lon="-2.5987">
        <ele>69.9</ele>
        <time>2021-04-09T12:18:02Z</time>
      </trkpt>
      <trkpt lat="47.6615" lon="-2.59871">
        <ele>69.5</ele>
        <time>2021-04-09T12:18:05Z</time>
      </trkpt>
      <trkpt lat="47.66145" lon="-2.59874">
        <ele>69.4</ele>
        <time>2021-04-09T12:18:08Z</time>
      </trkpt>
      <trkpt lat="47.66141" lon="-2.59878">
        <ele>68.3</ele>
        <time>2021-04-09T12:18:12Z</time>
      </trkpt>
      <trkpt lat="47.66135" lon="-2.59884">
        <ele>65.9</ele>
        <time>2021-04-09T12:18:18Z</time>
      </trkpt>
      <trkpt lat="47.66128" lon="-2.59887">
        <ele>64.8</ele>
        <time>2021-04-09T12:18:21Z</time>
      </trkpt>
      <trkpt lat="47.66123" lon="-2.59888">
        <ele>64.6</ele>
        <time>2021-04-09T12:18:24Z</time>
      </trkpt>
      <trkpt lat="47.66118" lon="-2.59891">
        <ele>66.2</ele>
        <time>2021-04-09T12:18:28Z</time>
      </trkpt>
      <trkpt lat="47.66112" lon="-2.59896">
        <ele>69.1</ele>
        <time>2021-04-09T12:18:32Z</time>
      </trkpt>
      <trkpt lat="47.66108" lon="-2.599">
        <ele>71.7</ele>
        <time>2021-04-09T12:18:35Z</time>
      </trkpt>
      <trkpt lat="47.66103" lon="-2.59905">
        <ele>74.4</ele>
        <time>2021-04-09T12:18:39Z</time>
      </trkpt>
      <trkpt lat="47.66098" lon="-2.59908">
        <ele>76.8</ele>
        <time>2021-04-09T12:18:44Z</time>
      </trkpt>
      <trkpt lat="47.66093" lon="-2.59909">
        <ele>78.5</ele>
        <time>2021-04-09T12:18:52Z</time>
      </trkpt>
      <trkpt lat="47.66087" lon="-2.59912">
        <ele>77.5</ele>
        <time>2021-04-09T12:18:57Z</time>
      </trkpt>
      <trkpt lat="47.66084" lon="-2.59916">
        <ele>72.2</ele>
        <time>2021-04-09T12:19:04Z</time>
      </trkpt>
      <trkpt lat="47.66078" lon="-2.59921">
        <ele>65.8</ele>
        <time>2021-04-09T12:19:10Z</time>
      </trkpt>
      <trkpt lat="47.66074" lon="-2.59924">
        <ele>60.7</ele>
        <time>2021-04-09T12:19:14Z</time>
      </trkpt>
      <trkpt lat="47.66067" lon="-2.59931">
        <ele>57.7</ele>
        <time>2021-04-09T12:19:21Z</time>
      </trkpt>
      <trkpt lat="47.66063" lon="-2.59936">
        <ele>57.3</ele>
        <time>2021-04-09T12:19:25Z</time>
      </trkpt>
      <trkpt lat="47.6606" lon="-2.59941">
        <ele>57.3</ele>
        <time>2021-04-09T12:19:29Z</time>
      </trkpt>
      <trkpt lat="47.66055" lon="-2.59942">
        <ele>58.4</ele>
        <time>2021-04-09T12:19:32Z</time>
      </trkpt>
      <trkpt lat="47.66049" lon="-2.59944">
        <ele>58.9</ele>
        <time>2021-04-09T12:19:35Z</time>
      </trkpt>
      <trkpt lat="47.66044" lon="-2.59945">
        <ele>60.6</ele>
        <time>2021-04-09T12:19:40Z</time>
      </trkpt>
      <trkpt lat="47.6604" lon="-2.5995">
        <ele>62.9</ele>
        <time>2021-04-09T12:19:44Z</time>
      </trkpt>
      <trkpt lat="47.66038" lon="-2.59956">
        <ele>64.6</ele>
        <time>2021-04-09T12:19:48Z</time>
      </trkpt>
      <trkpt lat="47.66035" lon="-2.59962">
        <ele>66.3</ele>
        <time>2021-04-09T12:19:51Z</time>
      </trkpt>
      <trkpt lat="47.66031" lon="-2.59967">
        <ele>68</ele>
        <time>2021-04-09T12:19:55Z</time>
      </trkpt>
      <trkpt lat="47.66028" lon="-2.59972">
        <ele>69.6</ele>
        <time>2021-04-09T12:19:59Z</time>
      </trkpt>
      <trkpt lat="47.66023" lon="-2.59976">
        <ele>72.1</ele>
        <time>2021-04-09T12:20:05Z</time>
      </trkpt>
      <trkpt lat="47.66019" lon="-2.5998">
        <ele>72.6</ele>
        <time>2021-04-09T12:20:09Z</time>
      </trkpt>
      <trkpt lat="47.66016" lon="-2.59986">
        <ele>73.2</ele>
        <time>2021-04-09T12:20:12Z</time>
      </trkpt>
      <trkpt lat="47.66012" lon="-2.59992">
        <ele>74.5</ele>
        <time>2021-04-09T12:20:15Z</time>
      </trkpt>
      <trkpt lat="47.66007" lon="-2.59994">
        <ele>75.2</ele>
        <time>2021-04-09T12:20:18Z</time>
      </trkpt>
      <trkpt lat="47.66002" lon="-2.59993">
        <ele>75.6</ele>
        <time>2021-04-09T12:20:22Z</time>
      </trkpt>
      <trkpt lat="47.65998" lon="-2.59987">
        <ele>75.8</ele>
        <time>2021-04-09T12:20:30Z</time>
      </trkpt>
      <trkpt lat="47.65995" lon="-2.5998">
        <ele>76.1</ele>
        <time>2021-04-09T12:20:34Z</time>
      </trkpt>
      <trkpt lat="47.65992" lon="-2.59974">
        <ele>76.4</ele>
        <time>2021-04-09T12:20:38Z</time>
      </trkpt>
      <trkpt lat="47.65987" lon="-2.59969">
        <ele>76.5</ele>
        <time>2021-04-09T12:20:42Z</time>
      </trkpt>
      <trkpt lat="47.65984" lon="-2.59965">
        <ele>76.3</ele>
        <time>2021-04-09T12:20:45Z</time>
      </trkpt>
      <trkpt lat="47.6598" lon="-2.5996">
        <ele>76.7</ele>
        <time>2021-04-09T12:20:48Z</time>
      </trkpt>
      <trkpt lat="47.65977" lon="-2.59955">
        <ele>76.4</ele>
        <time>2021-04-09T12:20:52Z</time>
      </trkpt>
      <trkpt lat="47.65974" lon="-2.59948">
        <ele>75.7</ele>
        <time>2021-04-09T12:20:56Z</time>
      </trkpt>
      <trkpt lat="47.6597" lon="-2.59944">
        <ele>73.6</ele>
        <time>2021-04-09T12:20:59Z</time>
      </trkpt>
      <trkpt lat="47.65968" lon="-2.59937">
        <ele>73.5</ele>
        <time>2021-04-09T12:21:04Z</time>
      </trkpt>
      <trkpt lat="47.65966" lon="-2.5993">
        <ele>73</ele>
        <time>2021-04-09T12:21:09Z</time>
      </trkpt>
      <trkpt lat="47.65962" lon="-2.59926">
        <ele>72.1</ele>
        <time>2021-04-09T12:21:12Z</time>
      </trkpt>
      <trkpt lat="47.65958" lon="-2.59919">
        <ele>71.3</ele>
        <time>2021-04-09T12:21:16Z</time>
      </trkpt>
      <trkpt lat="47.65953" lon="-2.59912">
        <ele>71.8</ele>
        <time>2021-04-09T12:21:20Z</time>
      </trkpt>
      <trkpt lat="47.6595" lon="-2.59905">
        <ele>71.6</ele>
        <time>2021-04-09T12:21:23Z</time>
      </trkpt>
      <trkpt lat="47.65948" lon="-2.59898">
        <ele>72.1</ele>
        <time>2021-04-09T12:21:26Z</time>
      </trkpt>
      <trkpt lat="47.65944" lon="-2.59892">
        <ele>71.3</ele>
        <time>2021-04-09T12:21:31Z</time>
      </trkpt>
      <trkpt lat="47.65942" lon="-2.59885">
        <ele>72.1</ele>
        <time>2021-04-09T12:21:34Z</time>
      </trkpt>
      <trkpt lat="47.65939" lon="-2.59879">
        <ele>72.3</ele>
        <time>2021-04-09T12:21:39Z</time>
      </trkpt>
      <trkpt lat="47.65936" lon="-2.59872">
        <ele>72.7</ele>
        <time>2021-04-09T12:21:44Z</time>
      </trkpt>
      <trkpt lat="47.65934" lon="-2.59866">
        <ele>72.9</ele>
        <time>2021-04-09T12:21:49Z</time>
      </trkpt>
      <trkpt lat="47.6593" lon="-2.59863">
        <ele>72.1</ele>
        <time>2021-04-09T12:21:53Z</time>
      </trkpt>
      <trkpt lat="47.65926" lon="-2.5986">
        <ele>71.6</ele>
        <time>2021-04-09T12:21:56Z</time>
      </trkpt>
      <trkpt lat="47.65921" lon="-2.59859">
        <ele>71.2</ele>
        <time>2021-04-09T12:21:59Z</time>
      </trkpt>
      <trkpt lat="47.65918" lon="-2.59853">
        <ele>72.5</ele>
        <time>2021-04-09T12:22:04Z</time>
      </trkpt>
      <trkpt lat="47.65914" lon="-2.59847">
        <ele>73.6</ele>
        <time>2021-04-09T12:22:08Z</time>
      </trkpt>
      <trkpt lat="47.6591" lon="-2.59844">
        <ele>74.2</ele>
        <time>2021-04-09T12:22:12Z</time>
      </trkpt>
      <trkpt lat="47.65906" lon="-2.59839">
        <ele>74.9</ele>
        <time>2021-04-09T12:22:15Z</time>
      </trkpt>
      <trkpt lat="47.65901" lon="-2.59836">
        <ele>75.5</ele>
        <time>2021-04-09T12:22:19Z</time>
      </trkpt>
      <trkpt lat="47.65896" lon="-2.59835">
        <ele>75.9</ele>
        <time>2021-04-09T12:22:22Z</time>
      </trkpt>
      <trkpt lat="47.65891" lon="-2.59836">
        <ele>76.1</ele>
        <time>2021-04-09T12:22:25Z</time>
      </trkpt>
      <trkpt lat="47.65887" lon="-2.59837">
        <ele>75.4</ele>
        <time>2021-04-09T12:22:28Z</time>
      </trkpt>
      <trkpt lat="47.65882" lon="-2.59835">
        <ele>74.7</ele>
        <time>2021-04-09T12:22:31Z</time>
      </trkpt>
      <trkpt lat="47.65877" lon="-2.59831">
        <ele>74</ele>
        <time>2021-04-09T12:22:35Z</time>
      </trkpt>
      <trkpt lat="47.65874" lon="-2.59826">
        <ele>72.8</ele>
        <time>2021-04-09T12:22:38Z</time>
      </trkpt>
      <trkpt lat="47.65869" lon="-2.59823">
        <ele>70.5</ele>
        <time>2021-04-09T12:22:43Z</time>
      </trkpt>
      <trkpt lat="47.65865" lon="-2.59828">
        <ele>68.1</ele>
        <time>2021-04-09T12:22:47Z</time>
      </trkpt>
      <trkpt lat="47.65861" lon="-2.59832">
        <ele>66.7</ele>
        <time>2021-04-09T12:22:52Z</time>
      </trkpt>
      <trkpt lat="47.65857" lon="-2.59835">
        <ele>68</ele>
        <time>2021-04-09T12:22:56Z</time>
      </trkpt>
      <trkpt lat="47.65855" lon="-2.59841">
        <ele>69.9</ele>
        <time>2021-04-09T12:23:01Z</time>
      </trkpt>
      <trkpt lat="47.65853" lon="-2.59848">
        <ele>71.6</ele>
        <time>2021-04-09T12:23:07Z</time>
      </trkpt>
      <trkpt lat="47.6585" lon="-2.59853">
        <ele>72.5</ele>
        <time>2021-04-09T12:23:13Z</time>
      </trkpt>
      <trkpt lat="47.65846" lon="-2.59859">
        <ele>74.3</ele>
        <time>2021-04-09T12:23:18Z</time>
      </trkpt>
      <trkpt lat="47.65844" lon="-2.59866">
        <ele>74.8</ele>
        <time>2021-04-09T12:23:23Z</time>
      </trkpt>
      <trkpt lat="47.65839" lon="-2.59867">
        <ele>73.9</ele>
        <time>2021-04-09T12:23:27Z</time>
      </trkpt>
      <trkpt lat="47.65834" lon="-2.59872">
        <ele>73.8</ele>
        <time>2021-04-09T12:23:31Z</time>
      </trkpt>
      <trkpt lat="47.6583" lon="-2.59877">
        <ele>74</ele>
        <time>2021-04-09T12:23:35Z</time>
      </trkpt>
      <trkpt lat="47.65826" lon="-2.59882">
        <ele>72.9</ele>
        <time>2021-04-09T12:23:39Z</time>
      </trkpt>
      <trkpt lat="47.65822" lon="-2.59885">
        <ele>72.9</ele>
        <time>2021-04-09T12:23:43Z</time>
      </trkpt>
      <trkpt lat="47.65818" lon="-2.59891">
        <ele>70.6</ele>
        <time>2021-04-09T12:23:48Z</time>
      </trkpt>
      <trkpt lat="47.65815" lon="-2.59899">
        <ele>69.7</ele>
        <time>2021-04-09T12:23:55Z</time>
      </trkpt>
      <trkpt lat="47.65813" lon="-2.59906">
        <ele>68.7</ele>
        <time>2021-04-09T12:23:58Z</time>
      </trkpt>
      <trkpt lat="47.6581" lon="-2.59913">
        <ele>68.5</ele>
        <time>2021-04-09T12:24:01Z</time>
      </trkpt>
      <trkpt lat="47.65808" lon="-2.59921">
        <ele>68.1</ele>
        <time>2021-04-09T12:24:05Z</time>
      </trkpt>
      <trkpt lat="47.65805" lon="-2.59928">
        <ele>69.3</ele>
        <time>2021-04-09T12:24:09Z</time>
      </trkpt>
      <trkpt lat="47.65801" lon="-2.59932">
        <ele>70.5</ele>
        <time>2021-04-09T12:24:13Z</time>
      </trkpt>
      <trkpt lat="47.65798" lon="-2.59938">
        <ele>72.4</ele>
        <time>2021-04-09T12:24:17Z</time>
      </trkpt>
      <trkpt lat="47.65797" lon="-2.59946">
        <ele>73.5</ele>
        <time>2021-04-09T12:24:21Z</time>
      </trkpt>
      <trkpt lat="47.65794" lon="-2.59949">
        <ele>75.2</ele>
        <time>2021-04-09T12:24:29Z</time>
      </trkpt>
      <trkpt lat="47.65789" lon="-2.59946">
        <ele>76.2</ele>
        <time>2021-04-09T12:24:34Z</time>
      </trkpt>
      <trkpt lat="47.65785" lon="-2.59941">
        <ele>76.8</ele>
        <time>2021-04-09T12:24:38Z</time>
      </trkpt>
      <trkpt lat="47.65781" lon="-2.59936">
        <ele>77.3</ele>
        <time>2021-04-09T12:24:41Z</time>
      </trkpt>
      <trkpt lat="47.6578" lon="-2.59929">
        <ele>76.8</ele>
        <time>2021-04-09T12:24:45Z</time>
      </trkpt>
      <trkpt lat="47.65776" lon="-2.59923">
        <ele>75.4</ele>
        <time>2021-04-09T12:24:49Z</time>
      </trkpt>
      <trkpt lat="47.65773" lon="-2.59918">
        <ele>74.3</ele>
        <time>2021-04-09T12:24:53Z</time>
      </trkpt>
      <trkpt lat="47.6577" lon="-2.59913">
        <ele>72.3</ele>
        <time>2021-04-09T12:24:57Z</time>
      </trkpt>
      <trkpt lat="47.65768" lon="-2.59907">
        <ele>69.6</ele>
        <time>2021-04-09T12:25:03Z</time>
      </trkpt>
      <trkpt lat="47.65767" lon="-2.59899">
        <ele>66.5</ele>
        <time>2021-04-09T12:25:09Z</time>
      </trkpt>
      <trkpt lat="47.65766" lon="-2.59891">
        <ele>65</ele>
        <time>2021-04-09T12:25:15Z</time>
      </trkpt>
      <trkpt lat="47.65765" lon="-2.59884">
        <ele>63.5</ele>
        <time>2021-04-09T12:25:22Z</time>
      </trkpt>
      <trkpt lat="47.65762" lon="-2.59876">
        <ele>59.5</ele>
        <time>2021-04-09T12:25:29Z</time>
      </trkpt>
      <trkpt lat="47.65758" lon="-2.59868">
        <ele>56.5</ele>
        <time>2021-04-09T12:25:33Z</time>
      </trkpt>
      <trkpt lat="47.65754" lon="-2.59865">
        <ele>54.1</ele>
        <time>2021-04-09T12:25:37Z</time>
      </trkpt>
      <trkpt lat="47.65751" lon="-2.59861">
        <ele>51.6</ele>
        <time>2021-04-09T12:25:40Z</time>
      </trkpt>
      <trkpt lat="47.65747" lon="-2.59855">
        <ele>49.5</ele>
        <time>2021-04-09T12:25:44Z</time>
      </trkpt>
      <trkpt lat="47.65744" lon="-2.59849">
        <ele>48.5</ele>
        <time>2021-04-09T12:25:47Z</time>
      </trkpt>
      <trkpt lat="47.65741" lon="-2.59841">
        <ele>47.5</ele>
        <time>2021-04-09T12:25:50Z</time>
      </trkpt>
      <trkpt lat="47.65737" lon="-2.59833">
        <ele>46.7</ele>
        <time>2021-04-09T12:25:53Z</time>
      </trkpt>
      <trkpt lat="47.65734" lon="-2.59826">
        <ele>45.9</ele>
        <time>2021-04-09T12:25:56Z</time>
      </trkpt>
      <trkpt lat="47.65731" lon="-2.5982">
        <ele>45.8</ele>
        <time>2021-04-09T12:26:00Z</time>
      </trkpt>
      <trkpt lat="47.65728" lon="-2.59813">
        <ele>45.4</ele>
        <time>2021-04-09T12:26:04Z</time>
      </trkpt>
      <trkpt lat="47.65727" lon="-2.59804">
        <ele>46.3</ele>
        <time>2021-04-09T12:26:08Z</time>
      </trkpt>
      <trkpt lat="47.65727" lon="-2.59796">
        <ele>48.4</ele>
        <time>2021-04-09T12:26:12Z</time>
      </trkpt>
      <trkpt lat="47.65724" lon="-2.59789">
        <ele>49.7</ele>
        <time>2021-04-09T12:26:23Z</time>
      </trkpt>
      <trkpt lat="47.65722" lon="-2.59782">
        <ele>50</ele>
        <time>2021-04-09T12:26:26Z</time>
      </trkpt>
      <trkpt lat="47.65719" lon="-2.59777">
        <ele>51</ele>
        <time>2021-04-09T12:26:30Z</time>
      </trkpt>
      <trkpt lat="47.65715" lon="-2.59772">
        <ele>52.2</ele>
        <time>2021-04-09T12:26:33Z</time>
      </trkpt>
      <trkpt lat="47.65712" lon="-2.59765">
        <ele>53.3</ele>
        <time>2021-04-09T12:26:36Z</time>
      </trkpt>
      <trkpt lat="47.6571" lon="-2.59758">
        <ele>54.3</ele>
        <time>2021-04-09T12:26:40Z</time>
      </trkpt>
      <trkpt lat="47.65709" lon="-2.59751">
        <ele>55.9</ele>
        <time>2021-04-09T12:26:45Z</time>
      </trkpt>
      <trkpt lat="47.65709" lon="-2.59744">
        <ele>56.9</ele>
        <time>2021-04-09T12:26:49Z</time>
      </trkpt>
      <trkpt lat="47.65706" lon="-2.59738">
        <ele>58.3</ele>
        <time>2021-04-09T12:26:54Z</time>
      </trkpt>
      <trkpt lat="47.65705" lon="-2.59731">
        <ele>59.5</ele>
        <time>2021-04-09T12:26:59Z</time>
      </trkpt>
      <trkpt lat="47.65706" lon="-2.59724">
        <ele>60.1</ele>
        <time>2021-04-09T12:27:02Z</time>
      </trkpt>
      <trkpt lat="47.65706" lon="-2.59716">
        <ele>60.4</ele>
        <time>2021-04-09T12:27:05Z</time>
      </trkpt>
      <trkpt lat="47.65704" lon="-2.5971">
        <ele>59.9</ele>
        <time>2021-04-09T12:27:10Z</time>
      </trkpt>
      <trkpt lat="47.65699" lon="-2.59712">
        <ele>59.2</ele>
        <time>2021-04-09T12:27:13Z</time>
      </trkpt>
      <trkpt lat="47.65694" lon="-2.59715">
        <ele>59.1</ele>
        <time>2021-04-09T12:27:17Z</time>
      </trkpt>
      <trkpt lat="47.6569" lon="-2.5971">
        <ele>60.2</ele>
        <time>2021-04-09T12:27:22Z</time>
      </trkpt>
      <trkpt lat="47.65688" lon="-2.59704">
        <ele>61</ele>
        <time>2021-04-09T12:27:24Z</time>
      </trkpt>
      <trkpt lat="47.65686" lon="-2.59697">
        <ele>61.9</ele>
        <time>2021-04-09T12:27:27Z</time>
      </trkpt>
      <trkpt lat="47.65685" lon="-2.59689">
        <ele>63.4</ele>
        <time>2021-04-09T12:27:32Z</time>
      </trkpt>
      <trkpt lat="47.65685" lon="-2.59682">
        <ele>63.8</ele>
        <time>2021-04-09T12:27:36Z</time>
      </trkpt>
      <trkpt lat="47.65685" lon="-2.59675">
        <ele>63.5</ele>
        <time>2021-04-09T12:27:40Z</time>
      </trkpt>
      <trkpt lat="47.65683" lon="-2.59665">
        <ele>63.6</ele>
        <time>2021-04-09T12:27:44Z</time>
      </trkpt>
      <trkpt lat="47.65685" lon="-2.59657">
        <ele>64.3</ele>
        <time>2021-04-09T12:27:50Z</time>
      </trkpt>
      <trkpt lat="47.65686" lon="-2.59648">
        <ele>65</ele>
        <time>2021-04-09T12:27:53Z</time>
      </trkpt>
      <trkpt lat="47.65689" lon="-2.59641">
        <ele>65.5</ele>
        <time>2021-04-09T12:27:57Z</time>
      </trkpt>
      <trkpt lat="47.65691" lon="-2.59633">
        <ele>66.1</ele>
        <time>2021-04-09T12:28:01Z</time>
      </trkpt>
      <trkpt lat="47.65693" lon="-2.59625">
        <ele>66.3</ele>
        <time>2021-04-09T12:28:06Z</time>
      </trkpt>
      <trkpt lat="47.65695" lon="-2.59618">
        <ele>65.7</ele>
        <time>2021-04-09T12:28:11Z</time>
      </trkpt>
      <trkpt lat="47.65696" lon="-2.59611">
        <ele>65</ele>
        <time>2021-04-09T12:28:14Z</time>
      </trkpt>
      <trkpt lat="47.65699" lon="-2.59604">
        <ele>63.9</ele>
        <time>2021-04-09T12:28:19Z</time>
      </trkpt>
      <trkpt lat="47.65699" lon="-2.59596">
        <ele>63.5</ele>
        <time>2021-04-09T12:28:22Z</time>
      </trkpt>
      <trkpt lat="47.657" lon="-2.59587">
        <ele>62.7</ele>
        <time>2021-04-09T12:28:27Z</time>
      </trkpt>
      <trkpt lat="47.65701" lon="-2.5958">
        <ele>62.2</ele>
        <time>2021-04-09T12:28:32Z</time>
      </trkpt>
      <trkpt lat="47.65702" lon="-2.59578">
        <ele>62.3</ele>
        <time>2021-04-09T12:28:51Z</time>
      </trkpt>
      <trkpt lat="47.65702" lon="-2.59578">
        <ele>62.3</ele>
        <time>2021-04-09T12:28:51Z</time>
      </trkpt>
      <trkpt lat="47.65703" lon="-2.59566">
        <ele>64.6</ele>
        <time>2021-04-09T12:29:27Z</time>
      </trkpt>
      <trkpt lat="47.65706" lon="-2.59559">
        <ele>66.4</ele>
        <time>2021-04-09T12:29:35Z</time>
      </trkpt>
      <trkpt lat="47.65711" lon="-2.59555">
        <ele>67.3</ele>
        <time>2021-04-09T12:29:39Z</time>
      </trkpt>
      <trkpt lat="47.65715" lon="-2.59553">
        <ele>68.3</ele>
        <time>2021-04-09T12:29:43Z</time>
      </trkpt>
      <trkpt lat="47.6572" lon="-2.59547">
        <ele>69.3</ele>
        <time>2021-04-09T12:29:47Z</time>
      </trkpt>
      <trkpt lat="47.65724" lon="-2.59543">
        <ele>70.4</ele>
        <time>2021-04-09T12:29:50Z</time>
      </trkpt>
      <trkpt lat="47.65728" lon="-2.59541">
        <ele>71.7</ele>
        <time>2021-04-09T12:29:53Z</time>
      </trkpt>
      <trkpt lat="47.65734" lon="-2.59538">
        <ele>74</ele>
        <time>2021-04-09T12:29:58Z</time>
      </trkpt>
      <trkpt lat="47.65737" lon="-2.59532">
        <ele>74.4</ele>
        <time>2021-04-09T12:30:03Z</time>
      </trkpt>
      <trkpt lat="47.65742" lon="-2.59527">
        <ele>74.7</ele>
        <time>2021-04-09T12:30:08Z</time>
      </trkpt>
      <trkpt lat="47.65747" lon="-2.59528">
        <ele>75.1</ele>
        <time>2021-04-09T12:30:12Z</time>
      </trkpt>
      <trkpt lat="47.65752" lon="-2.59527">
        <ele>75.4</ele>
        <time>2021-04-09T12:30:15Z</time>
      </trkpt>
      <trkpt lat="47.65758" lon="-2.59524">
        <ele>76.6</ele>
        <time>2021-04-09T12:30:19Z</time>
      </trkpt>
      <trkpt lat="47.65762" lon="-2.59523">
        <ele>77.6</ele>
        <time>2021-04-09T12:30:24Z</time>
      </trkpt>
      <trkpt lat="47.65767" lon="-2.59524">
        <ele>79.6</ele>
        <time>2021-04-09T12:30:28Z</time>
      </trkpt>
      <trkpt lat="47.65772" lon="-2.59525">
        <ele>81.2</ele>
        <time>2021-04-09T12:30:32Z</time>
      </trkpt>
      <trkpt lat="47.65777" lon="-2.59528">
        <ele>82</ele>
        <time>2021-04-09T12:30:36Z</time>
      </trkpt>
      <trkpt lat="47.65784" lon="-2.59529">
        <ele>82.3</ele>
        <time>2021-04-09T12:30:40Z</time>
      </trkpt>
      <trkpt lat="47.65789" lon="-2.59529">
        <ele>83</ele>
        <time>2021-04-09T12:30:44Z</time>
      </trkpt>
      <trkpt lat="47.65794" lon="-2.59526">
        <ele>83.7</ele>
        <time>2021-04-09T12:30:49Z</time>
      </trkpt>
      <trkpt lat="47.65797" lon="-2.59519">
        <ele>83.6</ele>
        <time>2021-04-09T12:30:53Z</time>
      </trkpt>
      <trkpt lat="47.65802" lon="-2.59513">
        <ele>83.1</ele>
        <time>2021-04-09T12:30:56Z</time>
      </trkpt>
      <trkpt lat="47.65805" lon="-2.59507">
        <ele>82</ele>
        <time>2021-04-09T12:31:01Z</time>
      </trkpt>
      <trkpt lat="47.65811" lon="-2.59505">
        <ele>81.5</ele>
        <time>2021-04-09T12:31:05Z</time>
      </trkpt>
      <trkpt lat="47.65816" lon="-2.59502">
        <ele>81.5</ele>
        <time>2021-04-09T12:31:09Z</time>
      </trkpt>
      <trkpt lat="47.65821" lon="-2.59503">
        <ele>81.9</ele>
        <time>2021-04-09T12:31:12Z</time>
      </trkpt>
      <trkpt lat="47.65824" lon="-2.59498">
        <ele>83.9</ele>
        <time>2021-04-09T12:31:16Z</time>
      </trkpt>
      <trkpt lat="47.65828" lon="-2.59496">
        <ele>84.7</ele>
        <time>2021-04-09T12:31:20Z</time>
      </trkpt>
      <trkpt lat="47.65833" lon="-2.59491">
        <ele>85</ele>
        <time>2021-04-09T12:31:26Z</time>
      </trkpt>
      <trkpt lat="47.65838" lon="-2.59487">
        <ele>85.7</ele>
        <time>2021-04-09T12:31:31Z</time>
      </trkpt>
      <trkpt lat="47.65841" lon="-2.59482">
        <ele>85.2</ele>
        <time>2021-04-09T12:31:36Z</time>
      </trkpt>
      <trkpt lat="47.65846" lon="-2.59478">
        <ele>85.6</ele>
        <time>2021-04-09T12:31:39Z</time>
      </trkpt>
      <trkpt lat="47.6585" lon="-2.59473">
        <ele>85.7</ele>
        <time>2021-04-09T12:31:42Z</time>
      </trkpt>
      <trkpt lat="47.65853" lon="-2.59468">
        <ele>85.3</ele>
        <time>2021-04-09T12:31:46Z</time>
      </trkpt>
      <trkpt lat="47.65857" lon="-2.59463">
        <ele>85.3</ele>
        <time>2021-04-09T12:31:52Z</time>
      </trkpt>
      <trkpt lat="47.65862" lon="-2.59459">
        <ele>84.9</ele>
        <time>2021-04-09T12:31:58Z</time>
      </trkpt>
      <trkpt lat="47.65867" lon="-2.59458">
        <ele>84.5</ele>
        <time>2021-04-09T12:32:03Z</time>
      </trkpt>
      <trkpt lat="47.65871" lon="-2.59458">
        <ele>84.5</ele>
        <time>2021-04-09T12:32:06Z</time>
      </trkpt>
      <trkpt lat="47.65876" lon="-2.59459">
        <ele>84.4</ele>
        <time>2021-04-09T12:32:09Z</time>
      </trkpt>
      <trkpt lat="47.65882" lon="-2.59456">
        <ele>84.7</ele>
        <time>2021-04-09T12:32:12Z</time>
      </trkpt>
      <trkpt lat="47.65887" lon="-2.59455">
        <ele>85.8</ele>
        <time>2021-04-09T12:32:15Z</time>
      </trkpt>
      <trkpt lat="47.65892" lon="-2.59457">
        <ele>85.7</ele>
        <time>2021-04-09T12:32:18Z</time>
      </trkpt>
      <trkpt lat="47.65897" lon="-2.59457">
        <ele>85.7</ele>
        <time>2021-04-09T12:32:21Z</time>
      </trkpt>
      <trkpt lat="47.65902" lon="-2.59455">
        <ele>85.4</ele>
        <time>2021-04-09T12:32:24Z</time>
      </trkpt>
      <trkpt lat="47.65907" lon="-2.59455">
        <ele>86.5</ele>
        <time>2021-04-09T12:32:29Z</time>
      </trkpt>
      <trkpt lat="47.65912" lon="-2.59455">
        <ele>85</ele>
        <time>2021-04-09T12:32:32Z</time>
      </trkpt>
      <trkpt lat="47.65916" lon="-2.59455">
        <ele>85</ele>
        <time>2021-04-09T12:32:35Z</time>
      </trkpt>
      <trkpt lat="47.65922" lon="-2.59452">
        <ele>85.1</ele>
        <time>2021-04-09T12:32:38Z</time>
      </trkpt>
      <trkpt lat="47.65927" lon="-2.59451">
        <ele>85.1</ele>
        <time>2021-04-09T12:32:41Z</time>
      </trkpt>
      <trkpt lat="47.65931" lon="-2.59451">
        <ele>85.4</ele>
        <time>2021-04-09T12:32:44Z</time>
      </trkpt>
      <trkpt lat="47.65936" lon="-2.5945">
        <ele>86.1</ele>
        <time>2021-04-09T12:32:48Z</time>
      </trkpt>
      <trkpt lat="47.65941" lon="-2.59446">
        <ele>84.8</ele>
        <time>2021-04-09T12:32:57Z</time>
      </trkpt>
      <trkpt lat="47.65945" lon="-2.59446">
        <ele>89.6</ele>
        <time>2021-04-09T12:33:10Z</time>
      </trkpt>
      <trkpt lat="47.65953" lon="-2.5944">
        <ele>89.2</ele>
        <time>2021-04-09T12:33:16Z</time>
      </trkpt>
      <trkpt lat="47.65957" lon="-2.59434">
        <ele>88.4</ele>
        <time>2021-04-09T12:33:19Z</time>
      </trkpt>
      <trkpt lat="47.6596" lon="-2.59429">
        <ele>88.6</ele>
        <time>2021-04-09T12:33:23Z</time>
      </trkpt>
      <trkpt lat="47.65965" lon="-2.59426">
        <ele>88.6</ele>
        <time>2021-04-09T12:33:29Z</time>
      </trkpt>
      <trkpt lat="47.6597" lon="-2.59425">
        <ele>88.5</ele>
        <time>2021-04-09T12:33:32Z</time>
      </trkpt>
      <trkpt lat="47.65975" lon="-2.59427">
        <ele>88.5</ele>
        <time>2021-04-09T12:33:35Z</time>
      </trkpt>
      <trkpt lat="47.6598" lon="-2.59426">
        <ele>88.9</ele>
        <time>2021-04-09T12:33:40Z</time>
      </trkpt>
      <trkpt lat="47.65984" lon="-2.59422">
        <ele>89.2</ele>
        <time>2021-04-09T12:33:45Z</time>
      </trkpt>
      <trkpt lat="47.65988" lon="-2.59418">
        <ele>88.4</ele>
        <time>2021-04-09T12:33:51Z</time>
      </trkpt>
      <trkpt lat="47.65994" lon="-2.59415">
        <ele>88.4</ele>
        <time>2021-04-09T12:33:56Z</time>
      </trkpt>
      <trkpt lat="47.65999" lon="-2.59411">
        <ele>88.4</ele>
        <time>2021-04-09T12:34:00Z</time>
      </trkpt>
      <trkpt lat="47.66003" lon="-2.59406">
        <ele>88.2</ele>
        <time>2021-04-09T12:34:04Z</time>
      </trkpt>
      <trkpt lat="47.66007" lon="-2.59401">
        <ele>87.9</ele>
        <time>2021-04-09T12:34:08Z</time>
      </trkpt>
      <trkpt lat="47.66012" lon="-2.59395">
        <ele>87.7</ele>
        <time>2021-04-09T12:34:14Z</time>
      </trkpt>
      <trkpt lat="47.66015" lon="-2.5939">
        <ele>87.7</ele>
        <time>2021-04-09T12:34:18Z</time>
      </trkpt>
      <trkpt lat="47.66019" lon="-2.59386">
        <ele>88.1</ele>
        <time>2021-04-09T12:34:21Z</time>
      </trkpt>
      <trkpt lat="47.66024" lon="-2.59383">
        <ele>89.2</ele>
        <time>2021-04-09T12:34:27Z</time>
      </trkpt>
      <trkpt lat="47.66026" lon="-2.59378">
        <ele>89.3</ele>
        <time>2021-04-09T12:34:33Z</time>
      </trkpt>
      <trkpt lat="47.6603" lon="-2.59372">
        <ele>89.2</ele>
        <time>2021-04-09T12:34:37Z</time>
      </trkpt>
      <trkpt lat="47.66033" lon="-2.59367">
        <ele>89.3</ele>
        <time>2021-04-09T12:34:42Z</time>
      </trkpt>
      <trkpt lat="47.6603" lon="-2.59361">
        <ele>86.9</ele>
        <time>2021-04-09T12:34:47Z</time>
      </trkpt>
      <trkpt lat="47.66033" lon="-2.59355">
        <ele>86.6</ele>
        <time>2021-04-09T12:34:50Z</time>
      </trkpt>
      <trkpt lat="47.66038" lon="-2.5935">
        <ele>85.9</ele>
        <time>2021-04-09T12:34:53Z</time>
      </trkpt>
      <trkpt lat="47.66044" lon="-2.59346">
        <ele>85</ele>
        <time>2021-04-09T12:34:56Z</time>
      </trkpt>
      <trkpt lat="47.66047" lon="-2.5934">
        <ele>84.9</ele>
        <time>2021-04-09T12:35:00Z</time>
      </trkpt>
      <trkpt lat="47.66051" lon="-2.59333">
        <ele>85.1</ele>
        <time>2021-04-09T12:35:04Z</time>
      </trkpt>
      <trkpt lat="47.66055" lon="-2.59329">
        <ele>84.9</ele>
        <time>2021-04-09T12:35:07Z</time>
      </trkpt>
      <trkpt lat="47.66059" lon="-2.59326">
        <ele>84.5</ele>
        <time>2021-04-09T12:35:11Z</time>
      </trkpt>
      <trkpt lat="47.66063" lon="-2.59322">
        <ele>84</ele>
        <time>2021-04-09T12:35:17Z</time>
      </trkpt>
      <trkpt lat="47.66066" lon="-2.59315">
        <ele>85.1</ele>
        <time>2021-04-09T12:35:22Z</time>
      </trkpt>
      <trkpt lat="47.6607" lon="-2.59308">
        <ele>86.3</ele>
        <time>2021-04-09T12:35:26Z</time>
      </trkpt>
      <trkpt lat="47.66075" lon="-2.59302">
        <ele>87.2</ele>
        <time>2021-04-09T12:35:29Z</time>
      </trkpt>
      <trkpt lat="47.66079" lon="-2.59296">
        <ele>88.6</ele>
        <time>2021-04-09T12:35:32Z</time>
      </trkpt>
      <trkpt lat="47.66082" lon="-2.5929">
        <ele>89.8</ele>
        <time>2021-04-09T12:35:36Z</time>
      </trkpt>
      <trkpt lat="47.66085" lon="-2.59283">
        <ele>90.9</ele>
        <time>2021-04-09T12:35:40Z</time>
      </trkpt>
      <trkpt lat="47.66088" lon="-2.59277">
        <ele>92.3</ele>
        <time>2021-04-09T12:35:44Z</time>
      </trkpt>
      <trkpt lat="47.66093" lon="-2.59272">
        <ele>94</ele>
        <time>2021-04-09T12:35:49Z</time>
      </trkpt>
      <trkpt lat="47.66097" lon="-2.59265">
        <ele>97.2</ele>
        <time>2021-04-09T12:35:54Z</time>
      </trkpt>
      <trkpt lat="47.661" lon="-2.5926">
        <ele>96.9</ele>
        <time>2021-04-09T12:35:56Z</time>
      </trkpt>
      <trkpt lat="47.66102" lon="-2.59252">
        <ele>95.3</ele>
        <time>2021-04-09T12:35:59Z</time>
      </trkpt>
      <trkpt lat="47.66105" lon="-2.59244">
        <ele>93</ele>
        <time>2021-04-09T12:36:03Z</time>
      </trkpt>
      <trkpt lat="47.66109" lon="-2.59243">
        <ele>91.3</ele>
        <time>2021-04-09T12:36:05Z</time>
      </trkpt>
      <trkpt lat="47.66114" lon="-2.59237">
        <ele>90.1</ele>
        <time>2021-04-09T12:36:10Z</time>
      </trkpt>
      <trkpt lat="47.66117" lon="-2.59232">
        <ele>90.3</ele>
        <time>2021-04-09T12:36:13Z</time>
      </trkpt>
      <trkpt lat="47.6612" lon="-2.59226">
        <ele>89.1</ele>
        <time>2021-04-09T12:36:17Z</time>
      </trkpt>
      <trkpt lat="47.66122" lon="-2.59219">
        <ele>87.4</ele>
        <time>2021-04-09T12:36:21Z</time>
      </trkpt>
      <trkpt lat="47.66123" lon="-2.59212">
        <ele>83.5</ele>
        <time>2021-04-09T12:36:28Z</time>
      </trkpt>
      <trkpt lat="47.66126" lon="-2.59207">
        <ele>81</ele>
        <time>2021-04-09T12:36:34Z</time>
      </trkpt>
      <trkpt lat="47.6613" lon="-2.59201">
        <ele>79.4</ele>
        <time>2021-04-09T12:36:39Z</time>
      </trkpt>
      <trkpt lat="47.6613" lon="-2.59194">
        <ele>77</ele>
        <time>2021-04-09T12:36:45Z</time>
      </trkpt>
      <trkpt lat="47.6613" lon="-2.59187">
        <ele>78.9</ele>
        <time>2021-04-09T12:36:56Z</time>
      </trkpt>
      <trkpt lat="47.6613" lon="-2.59188">
        <ele>78.8</ele>
        <time>2021-04-09T12:37:05Z</time>
      </trkpt>
      <trkpt lat="47.6613" lon="-2.59188">
        <ele>78.8</ele>
        <time>2021-04-09T12:37:05Z</time>
      </trkpt>
      <trkpt lat="47.66116" lon="-2.59179">
        <ele>77.1</ele>
        <time>2021-04-09T12:37:14Z</time>
      </trkpt>
      <trkpt lat="47.66114" lon="-2.59172">
        <ele>76.3</ele>
        <time>2021-04-09T12:37:19Z</time>
      </trkpt>
      <trkpt lat="47.66112" lon="-2.59165">
        <ele>75.5</ele>
        <time>2021-04-09T12:37:26Z</time>
      </trkpt>
      <trkpt lat="47.66107" lon="-2.5916">
        <ele>74.4</ele>
        <time>2021-04-09T12:37:30Z</time>
      </trkpt>
      <trkpt lat="47.66103" lon="-2.59156">
        <ele>73.3</ele>
        <time>2021-04-09T12:37:33Z</time>
      </trkpt>
      <trkpt lat="47.66099" lon="-2.5915">
        <ele>71.6</ele>
        <time>2021-04-09T12:37:38Z</time>
      </trkpt>
      <trkpt lat="47.66101" lon="-2.59144">
        <ele>66.7</ele>
        <time>2021-04-09T12:37:46Z</time>
      </trkpt>
      <trkpt lat="47.66102" lon="-2.5914">
        <ele>65.4</ele>
        <time>2021-04-09T12:37:50Z</time>
      </trkpt>
      <trkpt lat="47.66102" lon="-2.5914">
        <ele>65.4</ele>
        <time>2021-04-09T12:37:50Z</time>
      </trkpt>
      <trkpt lat="47.66102" lon="-2.59127">
        <ele>66.2</ele>
        <time>2021-04-09T12:37:58Z</time>
      </trkpt>
      <trkpt lat="47.66098" lon="-2.59123">
        <ele>66.3</ele>
        <time>2021-04-09T12:38:01Z</time>
      </trkpt>
      <trkpt lat="47.66095" lon="-2.59117">
        <ele>65.3</ele>
        <time>2021-04-09T12:38:08Z</time>
      </trkpt>
      <trkpt lat="47.6609" lon="-2.59111">
        <ele>62</ele>
        <time>2021-04-09T12:38:15Z</time>
      </trkpt>
      <trkpt lat="47.66089" lon="-2.59103">
        <ele>61.8</ele>
        <time>2021-04-09T12:38:18Z</time>
      </trkpt>
      <trkpt lat="47.66093" lon="-2.59097">
        <ele>60.9</ele>
        <time>2021-04-09T12:38:21Z</time>
      </trkpt>
      <trkpt lat="47.66094" lon="-2.59089">
        <ele>60.7</ele>
        <time>2021-04-09T12:38:25Z</time>
      </trkpt>
      <trkpt lat="47.66095" lon="-2.59082">
        <ele>61</ele>
        <time>2021-04-09T12:38:28Z</time>
      </trkpt>
      <trkpt lat="47.66094" lon="-2.59073">
        <ele>61.9</ele>
        <time>2021-04-09T12:38:31Z</time>
      </trkpt>
      <trkpt lat="47.66092" lon="-2.59065">
        <ele>62.2</ele>
        <time>2021-04-09T12:38:34Z</time>
      </trkpt>
      <trkpt lat="47.6609" lon="-2.59058">
        <ele>63</ele>
        <time>2021-04-09T12:38:38Z</time>
      </trkpt>
      <trkpt lat="47.66087" lon="-2.59051">
        <ele>64.9</ele>
        <time>2021-04-09T12:38:42Z</time>
      </trkpt>
      <trkpt lat="47.66084" lon="-2.59044">
        <ele>66.9</ele>
        <time>2021-04-09T12:38:45Z</time>
      </trkpt>
      <trkpt lat="47.66081" lon="-2.59037">
        <ele>70.5</ele>
        <time>2021-04-09T12:38:49Z</time>
      </trkpt>
      <trkpt lat="47.6608" lon="-2.5903">
        <ele>75.6</ele>
        <time>2021-04-09T12:38:55Z</time>
      </trkpt>
      <trkpt lat="47.6608" lon="-2.59022">
        <ele>79</ele>
        <time>2021-04-09T12:39:00Z</time>
      </trkpt>
      <trkpt lat="47.66081" lon="-2.59015">
        <ele>81.3</ele>
        <time>2021-04-09T12:39:04Z</time>
      </trkpt>
      <trkpt lat="47.66079" lon="-2.59009">
        <ele>82.9</ele>
        <time>2021-04-09T12:39:10Z</time>
      </trkpt>
      <trkpt lat="47.66074" lon="-2.59009">
        <ele>76.7</ele>
        <time>2021-04-09T12:39:30Z</time>
      </trkpt>
      <trkpt lat="47.66079" lon="-2.59008">
        <ele>71.3</ele>
        <time>2021-04-09T12:39:41Z</time>
      </trkpt>
      <trkpt lat="47.66085" lon="-2.59006">
        <ele>70</ele>
        <time>2021-04-09T12:39:45Z</time>
      </trkpt>
      <trkpt lat="47.66081" lon="-2.59003">
        <ele>66.3</ele>
        <time>2021-04-09T12:39:56Z</time>
      </trkpt>
      <trkpt lat="47.66077" lon="-2.58999">
        <ele>65.8</ele>
        <time>2021-04-09T12:40:00Z</time>
      </trkpt>
      <trkpt lat="47.66073" lon="-2.58994">
        <ele>65.5</ele>
        <time>2021-04-09T12:40:04Z</time>
      </trkpt>
      <trkpt lat="47.66069" lon="-2.5899">
        <ele>64.8</ele>
        <time>2021-04-09T12:40:08Z</time>
      </trkpt>
      <trkpt lat="47.66064" lon="-2.58987">
        <ele>63.9</ele>
        <time>2021-04-09T12:40:12Z</time>
      </trkpt>
      <trkpt lat="47.66061" lon="-2.58993">
        <ele>60.7</ele>
        <time>2021-04-09T12:40:18Z</time>
      </trkpt>
      <trkpt lat="47.66058" lon="-2.58987">
        <ele>54.3</ele>
        <time>2021-04-09T12:40:33Z</time>
      </trkpt>
      <trkpt lat="47.66058" lon="-2.58979">
        <ele>52.1</ele>
        <time>2021-04-09T12:40:38Z</time>
      </trkpt>
      <trkpt lat="47.66056" lon="-2.58972">
        <ele>49.7</ele>
        <time>2021-04-09T12:40:43Z</time>
      </trkpt>
      <trkpt lat="47.66053" lon="-2.58967">
        <ele>47.7</ele>
        <time>2021-04-09T12:40:49Z</time>
      </trkpt>
      <trkpt lat="47.66053" lon="-2.5896">
        <ele>47.1</ele>
        <time>2021-04-09T12:40:51Z</time>
      </trkpt>
      <trkpt lat="47.66054" lon="-2.58951">
        <ele>43.8</ele>
        <time>2021-04-09T12:40:57Z</time>
      </trkpt>
      <trkpt lat="47.66053" lon="-2.58944">
        <ele>38.8</ele>
        <time>2021-04-09T12:41:04Z</time>
      </trkpt>
      <trkpt lat="47.66057" lon="-2.58938">
        <ele>34.9</ele>
        <time>2021-04-09T12:41:13Z</time>
      </trkpt>
      <trkpt lat="47.6606" lon="-2.58932">
        <ele>33.1</ele>
        <time>2021-04-09T12:41:18Z</time>
      </trkpt>
      <trkpt lat="47.66053" lon="-2.58931">
        <ele>31.3</ele>
        <time>2021-04-09T12:41:24Z</time>
      </trkpt>
      <trkpt lat="47.66048" lon="-2.5893">
        <ele>30.7</ele>
        <time>2021-04-09T12:41:27Z</time>
      </trkpt>
      <trkpt lat="47.6604" lon="-2.58931">
        <ele>29.9</ele>
        <time>2021-04-09T12:41:30Z</time>
      </trkpt>
      <trkpt lat="47.66038" lon="-2.58925">
        <ele>29.6</ele>
        <time>2021-04-09T12:41:33Z</time>
      </trkpt>
      <trkpt lat="47.66032" lon="-2.5892">
        <ele>29.4</ele>
        <time>2021-04-09T12:41:37Z</time>
      </trkpt>
      <trkpt lat="47.66026" lon="-2.58921">
        <ele>29.2</ele>
        <time>2021-04-09T12:41:38Z</time>
      </trkpt>
      <trkpt lat="47.6602" lon="-2.58917">
        <ele>28.8</ele>
        <time>2021-04-09T12:41:41Z</time>
      </trkpt>
      <trkpt lat="47.66016" lon="-2.58911">
        <ele>28.1</ele>
        <time>2021-04-09T12:41:43Z</time>
      </trkpt>
      <trkpt lat="47.66013" lon="-2.58905">
        <ele>27.5</ele>
        <time>2021-04-09T12:41:45Z</time>
      </trkpt>
      <trkpt lat="47.6601" lon="-2.58897">
        <ele>26.6</ele>
        <time>2021-04-09T12:41:49Z</time>
      </trkpt>
      <trkpt lat="47.66007" lon="-2.58889">
        <ele>25.5</ele>
        <time>2021-04-09T12:41:52Z</time>
      </trkpt>
      <trkpt lat="47.66005" lon="-2.58882">
        <ele>24.4</ele>
        <time>2021-04-09T12:41:56Z</time>
      </trkpt>
      <trkpt lat="47.66003" lon="-2.58875">
        <ele>23.4</ele>
        <time>2021-04-09T12:42:00Z</time>
      </trkpt>
      <trkpt lat="47.66" lon="-2.5887">
        <ele>23.2</ele>
        <time>2021-04-09T12:42:02Z</time>
      </trkpt>
      <trkpt lat="47.66" lon="-2.58862">
        <ele>23.4</ele>
        <time>2021-04-09T12:42:06Z</time>
      </trkpt>
      <trkpt lat="47.65996" lon="-2.58854">
        <ele>23.6</ele>
        <time>2021-04-09T12:42:09Z</time>
      </trkpt>
      <trkpt lat="47.65994" lon="-2.58846">
        <ele>23.8</ele>
        <time>2021-04-09T12:42:13Z</time>
      </trkpt>
      <trkpt lat="47.65994" lon="-2.58836">
        <ele>24.5</ele>
        <time>2021-04-09T12:42:17Z</time>
      </trkpt>
      <trkpt lat="47.65993" lon="-2.58826">
        <ele>25.3</ele>
        <time>2021-04-09T12:42:20Z</time>
      </trkpt>
      <trkpt lat="47.65993" lon="-2.58818">
        <ele>25.7</ele>
        <time>2021-04-09T12:42:22Z</time>
      </trkpt>
      <trkpt lat="47.65991" lon="-2.58809">
        <ele>26.5</ele>
        <time>2021-04-09T12:42:24Z</time>
      </trkpt>
      <trkpt lat="47.6599" lon="-2.588">
        <ele>27.9</ele>
        <time>2021-04-09T12:42:26Z</time>
      </trkpt>
      <trkpt lat="47.6599" lon="-2.58791">
        <ele>29.2</ele>
        <time>2021-04-09T12:42:28Z</time>
      </trkpt>
      <trkpt lat="47.6599" lon="-2.58783">
        <ele>30</ele>
        <time>2021-04-09T12:42:30Z</time>
      </trkpt>
      <trkpt lat="47.65988" lon="-2.58775">
        <ele>30.9</ele>
        <time>2021-04-09T12:42:32Z</time>
      </trkpt>
      <trkpt lat="47.65988" lon="-2.58765">
        <ele>31.9</ele>
        <time>2021-04-09T12:42:34Z</time>
      </trkpt>
      <trkpt lat="47.65987" lon="-2.58757">
        <ele>32.8</ele>
        <time>2021-04-09T12:42:36Z</time>
      </trkpt>
      <trkpt lat="47.65984" lon="-2.58749">
        <ele>34.1</ele>
        <time>2021-04-09T12:42:38Z</time>
      </trkpt>
      <trkpt lat="47.65984" lon="-2.5874">
        <ele>35.3</ele>
        <time>2021-04-09T12:42:40Z</time>
      </trkpt>
      <trkpt lat="47.65987" lon="-2.58734">
        <ele>35.9</ele>
        <time>2021-04-09T12:42:41Z</time>
      </trkpt>
      <trkpt lat="47.65989" lon="-2.58725">
        <ele>37</ele>
        <time>2021-04-09T12:42:43Z</time>
      </trkpt>
      <trkpt lat="47.65987" lon="-2.58717">
        <ele>38</ele>
        <time>2021-04-09T12:42:45Z</time>
      </trkpt>
      <trkpt lat="47.65987" lon="-2.5871">
        <ele>39</ele>
        <time>2021-04-09T12:42:47Z</time>
      </trkpt>
      <trkpt lat="47.65986" lon="-2.58702">
        <ele>40.4</ele>
        <time>2021-04-09T12:42:50Z</time>
      </trkpt>
      <trkpt lat="47.65986" lon="-2.58692">
        <ele>42</ele>
        <time>2021-04-09T12:42:53Z</time>
      </trkpt>
      <trkpt lat="47.65987" lon="-2.58682">
        <ele>43.4</ele>
        <time>2021-04-09T12:42:55Z</time>
      </trkpt>
      <trkpt lat="47.65986" lon="-2.58673">
        <ele>45</ele>
        <time>2021-04-09T12:42:57Z</time>
      </trkpt>
      <trkpt lat="47.65987" lon="-2.58664">
        <ele>45.5</ele>
        <time>2021-04-09T12:42:59Z</time>
      </trkpt>
      <trkpt lat="47.65987" lon="-2.58656">
        <ele>46.4</ele>
        <time>2021-04-09T12:43:01Z</time>
      </trkpt>
      <trkpt lat="47.65987" lon="-2.58649">
        <ele>47.8</ele>
        <time>2021-04-09T12:43:03Z</time>
      </trkpt>
      <trkpt lat="47.65987" lon="-2.58639">
        <ele>48.9</ele>
        <time>2021-04-09T12:43:06Z</time>
      </trkpt>
      <trkpt lat="47.65987" lon="-2.58632">
        <ele>49.8</ele>
        <time>2021-04-09T12:43:10Z</time>
      </trkpt>
      <trkpt lat="47.65987" lon="-2.58625">
        <ele>51.4</ele>
        <time>2021-04-09T12:43:15Z</time>
      </trkpt>
      <trkpt lat="47.65986" lon="-2.58618">
        <ele>53.2</ele>
        <time>2021-04-09T12:43:19Z</time>
      </trkpt>
      <trkpt lat="47.65984" lon="-2.58611">
        <ele>56.1</ele>
        <time>2021-04-09T12:43:24Z</time>
      </trkpt>
      <trkpt lat="47.65982" lon="-2.58605">
        <ele>59.1</ele>
        <time>2021-04-09T12:43:28Z</time>
      </trkpt>
      <trkpt lat="47.65981" lon="-2.58597">
        <ele>63.6</ele>
        <time>2021-04-09T12:43:32Z</time>
      </trkpt>
      <trkpt lat="47.65983" lon="-2.58588">
        <ele>66.4</ele>
        <time>2021-04-09T12:43:35Z</time>
      </trkpt>
      <trkpt lat="47.65983" lon="-2.5858">
        <ele>69.8</ele>
        <time>2021-04-09T12:43:39Z</time>
      </trkpt>
      <trkpt lat="47.6598" lon="-2.58572">
        <ele>68.8</ele>
        <time>2021-04-09T12:43:42Z</time>
      </trkpt>
      <trkpt lat="47.65981" lon="-2.58565">
        <ele>71.8</ele>
        <time>2021-04-09T12:43:45Z</time>
      </trkpt>
      <trkpt lat="47.65981" lon="-2.58556">
        <ele>77.7</ele>
        <time>2021-04-09T12:43:48Z</time>
      </trkpt>
      <trkpt lat="47.65984" lon="-2.58549">
        <ele>82.3</ele>
        <time>2021-04-09T12:43:52Z</time>
      </trkpt>
      <trkpt lat="47.65982" lon="-2.58541">
        <ele>85.3</ele>
        <time>2021-04-09T12:43:55Z</time>
      </trkpt>
      <trkpt lat="47.65984" lon="-2.58533">
        <ele>89</ele>
        <time>2021-04-09T12:44:00Z</time>
      </trkpt>
      <trkpt lat="47.65985" lon="-2.58526">
        <ele>92</ele>
        <time>2021-04-09T12:44:03Z</time>
      </trkpt>
      <trkpt lat="47.65986" lon="-2.58518">
        <ele>92.8</ele>
        <time>2021-04-09T12:44:08Z</time>
      </trkpt>
      <trkpt lat="47.65989" lon="-2.58512">
        <ele>95.5</ele>
        <time>2021-04-09T12:44:12Z</time>
      </trkpt>
      <trkpt lat="47.65993" lon="-2.58505">
        <ele>98.3</ele>
        <time>2021-04-09T12:44:15Z</time>
      </trkpt>
      <trkpt lat="47.65997" lon="-2.58499">
        <ele>100.2</ele>
        <time>2021-04-09T12:44:18Z</time>
      </trkpt>
      <trkpt lat="47.65998" lon="-2.58497">
        <ele>100.6</ele>
        <time>2021-04-09T12:44:19Z</time>
      </trkpt>
      <trkpt lat="47.66" lon="-2.58494">
        <ele>101</ele>
        <time>2021-04-09T12:44:20Z</time>
      </trkpt>
      <trkpt lat="47.66001" lon="-2.58492">
        <ele>101.2</ele>
        <time>2021-04-09T12:44:21Z</time>
      </trkpt>
      <trkpt lat="47.66002" lon="-2.5849">
        <ele>101.6</ele>
        <time>2021-04-09T12:44:22Z</time>
      </trkpt>
      <trkpt lat="47.66003" lon="-2.58488">
        <ele>102.1</ele>
        <time>2021-04-09T12:44:23Z</time>
      </trkpt>
      <trkpt lat="47.66004" lon="-2.58486">
        <ele>102.4</ele>
        <time>2021-04-09T12:44:24Z</time>
      </trkpt>
      <trkpt lat="47.66005" lon="-2.58485">
        <ele>102.4</ele>
        <time>2021-04-09T12:44:25Z</time>
      </trkpt>
      <trkpt lat="47.66005" lon="-2.58477">
        <ele>102.4</ele>
        <time>2021-04-09T12:44:29Z</time>
      </trkpt>
      <trkpt lat="47.66003" lon="-2.58469">
        <ele>104.4</ele>
        <time>2021-04-09T12:44:33Z</time>
      </trkpt>
      <trkpt lat="47.66002" lon="-2.58467">
        <ele>105.5</ele>
        <time>2021-04-09T12:44:34Z</time>
      </trkpt>
      <trkpt lat="47.66001" lon="-2.58466">
        <ele>106.7</ele>
        <time>2021-04-09T12:44:35Z</time>
      </trkpt>
      <trkpt lat="47.66" lon="-2.58464">
        <ele>108</ele>
        <time>2021-04-09T12:44:36Z</time>
      </trkpt>
      <trkpt lat="47.65999" lon="-2.58463">
        <ele>108.7</ele>
        <time>2021-04-09T12:44:37Z</time>
      </trkpt>
      <trkpt lat="47.65998" lon="-2.58461">
        <ele>109.4</ele>
        <time>2021-04-09T12:44:38Z</time>
      </trkpt>
      <trkpt lat="47.65997" lon="-2.5846">
        <ele>109.7</ele>
        <time>2021-04-09T12:44:39Z</time>
      </trkpt>
      <trkpt lat="47.65995" lon="-2.58458">
        <ele>110.1</ele>
        <time>2021-04-09T12:44:40Z</time>
      </trkpt>
      <trkpt lat="47.65994" lon="-2.58457">
        <ele>110.5</ele>
        <time>2021-04-09T12:44:41Z</time>
      </trkpt>
      <trkpt lat="47.65993" lon="-2.58455">
        <ele>110.8</ele>
        <time>2021-04-09T12:44:42Z</time>
      </trkpt>
      <trkpt lat="47.65992" lon="-2.58454">
        <ele>111.4</ele>
        <time>2021-04-09T12:44:43Z</time>
      </trkpt>
      <trkpt lat="47.65991" lon="-2.58452">
        <ele>111.9</ele>
        <time>2021-04-09T12:44:44Z</time>
      </trkpt>
      <trkpt lat="47.65991" lon="-2.5845">
        <ele>112.4</ele>
        <time>2021-04-09T12:44:45Z</time>
      </trkpt>
      <trkpt lat="47.6599" lon="-2.58449">
        <ele>112.9</ele>
        <time>2021-04-09T12:44:46Z</time>
      </trkpt>
      <trkpt lat="47.65989" lon="-2.58447">
        <ele>113.6</ele>
        <time>2021-04-09T12:44:47Z</time>
      </trkpt>
      <trkpt lat="47.65989" lon="-2.58446">
        <ele>113.9</ele>
        <time>2021-04-09T12:44:48Z</time>
      </trkpt>
      <trkpt lat="47.65988" lon="-2.58444">
        <ele>113.5</ele>
        <time>2021-04-09T12:44:49Z</time>
      </trkpt>
      <trkpt lat="47.65986" lon="-2.58436">
        <ele>114.2</ele>
        <time>2021-04-09T12:44:52Z</time>
      </trkpt>
      <trkpt lat="47.65986" lon="-2.58434">
        <ele>114.6</ele>
        <time>2021-04-09T12:44:53Z</time>
      </trkpt>
      <trkpt lat="47.65986" lon="-2.58431">
        <ele>115.1</ele>
        <time>2021-04-09T12:44:54Z</time>
      </trkpt>
      <trkpt lat="47.65986" lon="-2.58429">
        <ele>115.3</ele>
        <time>2021-04-09T12:44:55Z</time>
      </trkpt>
      <trkpt lat="47.65987" lon="-2.58427">
        <ele>115.3</ele>
        <time>2021-04-09T12:44:56Z</time>
      </trkpt>
      <trkpt lat="47.65987" lon="-2.58418">
        <ele>115.5</ele>
        <time>2021-04-09T12:44:59Z</time>
      </trkpt>
      <trkpt lat="47.65986" lon="-2.58417">
        <ele>115.6</ele>
        <time>2021-04-09T12:45:00Z</time>
      </trkpt>
      <trkpt lat="47.65986" lon="-2.58414">
        <ele>115.9</ele>
        <time>2021-04-09T12:45:01Z</time>
      </trkpt>
      <trkpt lat="47.65986" lon="-2.58412">
        <ele>116.2</ele>
        <time>2021-04-09T12:45:02Z</time>
      </trkpt>
      <trkpt lat="47.65987" lon="-2.58409">
        <ele>116.4</ele>
        <time>2021-04-09T12:45:03Z</time>
      </trkpt>
      <trkpt lat="47.65988" lon="-2.58407">
        <ele>116</ele>
        <time>2021-04-09T12:45:04Z</time>
      </trkpt>
      <trkpt lat="47.6599" lon="-2.584">
        <ele>114.5</ele>
        <time>2021-04-09T12:45:07Z</time>
      </trkpt>
      <trkpt lat="47.65991" lon="-2.58391">
        <ele>114.1</ele>
        <time>2021-04-09T12:45:15Z</time>
      </trkpt>
      <trkpt lat="47.6599" lon="-2.58385">
        <ele>114.4</ele>
        <time>2021-04-09T12:45:21Z</time>
      </trkpt>
      <trkpt lat="47.65989" lon="-2.58378">
        <ele>114.7</ele>
        <time>2021-04-09T12:45:25Z</time>
      </trkpt>
      <trkpt lat="47.65988" lon="-2.5837">
        <ele>115.4</ele>
        <time>2021-04-09T12:45:28Z</time>
      </trkpt>
      <trkpt lat="47.65986" lon="-2.58363">
        <ele>116.6</ele>
        <time>2021-04-09T12:45:32Z</time>
      </trkpt>
      <trkpt lat="47.65985" lon="-2.58361">
        <ele>116.8</ele>
        <time>2021-04-09T12:45:33Z</time>
      </trkpt>
      <trkpt lat="47.65984" lon="-2.58359">
        <ele>117</ele>
        <time>2021-04-09T12:45:34Z</time>
      </trkpt>
      <trkpt lat="47.65982" lon="-2.58357">
        <ele>117.3</ele>
        <time>2021-04-09T12:45:35Z</time>
      </trkpt>
      <trkpt lat="47.65981" lon="-2.58356">
        <ele>117.6</ele>
        <time>2021-04-09T12:45:36Z</time>
      </trkpt>
      <trkpt lat="47.6598" lon="-2.58355">
        <ele>117.9</ele>
        <time>2021-04-09T12:45:37Z</time>
      </trkpt>
      <trkpt lat="47.65978" lon="-2.58355">
        <ele>118.2</ele>
        <time>2021-04-09T12:45:38Z</time>
      </trkpt>
      <trkpt lat="47.65977" lon="-2.58354">
        <ele>118.4</ele>
        <time>2021-04-09T12:45:39Z</time>
      </trkpt>
      <trkpt lat="47.65976" lon="-2.58353">
        <ele>118.8</ele>
        <time>2021-04-09T12:45:40Z</time>
      </trkpt>
      <trkpt lat="47.65975" lon="-2.58352">
        <ele>119.2</ele>
        <time>2021-04-09T12:45:41Z</time>
      </trkpt>
      <trkpt lat="47.65973" lon="-2.58351">
        <ele>119.4</ele>
        <time>2021-04-09T12:45:42Z</time>
      </trkpt>
      <trkpt lat="47.65972" lon="-2.5835">
        <ele>119.4</ele>
        <time>2021-04-09T12:45:43Z</time>
      </trkpt>
      <trkpt lat="47.65968" lon="-2.58348">
        <ele>118</ele>
        <time>2021-04-09T12:45:47Z</time>
      </trkpt>
      <trkpt lat="47.65964" lon="-2.58343">
        <ele>116.8</ele>
        <time>2021-04-09T12:45:50Z</time>
      </trkpt>
      <trkpt lat="47.6596" lon="-2.5834">
        <ele>115.8</ele>
        <time>2021-04-09T12:45:56Z</time>
      </trkpt>
      <trkpt lat="47.65956" lon="-2.58335">
        <ele>116.1</ele>
        <time>2021-04-09T12:45:59Z</time>
      </trkpt>
      <trkpt lat="47.65956" lon="-2.58328">
        <ele>114.9</ele>
        <time>2021-04-09T12:46:02Z</time>
      </trkpt>
      <trkpt lat="47.65957" lon="-2.58321">
        <ele>114.4</ele>
        <time>2021-04-09T12:46:05Z</time>
      </trkpt>
      <trkpt lat="47.65957" lon="-2.58314">
        <ele>113.7</ele>
        <time>2021-04-09T12:46:11Z</time>
      </trkpt>
      <trkpt lat="47.65954" lon="-2.58308">
        <ele>114.5</ele>
        <time>2021-04-09T12:46:17Z</time>
      </trkpt>
      <trkpt lat="47.65955" lon="-2.58302">
        <ele>114.7</ele>
        <time>2021-04-09T12:46:23Z</time>
      </trkpt>
      <trkpt lat="47.65959" lon="-2.58297">
        <ele>111.2</ele>
        <time>2021-04-09T12:46:30Z</time>
      </trkpt>
      <trkpt lat="47.65964" lon="-2.58294">
        <ele>103.8</ele>
        <time>2021-04-09T12:46:37Z</time>
      </trkpt>
      <trkpt lat="47.65969" lon="-2.58293">
        <ele>99.8</ele>
        <time>2021-04-09T12:46:44Z</time>
      </trkpt>
      <trkpt lat="47.65964" lon="-2.58287">
        <ele>97.9</ele>
        <time>2021-04-09T12:46:51Z</time>
      </trkpt>
      <trkpt lat="47.65962" lon="-2.5828">
        <ele>96.9</ele>
        <time>2021-04-09T12:46:54Z</time>
      </trkpt>
      <trkpt lat="47.65957" lon="-2.58273">
        <ele>96.7</ele>
        <time>2021-04-09T12:46:57Z</time>
      </trkpt>
      <trkpt lat="47.65954" lon="-2.58267">
        <ele>96.8</ele>
        <time>2021-04-09T12:47:00Z</time>
      </trkpt>
      <trkpt lat="47.65953" lon="-2.5826">
        <ele>97.2</ele>
        <time>2021-04-09T12:47:04Z</time>
      </trkpt>
      <trkpt lat="47.6595" lon="-2.58254">
        <ele>97.1</ele>
        <time>2021-04-09T12:47:07Z</time>
      </trkpt>
      <trkpt lat="47.65954" lon="-2.58249">
        <ele>97.9</ele>
        <time>2021-04-09T12:47:18Z</time>
      </trkpt>
      <trkpt lat="47.65958" lon="-2.58248">
        <ele>99.2</ele>
        <time>2021-04-09T12:47:24Z</time>
      </trkpt>
      <trkpt lat="47.65964" lon="-2.58251">
        <ele>100.7</ele>
        <time>2021-04-09T12:47:30Z</time>
      </trkpt>
      <trkpt lat="47.65969" lon="-2.58254">
        <ele>101.3</ele>
        <time>2021-04-09T12:47:36Z</time>
      </trkpt>
      <trkpt lat="47.65974" lon="-2.58256">
        <ele>100.8</ele>
        <time>2021-04-09T12:47:40Z</time>
      </trkpt>
      <trkpt lat="47.65979" lon="-2.58256">
        <ele>100.1</ele>
        <time>2021-04-09T12:47:44Z</time>
      </trkpt>
      <trkpt lat="47.65984" lon="-2.58256">
        <ele>100.6</ele>
        <time>2021-04-09T12:47:48Z</time>
      </trkpt>
      <trkpt lat="47.65989" lon="-2.58254">
        <ele>100.8</ele>
        <time>2021-04-09T12:47:52Z</time>
      </trkpt>
      <trkpt lat="47.65994" lon="-2.58254">
        <ele>101.2</ele>
        <time>2021-04-09T12:47:55Z</time>
      </trkpt>
      <trkpt lat="47.65999" lon="-2.58251">
        <ele>101.1</ele>
        <time>2021-04-09T12:47:59Z</time>
      </trkpt>
      <trkpt lat="47.66" lon="-2.58244">
        <ele>100.5</ele>
        <time>2021-04-09T12:48:08Z</time>
      </trkpt>
      <trkpt lat="47.66004" lon="-2.58239">
        <ele>100</ele>
        <time>2021-04-09T12:48:12Z</time>
      </trkpt>
      <trkpt lat="47.66008" lon="-2.58232">
        <ele>99.9</ele>
        <time>2021-04-09T12:48:16Z</time>
      </trkpt>
      <trkpt lat="47.6601" lon="-2.58226">
        <ele>99.8</ele>
        <time>2021-04-09T12:48:19Z</time>
      </trkpt>
      <trkpt lat="47.66012" lon="-2.58219">
        <ele>100</ele>
        <time>2021-04-09T12:48:23Z</time>
      </trkpt>
      <trkpt lat="47.66014" lon="-2.58212">
        <ele>100.5</ele>
        <time>2021-04-09T12:48:27Z</time>
      </trkpt>
      <trkpt lat="47.66018" lon="-2.58207">
        <ele>104.5</ele>
        <time>2021-04-09T12:48:33Z</time>
      </trkpt>
      <trkpt lat="47.66021" lon="-2.58202">
        <ele>106.4</ele>
        <time>2021-04-09T12:48:36Z</time>
      </trkpt>
      <trkpt lat="47.66023" lon="-2.58193">
        <ele>108.7</ele>
        <time>2021-04-09T12:48:39Z</time>
      </trkpt>
      <trkpt lat="47.66027" lon="-2.58187">
        <ele>109.9</ele>
        <time>2021-04-09T12:48:43Z</time>
      </trkpt>
      <trkpt lat="47.6603" lon="-2.58182">
        <ele>111.5</ele>
        <time>2021-04-09T12:48:53Z</time>
      </trkpt>
      <trkpt lat="47.66034" lon="-2.58177">
        <ele>111.7</ele>
        <time>2021-04-09T12:48:57Z</time>
      </trkpt>
      <trkpt lat="47.66039" lon="-2.58173">
        <ele>111.7</ele>
        <time>2021-04-09T12:49:01Z</time>
      </trkpt>
      <trkpt lat="47.66042" lon="-2.58168">
        <ele>112.6</ele>
        <time>2021-04-09T12:49:06Z</time>
      </trkpt>
      <trkpt lat="47.66047" lon="-2.58164">
        <ele>113.7</ele>
        <time>2021-04-09T12:49:10Z</time>
      </trkpt>
      <trkpt lat="47.66051" lon="-2.58159">
        <ele>114.4</ele>
        <time>2021-04-09T12:49:13Z</time>
      </trkpt>
      <trkpt lat="47.66054" lon="-2.58154">
        <ele>114.8</ele>
        <time>2021-04-09T12:49:17Z</time>
      </trkpt>
      <trkpt lat="47.66058" lon="-2.58148">
        <ele>115.4</ele>
        <time>2021-04-09T12:49:24Z</time>
      </trkpt>
      <trkpt lat="47.6606" lon="-2.58142">
        <ele>116.6</ele>
        <time>2021-04-09T12:49:29Z</time>
      </trkpt>
      <trkpt lat="47.66062" lon="-2.58134">
        <ele>117.8</ele>
        <time>2021-04-09T12:49:34Z</time>
      </trkpt>
      <trkpt lat="47.66064" lon="-2.58127">
        <ele>118.2</ele>
        <time>2021-04-09T12:49:38Z</time>
      </trkpt>
      <trkpt lat="47.66065" lon="-2.5812">
        <ele>118.4</ele>
        <time>2021-04-09T12:49:41Z</time>
      </trkpt>
      <trkpt lat="47.66066" lon="-2.58113">
        <ele>118</ele>
        <time>2021-04-09T12:49:45Z</time>
      </trkpt>
      <trkpt lat="47.6607" lon="-2.58107">
        <ele>117.3</ele>
        <time>2021-04-09T12:49:50Z</time>
      </trkpt>
      <trkpt lat="47.66074" lon="-2.58102">
        <ele>115.3</ele>
        <time>2021-04-09T12:49:53Z</time>
      </trkpt>
      <trkpt lat="47.66077" lon="-2.58095">
        <ele>113.5</ele>
        <time>2021-04-09T12:49:58Z</time>
      </trkpt>
      <trkpt lat="47.66078" lon="-2.58088">
        <ele>112.6</ele>
        <time>2021-04-09T12:50:02Z</time>
      </trkpt>
      <trkpt lat="47.66082" lon="-2.58082">
        <ele>112.3</ele>
        <time>2021-04-09T12:50:06Z</time>
      </trkpt>
      <trkpt lat="47.66084" lon="-2.58075">
        <ele>111.7</ele>
        <time>2021-04-09T12:50:09Z</time>
      </trkpt>
      <trkpt lat="47.66087" lon="-2.58068">
        <ele>111.2</ele>
        <time>2021-04-09T12:50:13Z</time>
      </trkpt>
      <trkpt lat="47.66092" lon="-2.58067">
        <ele>110.2</ele>
        <time>2021-04-09T12:50:17Z</time>
      </trkpt>
      <trkpt lat="47.66097" lon="-2.58064">
        <ele>108.5</ele>
        <time>2021-04-09T12:50:22Z</time>
      </trkpt>
      <trkpt lat="47.66101" lon="-2.5807">
        <ele>108.3</ele>
        <time>2021-04-09T12:50:26Z</time>
      </trkpt>
      <trkpt lat="47.66105" lon="-2.58073">
        <ele>108.2</ele>
        <time>2021-04-09T12:50:30Z</time>
      </trkpt>
      <trkpt lat="47.66108" lon="-2.5808">
        <ele>108.3</ele>
        <time>2021-04-09T12:50:40Z</time>
      </trkpt>
      <trkpt lat="47.66108" lon="-2.58082">
        <ele>108.1</ele>
        <time>2021-04-09T12:50:45Z</time>
      </trkpt>
      <trkpt lat="47.66108" lon="-2.58082">
        <ele>108.1</ele>
        <time>2021-04-09T12:50:45Z</time>
      </trkpt>
      <trkpt lat="47.66111" lon="-2.58088">
        <ele>109.2</ele>
        <time>2021-04-09T12:50:53Z</time>
      </trkpt>
      <trkpt lat="47.66115" lon="-2.58092">
        <ele>110.1</ele>
        <time>2021-04-09T12:50:57Z</time>
      </trkpt>
      <trkpt lat="47.66119" lon="-2.58096">
        <ele>112.4</ele>
        <time>2021-04-09T12:51:11Z</time>
      </trkpt>
      <trkpt lat="47.66123" lon="-2.58092">
        <ele>112.7</ele>
        <time>2021-04-09T12:51:17Z</time>
      </trkpt>
      <trkpt lat="47.66127" lon="-2.58089">
        <ele>112.9</ele>
        <time>2021-04-09T12:51:20Z</time>
      </trkpt>
      <trkpt lat="47.66135" lon="-2.58086">
        <ele>112.8</ele>
        <time>2021-04-09T12:51:24Z</time>
      </trkpt>
      <trkpt lat="47.6614" lon="-2.58088">
        <ele>111.2</ele>
        <time>2021-04-09T12:51:29Z</time>
      </trkpt>
      <trkpt lat="47.66146" lon="-2.58088">
        <ele>109</ele>
        <time>2021-04-09T12:51:32Z</time>
      </trkpt>
      <trkpt lat="47.66151" lon="-2.58089">
        <ele>107.2</ele>
        <time>2021-04-09T12:51:35Z</time>
      </trkpt>
      <trkpt lat="47.66156" lon="-2.5809">
        <ele>105.6</ele>
        <time>2021-04-09T12:51:38Z</time>
      </trkpt>
      <trkpt lat="47.66161" lon="-2.58088">
        <ele>102.3</ele>
        <time>2021-04-09T12:51:41Z</time>
      </trkpt>
      <trkpt lat="47.66166" lon="-2.58083">
        <ele>100.4</ele>
        <time>2021-04-09T12:51:44Z</time>
      </trkpt>
      <trkpt lat="47.66169" lon="-2.58078">
        <ele>99.8</ele>
        <time>2021-04-09T12:51:47Z</time>
      </trkpt>
      <trkpt lat="47.66173" lon="-2.58072">
        <ele>98.9</ele>
        <time>2021-04-09T12:51:50Z</time>
      </trkpt>
      <trkpt lat="47.66177" lon="-2.58069">
        <ele>98.3</ele>
        <time>2021-04-09T12:51:53Z</time>
      </trkpt>
      <trkpt lat="47.6618" lon="-2.58063">
        <ele>96.3</ele>
        <time>2021-04-09T12:51:58Z</time>
      </trkpt>
      <trkpt lat="47.66184" lon="-2.58056">
        <ele>95.8</ele>
        <time>2021-04-09T12:52:01Z</time>
      </trkpt>
      <trkpt lat="47.66187" lon="-2.58051">
        <ele>95.1</ele>
        <time>2021-04-09T12:52:05Z</time>
      </trkpt>
      <trkpt lat="47.6619" lon="-2.58046">
        <ele>94.9</ele>
        <time>2021-04-09T12:52:09Z</time>
      </trkpt>
      <trkpt lat="47.66193" lon="-2.58041">
        <ele>94</ele>
        <time>2021-04-09T12:52:16Z</time>
      </trkpt>
      <trkpt lat="47.66195" lon="-2.58033">
        <ele>94.2</ele>
        <time>2021-04-09T12:52:20Z</time>
      </trkpt>
      <trkpt lat="47.66195" lon="-2.58025">
        <ele>94.8</ele>
        <time>2021-04-09T12:52:23Z</time>
      </trkpt>
      <trkpt lat="47.66196" lon="-2.58017">
        <ele>94.8</ele>
        <time>2021-04-09T12:52:27Z</time>
      </trkpt>
      <trkpt lat="47.662" lon="-2.58012">
        <ele>94.5</ele>
        <time>2021-04-09T12:52:31Z</time>
      </trkpt>
      <trkpt lat="47.66205" lon="-2.58008">
        <ele>94.6</ele>
        <time>2021-04-09T12:52:34Z</time>
      </trkpt>
      <trkpt lat="47.66208" lon="-2.58003">
        <ele>94.8</ele>
        <time>2021-04-09T12:52:37Z</time>
      </trkpt>
      <trkpt lat="47.66213" lon="-2.57996">
        <ele>94.9</ele>
        <time>2021-04-09T12:52:40Z</time>
      </trkpt>
      <trkpt lat="47.66216" lon="-2.5799">
        <ele>95.4</ele>
        <time>2021-04-09T12:52:44Z</time>
      </trkpt>
      <trkpt lat="47.66217" lon="-2.57983">
        <ele>96.3</ele>
        <time>2021-04-09T12:52:47Z</time>
      </trkpt>
      <trkpt lat="47.66218" lon="-2.57977">
        <ele>98.4</ele>
        <time>2021-04-09T12:52:51Z</time>
      </trkpt>
      <trkpt lat="47.66219" lon="-2.5797">
        <ele>99.8</ele>
        <time>2021-04-09T12:52:57Z</time>
      </trkpt>
      <trkpt lat="47.66223" lon="-2.57966">
        <ele>101.8</ele>
        <time>2021-04-09T12:53:02Z</time>
      </trkpt>
      <trkpt lat="47.66227" lon="-2.5796">
        <ele>103</ele>
        <time>2021-04-09T12:53:05Z</time>
      </trkpt>
      <trkpt lat="47.66233" lon="-2.57956">
        <ele>104.2</ele>
        <time>2021-04-09T12:53:08Z</time>
      </trkpt>
      <trkpt lat="47.66237" lon="-2.57952">
        <ele>106.2</ele>
        <time>2021-04-09T12:53:13Z</time>
      </trkpt>
      <trkpt lat="47.66238" lon="-2.57944">
        <ele>107.5</ele>
        <time>2021-04-09T12:53:18Z</time>
      </trkpt>
      <trkpt lat="47.66242" lon="-2.57941">
        <ele>107.5</ele>
        <time>2021-04-09T12:53:25Z</time>
      </trkpt>
      <trkpt lat="47.66247" lon="-2.5794">
        <ele>108.5</ele>
        <time>2021-04-09T12:53:30Z</time>
      </trkpt>
      <trkpt lat="47.66252" lon="-2.57942">
        <ele>109.7</ele>
        <time>2021-04-09T12:53:36Z</time>
      </trkpt>
      <trkpt lat="47.66258" lon="-2.57942">
        <ele>110</ele>
        <time>2021-04-09T12:53:40Z</time>
      </trkpt>
      <trkpt lat="47.66262" lon="-2.5794">
        <ele>109.8</ele>
        <time>2021-04-09T12:53:44Z</time>
      </trkpt>
      <trkpt lat="47.66267" lon="-2.57942">
        <ele>110.4</ele>
        <time>2021-04-09T12:53:53Z</time>
      </trkpt>
      <trkpt lat="47.66267" lon="-2.57943">
        <ele>111</ele>
        <time>2021-04-09T12:54:02Z</time>
      </trkpt>
      <trkpt lat="47.66267" lon="-2.57943">
        <ele>111</ele>
        <time>2021-04-09T12:54:02Z</time>
      </trkpt>
      <trkpt lat="47.66271" lon="-2.57951">
        <ele>112</ele>
        <time>2021-04-09T12:54:11Z</time>
      </trkpt>
      <trkpt lat="47.66276" lon="-2.57956">
        <ele>113.4</ele>
        <time>2021-04-09T12:54:16Z</time>
      </trkpt>
      <trkpt lat="47.66281" lon="-2.5796">
        <ele>115</ele>
        <time>2021-04-09T12:54:22Z</time>
      </trkpt>
      <trkpt lat="47.66285" lon="-2.57964">
        <ele>116.2</ele>
        <time>2021-04-09T12:54:27Z</time>
      </trkpt>
      <trkpt lat="47.66288" lon="-2.57971">
        <ele>116.3</ele>
        <time>2021-04-09T12:54:31Z</time>
      </trkpt>
      <trkpt lat="47.66291" lon="-2.57975">
        <ele>115.8</ele>
        <time>2021-04-09T12:54:35Z</time>
      </trkpt>
      <trkpt lat="47.66296" lon="-2.57979">
        <ele>114.8</ele>
        <time>2021-04-09T12:54:41Z</time>
      </trkpt>
      <trkpt lat="47.66298" lon="-2.57987">
        <ele>114.4</ele>
        <time>2021-04-09T12:54:47Z</time>
      </trkpt>
      <trkpt lat="47.66299" lon="-2.57995">
        <ele>114.2</ele>
        <time>2021-04-09T12:54:52Z</time>
      </trkpt>
      <trkpt lat="47.66301" lon="-2.58001">
        <ele>113.8</ele>
        <time>2021-04-09T12:54:56Z</time>
      </trkpt>
      <trkpt lat="47.66303" lon="-2.58007">
        <ele>113.7</ele>
        <time>2021-04-09T12:55:00Z</time>
      </trkpt>
      <trkpt lat="47.66303" lon="-2.58014">
        <ele>113</ele>
        <time>2021-04-09T12:55:03Z</time>
      </trkpt>
      <trkpt lat="47.663" lon="-2.58021">
        <ele>112.3</ele>
        <time>2021-04-09T12:55:07Z</time>
      </trkpt>
      <trkpt lat="47.66302" lon="-2.58027">
        <ele>111.7</ele>
        <time>2021-04-09T12:55:11Z</time>
      </trkpt>
      <trkpt lat="47.66303" lon="-2.58036">
        <ele>110.6</ele>
        <time>2021-04-09T12:55:16Z</time>
      </trkpt>
      <trkpt lat="47.66301" lon="-2.58043">
        <ele>109.8</ele>
        <time>2021-04-09T12:55:19Z</time>
      </trkpt>
      <trkpt lat="47.66299" lon="-2.58051">
        <ele>109</ele>
        <time>2021-04-09T12:55:22Z</time>
      </trkpt>
      <trkpt lat="47.66298" lon="-2.58058">
        <ele>108.5</ele>
        <time>2021-04-09T12:55:25Z</time>
      </trkpt>
      <trkpt lat="47.663" lon="-2.58067">
        <ele>107.4</ele>
        <time>2021-04-09T12:55:29Z</time>
      </trkpt>
      <trkpt lat="47.66303" lon="-2.58074">
        <ele>106.6</ele>
        <time>2021-04-09T12:55:31Z</time>
      </trkpt>
      <trkpt lat="47.66304" lon="-2.58081">
        <ele>105.3</ele>
        <time>2021-04-09T12:55:33Z</time>
      </trkpt>
      <trkpt lat="47.66307" lon="-2.58087">
        <ele>102.1</ele>
        <time>2021-04-09T12:55:37Z</time>
      </trkpt>
      <trkpt lat="47.66306" lon="-2.58093">
        <ele>99.9</ele>
        <time>2021-04-09T12:55:41Z</time>
      </trkpt>
      <trkpt lat="47.66303" lon="-2.58099">
        <ele>95.7</ele>
        <time>2021-04-09T12:55:47Z</time>
      </trkpt>
      <trkpt lat="47.66299" lon="-2.58106">
        <ele>92.4</ele>
        <time>2021-04-09T12:55:51Z</time>
      </trkpt>
      <trkpt lat="47.66303" lon="-2.58109">
        <ele>90</ele>
        <time>2021-04-09T12:55:55Z</time>
      </trkpt>
      <trkpt lat="47.66307" lon="-2.58116">
        <ele>87.7</ele>
        <time>2021-04-09T12:55:59Z</time>
      </trkpt>
      <trkpt lat="47.66308" lon="-2.58122">
        <ele>86.2</ele>
        <time>2021-04-09T12:56:04Z</time>
      </trkpt>
      <trkpt lat="47.66308" lon="-2.58129">
        <ele>85.5</ele>
        <time>2021-04-09T12:56:07Z</time>
      </trkpt>
      <trkpt lat="47.66314" lon="-2.58133">
        <ele>80.8</ele>
        <time>2021-04-09T12:56:12Z</time>
      </trkpt>
      <trkpt lat="47.66319" lon="-2.58134">
        <ele>76.5</ele>
        <time>2021-04-09T12:56:15Z</time>
      </trkpt>
      <trkpt lat="47.66317" lon="-2.58141">
        <ele>71.8</ele>
        <time>2021-04-09T12:56:19Z</time>
      </trkpt>
      <trkpt lat="47.66319" lon="-2.58148">
        <ele>69.3</ele>
        <time>2021-04-09T12:56:23Z</time>
      </trkpt>
      <trkpt lat="47.66322" lon="-2.58154">
        <ele>66.5</ele>
        <time>2021-04-09T12:56:28Z</time>
      </trkpt>
      <trkpt lat="47.66325" lon="-2.58159">
        <ele>64.1</ele>
        <time>2021-04-09T12:56:32Z</time>
      </trkpt>
      <trkpt lat="47.66326" lon="-2.58168">
        <ele>61.3</ele>
        <time>2021-04-09T12:56:36Z</time>
      </trkpt>
      <trkpt lat="47.66325" lon="-2.58176">
        <ele>58.5</ele>
        <time>2021-04-09T12:56:40Z</time>
      </trkpt>
      <trkpt lat="47.66324" lon="-2.58185">
        <ele>56.4</ele>
        <time>2021-04-09T12:56:44Z</time>
      </trkpt>
      <trkpt lat="47.66327" lon="-2.58191">
        <ele>55.5</ele>
        <time>2021-04-09T12:56:47Z</time>
      </trkpt>
      <trkpt lat="47.66329" lon="-2.58197">
        <ele>55.4</ele>
        <time>2021-04-09T12:56:50Z</time>
      </trkpt>
      <trkpt lat="47.66333" lon="-2.58204">
        <ele>55.3</ele>
        <time>2021-04-09T12:56:53Z</time>
      </trkpt>
      <trkpt lat="47.66335" lon="-2.58212">
        <ele>54.5</ele>
        <time>2021-04-09T12:56:56Z</time>
      </trkpt>
      <trkpt lat="47.66335" lon="-2.5822">
        <ele>53.9</ele>
        <time>2021-04-09T12:56:58Z</time>
      </trkpt>
      <trkpt lat="47.66336" lon="-2.58228">
        <ele>53.6</ele>
        <time>2021-04-09T12:57:01Z</time>
      </trkpt>
      <trkpt lat="47.66337" lon="-2.58235">
        <ele>53.5</ele>
        <time>2021-04-09T12:57:03Z</time>
      </trkpt>
      <trkpt lat="47.66334" lon="-2.58242">
        <ele>53.3</ele>
        <time>2021-04-09T12:57:06Z</time>
      </trkpt>
      <trkpt lat="47.66335" lon="-2.5825">
        <ele>54</ele>
        <time>2021-04-09T12:57:10Z</time>
      </trkpt>
      <trkpt lat="47.66335" lon="-2.58258">
        <ele>53.3</ele>
        <time>2021-04-09T12:57:15Z</time>
      </trkpt>
      <trkpt lat="47.66337" lon="-2.58263">
        <ele>52.2</ele>
        <time>2021-04-09T12:57:19Z</time>
      </trkpt>
      <trkpt lat="47.66341" lon="-2.5827">
        <ele>51.6</ele>
        <time>2021-04-09T12:57:24Z</time>
      </trkpt>
      <trkpt lat="47.66343" lon="-2.58277">
        <ele>51.5</ele>
        <time>2021-04-09T12:57:28Z</time>
      </trkpt>
      <trkpt lat="47.66346" lon="-2.58284">
        <ele>52.6</ele>
        <time>2021-04-09T12:57:31Z</time>
      </trkpt>
      <trkpt lat="47.66348" lon="-2.5829">
        <ele>53</ele>
        <time>2021-04-09T12:57:35Z</time>
      </trkpt>
      <trkpt lat="47.6635" lon="-2.58298">
        <ele>52.7</ele>
        <time>2021-04-09T12:57:39Z</time>
      </trkpt>
      <trkpt lat="47.66349" lon="-2.58307">
        <ele>53.4</ele>
        <time>2021-04-09T12:57:43Z</time>
      </trkpt>
      <trkpt lat="47.66348" lon="-2.58314">
        <ele>54</ele>
        <time>2021-04-09T12:57:46Z</time>
      </trkpt>
      <trkpt lat="47.6635" lon="-2.58324">
        <ele>54</ele>
        <time>2021-04-09T12:57:53Z</time>
      </trkpt>
      <trkpt lat="47.66353" lon="-2.58332">
        <ele>55.9</ele>
        <time>2021-04-09T12:57:57Z</time>
      </trkpt>
      <trkpt lat="47.66358" lon="-2.58337">
        <ele>58</ele>
        <time>2021-04-09T12:58:00Z</time>
      </trkpt>
      <trkpt lat="47.66362" lon="-2.58343">
        <ele>59.7</ele>
        <time>2021-04-09T12:58:02Z</time>
      </trkpt>
      <trkpt lat="47.66365" lon="-2.58348">
        <ele>60.8</ele>
        <time>2021-04-09T12:58:04Z</time>
      </trkpt>
      <trkpt lat="47.66372" lon="-2.58354">
        <ele>61.5</ele>
        <time>2021-04-09T12:58:06Z</time>
      </trkpt>
      <trkpt lat="47.66378" lon="-2.58359">
        <ele>62.4</ele>
        <time>2021-04-09T12:58:08Z</time>
      </trkpt>
      <trkpt lat="47.66383" lon="-2.58367">
        <ele>63.7</ele>
        <time>2021-04-09T12:58:11Z</time>
      </trkpt>
      <trkpt lat="47.66387" lon="-2.58373">
        <ele>65.1</ele>
        <time>2021-04-09T12:58:14Z</time>
      </trkpt>
      <trkpt lat="47.6639" lon="-2.58378">
        <ele>67</ele>
        <time>2021-04-09T12:58:17Z</time>
      </trkpt>
      <trkpt lat="47.66395" lon="-2.58382">
        <ele>70.2</ele>
        <time>2021-04-09T12:58:20Z</time>
      </trkpt>
      <trkpt lat="47.66398" lon="-2.58388">
        <ele>72.2</ele>
        <time>2021-04-09T12:58:24Z</time>
      </trkpt>
      <trkpt lat="47.66398" lon="-2.58395">
        <ele>77.1</ele>
        <time>2021-04-09T12:58:29Z</time>
      </trkpt>
      <trkpt lat="47.66399" lon="-2.58403">
        <ele>80.4</ele>
        <time>2021-04-09T12:58:34Z</time>
      </trkpt>
      <trkpt lat="47.66401" lon="-2.58412">
        <ele>82.3</ele>
        <time>2021-04-09T12:58:38Z</time>
      </trkpt>
      <trkpt lat="47.66402" lon="-2.58419">
        <ele>84.3</ele>
        <time>2021-04-09T12:58:42Z</time>
      </trkpt>
      <trkpt lat="47.66404" lon="-2.58428">
        <ele>86.7</ele>
        <time>2021-04-09T12:58:46Z</time>
      </trkpt>
      <trkpt lat="47.66405" lon="-2.58435">
        <ele>88.8</ele>
        <time>2021-04-09T12:58:50Z</time>
      </trkpt>
      <trkpt lat="47.66408" lon="-2.58442">
        <ele>91.8</ele>
        <time>2021-04-09T12:58:53Z</time>
      </trkpt>
      <trkpt lat="47.66412" lon="-2.58448">
        <ele>97.1</ele>
        <time>2021-04-09T12:58:57Z</time>
      </trkpt>
      <trkpt lat="47.66414" lon="-2.58455">
        <ele>98.1</ele>
        <time>2021-04-09T12:59:00Z</time>
      </trkpt>
      <trkpt lat="47.66414" lon="-2.58462">
        <ele>99.8</ele>
        <time>2021-04-09T12:59:04Z</time>
      </trkpt>
      <trkpt lat="47.66415" lon="-2.5847">
        <ele>103.6</ele>
        <time>2021-04-09T12:59:08Z</time>
      </trkpt>
      <trkpt lat="47.66418" lon="-2.58478">
        <ele>105.8</ele>
        <time>2021-04-09T12:59:11Z</time>
      </trkpt>
      <trkpt lat="47.66416" lon="-2.58486">
        <ele>107.3</ele>
        <time>2021-04-09T12:59:14Z</time>
      </trkpt>
      <trkpt lat="47.66414" lon="-2.58493">
        <ele>108.9</ele>
        <time>2021-04-09T12:59:16Z</time>
      </trkpt>
      <trkpt lat="47.66412" lon="-2.585">
        <ele>110.9</ele>
        <time>2021-04-09T12:59:19Z</time>
      </trkpt>
      <trkpt lat="47.66411" lon="-2.58509">
        <ele>112</ele>
        <time>2021-04-09T12:59:22Z</time>
      </trkpt>
      <trkpt lat="47.66409" lon="-2.58516">
        <ele>115</ele>
        <time>2021-04-09T12:59:26Z</time>
      </trkpt>
      <trkpt lat="47.66407" lon="-2.58524">
        <ele>116.6</ele>
        <time>2021-04-09T12:59:29Z</time>
      </trkpt>
      <trkpt lat="47.66407" lon="-2.58531">
        <ele>117.4</ele>
        <time>2021-04-09T12:59:32Z</time>
      </trkpt>
      <trkpt lat="47.66407" lon="-2.58539">
        <ele>117.3</ele>
        <time>2021-04-09T12:59:35Z</time>
      </trkpt>
      <trkpt lat="47.66408" lon="-2.58548">
        <ele>117.5</ele>
        <time>2021-04-09T12:59:38Z</time>
      </trkpt>
      <trkpt lat="47.6641" lon="-2.58555">
        <ele>118.3</ele>
        <time>2021-04-09T12:59:44Z</time>
      </trkpt>
      <trkpt lat="47.66411" lon="-2.58563">
        <ele>118.7</ele>
        <time>2021-04-09T12:59:49Z</time>
      </trkpt>
      <trkpt lat="47.66414" lon="-2.5857">
        <ele>119.8</ele>
        <time>2021-04-09T12:59:54Z</time>
      </trkpt>
      <trkpt lat="47.66414" lon="-2.58571">
        <ele>120.1</ele>
        <time>2021-04-09T12:59:55Z</time>
      </trkpt>
      <trkpt lat="47.66415" lon="-2.58572">
        <ele>120.2</ele>
        <time>2021-04-09T12:59:56Z</time>
      </trkpt>
      <trkpt lat="47.66416" lon="-2.58574">
        <ele>120.4</ele>
        <time>2021-04-09T12:59:57Z</time>
      </trkpt>
      <trkpt lat="47.66416" lon="-2.58575">
        <ele>120.6</ele>
        <time>2021-04-09T12:59:58Z</time>
      </trkpt>
      <trkpt lat="47.66417" lon="-2.58576">
        <ele>120.7</ele>
        <time>2021-04-09T12:59:59Z</time>
      </trkpt>
      <trkpt lat="47.66417" lon="-2.58578">
        <ele>120.9</ele>
        <time>2021-04-09T13:00:00Z</time>
      </trkpt>
      <trkpt lat="47.66418" lon="-2.5858">
        <ele>121.2</ele>
        <time>2021-04-09T13:00:01Z</time>
      </trkpt>
      <trkpt lat="47.66418" lon="-2.58581">
        <ele>121.5</ele>
        <time>2021-04-09T13:00:02Z</time>
      </trkpt>
      <trkpt lat="47.66419" lon="-2.58583">
        <ele>121.8</ele>
        <time>2021-04-09T13:00:03Z</time>
      </trkpt>
      <trkpt lat="47.66419" lon="-2.58584">
        <ele>122.1</ele>
        <time>2021-04-09T13:00:04Z</time>
      </trkpt>
      <trkpt lat="47.66419" lon="-2.58586">
        <ele>122.3</ele>
        <time>2021-04-09T13:00:05Z</time>
      </trkpt>
      <trkpt lat="47.66419" lon="-2.58587">
        <ele>122.6</ele>
        <time>2021-04-09T13:00:06Z</time>
      </trkpt>
      <trkpt lat="47.66419" lon="-2.58589">
        <ele>122.8</ele>
        <time>2021-04-09T13:00:07Z</time>
      </trkpt>
      <trkpt lat="47.66419" lon="-2.58591">
        <ele>122.9</ele>
        <time>2021-04-09T13:00:08Z</time>
      </trkpt>
      <trkpt lat="47.6642" lon="-2.58592">
        <ele>122.9</ele>
        <time>2021-04-09T13:00:09Z</time>
      </trkpt>
      <trkpt lat="47.66423" lon="-2.58599">
        <ele>123.5</ele>
        <time>2021-04-09T13:00:13Z</time>
      </trkpt>
      <trkpt lat="47.66424" lon="-2.58601">
        <ele>123.4</ele>
        <time>2021-04-09T13:00:14Z</time>
      </trkpt>
      <trkpt lat="47.66426" lon="-2.58608">
        <ele>123.6</ele>
        <time>2021-04-09T13:00:17Z</time>
      </trkpt>
      <trkpt lat="47.66427" lon="-2.58611">
        <ele>123.6</ele>
        <time>2021-04-09T13:00:18Z</time>
      </trkpt>
      <trkpt lat="47.66428" lon="-2.58617">
        <ele>123.8</ele>
        <time>2021-04-09T13:00:21Z</time>
      </trkpt>
      <trkpt lat="47.66429" lon="-2.58619">
        <ele>123.8</ele>
        <time>2021-04-09T13:00:22Z</time>
      </trkpt>
      <trkpt lat="47.66433" lon="-2.58623">
        <ele>124</ele>
        <time>2021-04-09T13:00:26Z</time>
      </trkpt>
      <trkpt lat="47.66433" lon="-2.58624">
        <ele>123.9</ele>
        <time>2021-04-09T13:00:27Z</time>
      </trkpt>
      <trkpt lat="47.66439" lon="-2.58627">
        <ele>123.7</ele>
        <time>2021-04-09T13:00:31Z</time>
      </trkpt>
      <trkpt lat="47.66443" lon="-2.58628">
        <ele>123.3</ele>
        <time>2021-04-09T13:00:34Z</time>
      </trkpt>
      <trkpt lat="47.66448" lon="-2.58629">
        <ele>122.3</ele>
        <time>2021-04-09T13:00:38Z</time>
      </trkpt>
      <trkpt lat="47.66452" lon="-2.58632">
        <ele>120.2</ele>
        <time>2021-04-09T13:00:44Z</time>
      </trkpt>
      <trkpt lat="47.66457" lon="-2.58636">
        <ele>118.5</ele>
        <time>2021-04-09T13:00:49Z</time>
      </trkpt>
      <trkpt lat="47.66461" lon="-2.58641">
        <ele>118.4</ele>
        <time>2021-04-09T13:00:53Z</time>
      </trkpt>
      <trkpt lat="47.66464" lon="-2.58646">
        <ele>119.3</ele>
        <time>2021-04-09T13:00:57Z</time>
      </trkpt>
      <trkpt lat="47.66469" lon="-2.58651">
        <ele>118.8</ele>
        <time>2021-04-09T13:01:02Z</time>
      </trkpt>
      <trkpt lat="47.66472" lon="-2.58658">
        <ele>120</ele>
        <time>2021-04-09T13:01:06Z</time>
      </trkpt>
      <trkpt lat="47.66471" lon="-2.58664">
        <ele>120.6</ele>
        <time>2021-04-09T13:01:09Z</time>
      </trkpt>
      <trkpt lat="47.66468" lon="-2.5867">
        <ele>120.5</ele>
        <time>2021-04-09T13:01:13Z</time>
      </trkpt>
      <trkpt lat="47.66467" lon="-2.58679">
        <ele>120.1</ele>
        <time>2021-04-09T13:01:17Z</time>
      </trkpt>
      <trkpt lat="47.66467" lon="-2.58686">
        <ele>119.7</ele>
        <time>2021-04-09T13:01:24Z</time>
      </trkpt>
      <trkpt lat="47.66464" lon="-2.58691">
        <ele>119.9</ele>
        <time>2021-04-09T13:01:29Z</time>
      </trkpt>
      <trkpt lat="47.6646" lon="-2.58695">
        <ele>120.1</ele>
        <time>2021-04-09T13:01:32Z</time>
      </trkpt>
      <trkpt lat="47.66457" lon="-2.58701">
        <ele>120.7</ele>
        <time>2021-04-09T13:01:38Z</time>
      </trkpt>
      <trkpt lat="47.66452" lon="-2.58704">
        <ele>121</ele>
        <time>2021-04-09T13:01:42Z</time>
      </trkpt>
      <trkpt lat="47.66447" lon="-2.58708">
        <ele>120.5</ele>
        <time>2021-04-09T13:01:46Z</time>
      </trkpt>
      <trkpt lat="47.66445" lon="-2.58714">
        <ele>120.3</ele>
        <time>2021-04-09T13:01:50Z</time>
      </trkpt>
      <trkpt lat="47.6644" lon="-2.58718">
        <ele>120.1</ele>
        <time>2021-04-09T13:01:53Z</time>
      </trkpt>
      <trkpt lat="47.6644" lon="-2.58725">
        <ele>119.6</ele>
        <time>2021-04-09T13:01:56Z</time>
      </trkpt>
      <trkpt lat="47.66443" lon="-2.58729">
        <ele>119.6</ele>
        <time>2021-04-09T13:02:01Z</time>
      </trkpt>
      <trkpt lat="47.66447" lon="-2.58733">
        <ele>119</ele>
        <time>2021-04-09T13:02:04Z</time>
      </trkpt>
      <trkpt lat="47.66451" lon="-2.58742">
        <ele>118.4</ele>
        <time>2021-04-09T13:02:07Z</time>
      </trkpt>
      <trkpt lat="47.66454" lon="-2.58749">
        <ele>117.5</ele>
        <time>2021-04-09T13:02:11Z</time>
      </trkpt>
      <trkpt lat="47.66458" lon="-2.58753">
        <ele>116</ele>
        <time>2021-04-09T13:02:15Z</time>
      </trkpt>
      <trkpt lat="47.66463" lon="-2.58756">
        <ele>115.2</ele>
        <time>2021-04-09T13:02:19Z</time>
      </trkpt>
      <trkpt lat="47.66467" lon="-2.58761">
        <ele>114.4</ele>
        <time>2021-04-09T13:02:25Z</time>
      </trkpt>
      <trkpt lat="47.66471" lon="-2.58765">
        <ele>114</ele>
        <time>2021-04-09T13:02:29Z</time>
      </trkpt>
      <trkpt lat="47.66475" lon="-2.5877">
        <ele>114.1</ele>
        <time>2021-04-09T13:02:33Z</time>
      </trkpt>
      <trkpt lat="47.66478" lon="-2.58774">
        <ele>113.9</ele>
        <time>2021-04-09T13:02:36Z</time>
      </trkpt>
      <trkpt lat="47.66484" lon="-2.58776">
        <ele>113.5</ele>
        <time>2021-04-09T13:02:41Z</time>
      </trkpt>
      <trkpt lat="47.66489" lon="-2.58775">
        <ele>112.5</ele>
        <time>2021-04-09T13:02:44Z</time>
      </trkpt>
      <trkpt lat="47.66494" lon="-2.58778">
        <ele>112.9</ele>
        <time>2021-04-09T13:02:51Z</time>
      </trkpt>
      <trkpt lat="47.66499" lon="-2.58781">
        <ele>112.8</ele>
        <time>2021-04-09T13:02:54Z</time>
      </trkpt>
      <trkpt lat="47.66504" lon="-2.5878">
        <ele>112.5</ele>
        <time>2021-04-09T13:02:57Z</time>
      </trkpt>
      <trkpt lat="47.66508" lon="-2.58785">
        <ele>113</ele>
        <time>2021-04-09T13:03:02Z</time>
      </trkpt>
      <trkpt lat="47.66512" lon="-2.58789">
        <ele>113.7</ele>
        <time>2021-04-09T13:03:07Z</time>
      </trkpt>
      <trkpt lat="47.66517" lon="-2.58793">
        <ele>114.9</ele>
        <time>2021-04-09T13:03:11Z</time>
      </trkpt>
      <trkpt lat="47.66522" lon="-2.58796">
        <ele>115.2</ele>
        <time>2021-04-09T13:03:14Z</time>
      </trkpt>
      <trkpt lat="47.66526" lon="-2.58801">
        <ele>115.8</ele>
        <time>2021-04-09T13:03:17Z</time>
      </trkpt>
      <trkpt lat="47.66531" lon="-2.58804">
        <ele>116.8</ele>
        <time>2021-04-09T13:03:20Z</time>
      </trkpt>
      <trkpt lat="47.66536" lon="-2.58806">
        <ele>117.7</ele>
        <time>2021-04-09T13:03:23Z</time>
      </trkpt>
      <trkpt lat="47.66542" lon="-2.58808">
        <ele>117.8</ele>
        <time>2021-04-09T13:03:26Z</time>
      </trkpt>
      <trkpt lat="47.66547" lon="-2.58811">
        <ele>117.7</ele>
        <time>2021-04-09T13:03:29Z</time>
      </trkpt>
      <trkpt lat="47.66552" lon="-2.58817">
        <ele>116.7</ele>
        <time>2021-04-09T13:03:33Z</time>
      </trkpt>
      <trkpt lat="47.66555" lon="-2.58822">
        <ele>118</ele>
        <time>2021-04-09T13:03:37Z</time>
      </trkpt>
      <trkpt lat="47.66553" lon="-2.58829">
        <ele>122</ele>
        <time>2021-04-09T13:03:46Z</time>
      </trkpt>
      <trkpt lat="47.66558" lon="-2.58831">
        <ele>123.8</ele>
        <time>2021-04-09T13:03:59Z</time>
      </trkpt>
      <trkpt lat="47.66559" lon="-2.58832">
        <ele>123.5</ele>
        <time>2021-04-09T13:04:00Z</time>
      </trkpt>
      <trkpt lat="47.66562" lon="-2.58837">
        <ele>120.8</ele>
        <time>2021-04-09T13:04:06Z</time>
      </trkpt>
      <trkpt lat="47.66559" lon="-2.58843">
        <ele>115.6</ele>
        <time>2021-04-09T13:04:19Z</time>
      </trkpt>
      <trkpt lat="47.66555" lon="-2.58847">
        <ele>113.3</ele>
        <time>2021-04-09T13:04:40Z</time>
      </trkpt>
      <trkpt lat="47.66558" lon="-2.58842">
        <ele>114.6</ele>
        <time>2021-04-09T13:04:46Z</time>
      </trkpt>
      <trkpt lat="47.66559" lon="-2.58834">
        <ele>115.5</ele>
        <time>2021-04-09T13:04:51Z</time>
      </trkpt>
      <trkpt lat="47.6656" lon="-2.58827">
        <ele>116.2</ele>
        <time>2021-04-09T13:04:56Z</time>
      </trkpt>
      <trkpt lat="47.66565" lon="-2.58827">
        <ele>116.3</ele>
        <time>2021-04-09T13:05:00Z</time>
      </trkpt>
      <trkpt lat="47.6657" lon="-2.58827">
        <ele>117.1</ele>
        <time>2021-04-09T13:05:05Z</time>
      </trkpt>
      <trkpt lat="47.66574" lon="-2.58826">
        <ele>118.8</ele>
        <time>2021-04-09T13:05:13Z</time>
      </trkpt>
      <trkpt lat="47.66581" lon="-2.58824">
        <ele>118.5</ele>
        <time>2021-04-09T13:05:21Z</time>
      </trkpt>
      <trkpt lat="47.66587" lon="-2.58821">
        <ele>117.8</ele>
        <time>2021-04-09T13:05:24Z</time>
      </trkpt>
      <trkpt lat="47.66592" lon="-2.58818">
        <ele>117.4</ele>
        <time>2021-04-09T13:05:27Z</time>
      </trkpt>
      <trkpt lat="47.66597" lon="-2.58814">
        <ele>116</ele>
        <time>2021-04-09T13:05:30Z</time>
      </trkpt>
      <trkpt lat="47.66604" lon="-2.58815">
        <ele>113.5</ele>
        <time>2021-04-09T13:05:33Z</time>
      </trkpt>
      <trkpt lat="47.6661" lon="-2.58816">
        <ele>111.6</ele>
        <time>2021-04-09T13:05:37Z</time>
      </trkpt>
      <trkpt lat="47.66615" lon="-2.58814">
        <ele>109.5</ele>
        <time>2021-04-09T13:05:41Z</time>
      </trkpt>
      <trkpt lat="47.6662" lon="-2.58811">
        <ele>107.4</ele>
        <time>2021-04-09T13:05:45Z</time>
      </trkpt>
      <trkpt lat="47.66625" lon="-2.58809">
        <ele>105.4</ele>
        <time>2021-04-09T13:05:48Z</time>
      </trkpt>
      <trkpt lat="47.66629" lon="-2.58807">
        <ele>103.6</ele>
        <time>2021-04-09T13:05:53Z</time>
      </trkpt>
      <trkpt lat="47.66634" lon="-2.58807">
        <ele>103.4</ele>
        <time>2021-04-09T13:05:58Z</time>
      </trkpt>
      <trkpt lat="47.66639" lon="-2.58803">
        <ele>104.4</ele>
        <time>2021-04-09T13:06:06Z</time>
      </trkpt>
      <trkpt lat="47.66644" lon="-2.58801">
        <ele>104.8</ele>
        <time>2021-04-09T13:06:11Z</time>
      </trkpt>
      <trkpt lat="47.66649" lon="-2.58801">
        <ele>104.5</ele>
        <time>2021-04-09T13:06:21Z</time>
      </trkpt>
      <trkpt lat="47.66653" lon="-2.58806">
        <ele>103.8</ele>
        <time>2021-04-09T13:06:29Z</time>
      </trkpt>
      <trkpt lat="47.66658" lon="-2.5881">
        <ele>101.4</ele>
        <time>2021-04-09T13:06:33Z</time>
      </trkpt>
      <trkpt lat="47.66662" lon="-2.58815">
        <ele>99.7</ele>
        <time>2021-04-09T13:06:37Z</time>
      </trkpt>
      <trkpt lat="47.66666" lon="-2.58819">
        <ele>98.8</ele>
        <time>2021-04-09T13:06:42Z</time>
      </trkpt>
      <trkpt lat="47.66671" lon="-2.58822">
        <ele>98.1</ele>
        <time>2021-04-09T13:06:46Z</time>
      </trkpt>
      <trkpt lat="47.66674" lon="-2.58828">
        <ele>97.1</ele>
        <time>2021-04-09T13:06:51Z</time>
      </trkpt>
      <trkpt lat="47.66678" lon="-2.58831">
        <ele>95.4</ele>
        <time>2021-04-09T13:06:56Z</time>
      </trkpt>
      <trkpt lat="47.66681" lon="-2.58837">
        <ele>94.3</ele>
        <time>2021-04-09T13:07:02Z</time>
      </trkpt>
      <trkpt lat="47.66684" lon="-2.58845">
        <ele>93</ele>
        <time>2021-04-09T13:07:06Z</time>
      </trkpt>
      <trkpt lat="47.66689" lon="-2.58848">
        <ele>92.3</ele>
        <time>2021-04-09T13:07:11Z</time>
      </trkpt>
      <trkpt lat="47.66691" lon="-2.58855">
        <ele>92.2</ele>
        <time>2021-04-09T13:07:20Z</time>
      </trkpt>
      <trkpt lat="47.66696" lon="-2.58857">
        <ele>91.1</ele>
        <time>2021-04-09T13:07:26Z</time>
      </trkpt>
      <trkpt lat="47.66701" lon="-2.58859">
        <ele>90.2</ele>
        <time>2021-04-09T13:07:35Z</time>
      </trkpt>
      <trkpt lat="47.66702" lon="-2.58861">
        <ele>90.3</ele>
        <time>2021-04-09T13:07:42Z</time>
      </trkpt>
      <trkpt lat="47.66702" lon="-2.58861">
        <ele>90.3</ele>
        <time>2021-04-09T13:07:42Z</time>
      </trkpt>
      <trkpt lat="47.66703" lon="-2.5887">
        <ele>93.6</ele>
        <time>2021-04-09T13:07:54Z</time>
      </trkpt>
      <trkpt lat="47.66701" lon="-2.58878">
        <ele>95</ele>
        <time>2021-04-09T13:07:59Z</time>
      </trkpt>
      <trkpt lat="47.66698" lon="-2.58885">
        <ele>96.4</ele>
        <time>2021-04-09T13:08:02Z</time>
      </trkpt>
      <trkpt lat="47.66702" lon="-2.58882">
        <ele>97</ele>
        <time>2021-04-09T13:08:13Z</time>
      </trkpt>
      <trkpt lat="47.66705" lon="-2.58877">
        <ele>97.3</ele>
        <time>2021-04-09T13:08:16Z</time>
      </trkpt>
      <trkpt lat="47.66703" lon="-2.58869">
        <ele>95.6</ele>
        <time>2021-04-09T13:08:22Z</time>
      </trkpt>
      <trkpt lat="47.66705" lon="-2.58861">
        <ele>94.8</ele>
        <time>2021-04-09T13:08:27Z</time>
      </trkpt>
      <trkpt lat="47.66701" lon="-2.58858">
        <ele>93.3</ele>
        <time>2021-04-09T13:08:35Z</time>
      </trkpt>
      <trkpt lat="47.66696" lon="-2.58854">
        <ele>94.3</ele>
        <time>2021-04-09T13:08:41Z</time>
      </trkpt>
      <trkpt lat="47.66693" lon="-2.58849">
        <ele>93.5</ele>
        <time>2021-04-09T13:08:47Z</time>
      </trkpt>
      <trkpt lat="47.6669" lon="-2.58844">
        <ele>92.4</ele>
        <time>2021-04-09T13:08:54Z</time>
      </trkpt>
      <trkpt lat="47.66691" lon="-2.58836">
        <ele>91.7</ele>
        <time>2021-04-09T13:09:00Z</time>
      </trkpt>
      <trkpt lat="47.66692" lon="-2.58829">
        <ele>91.9</ele>
        <time>2021-04-09T13:09:03Z</time>
      </trkpt>
      <trkpt lat="47.66693" lon="-2.58822">
        <ele>92</ele>
        <time>2021-04-09T13:09:06Z</time>
      </trkpt>
      <trkpt lat="47.66695" lon="-2.58816">
        <ele>92.6</ele>
        <time>2021-04-09T13:09:10Z</time>
      </trkpt>
      <trkpt lat="47.66698" lon="-2.58808">
        <ele>93</ele>
        <time>2021-04-09T13:09:15Z</time>
      </trkpt>
      <trkpt lat="47.66699" lon="-2.58801">
        <ele>94.1</ele>
        <time>2021-04-09T13:09:20Z</time>
      </trkpt>
      <trkpt lat="47.667" lon="-2.58795">
        <ele>94.6</ele>
        <time>2021-04-09T13:09:24Z</time>
      </trkpt>
      <trkpt lat="47.66702" lon="-2.58787">
        <ele>95.1</ele>
        <time>2021-04-09T13:09:27Z</time>
      </trkpt>
      <trkpt lat="47.66705" lon="-2.58781">
        <ele>96.1</ele>
        <time>2021-04-09T13:09:31Z</time>
      </trkpt>
      <trkpt lat="47.66704" lon="-2.58774">
        <ele>97.7</ele>
        <time>2021-04-09T13:09:39Z</time>
      </trkpt>
      <trkpt lat="47.66705" lon="-2.58767">
        <ele>98.5</ele>
        <time>2021-04-09T13:09:44Z</time>
      </trkpt>
      <trkpt lat="47.66707" lon="-2.5876">
        <ele>99.6</ele>
        <time>2021-04-09T13:09:49Z</time>
      </trkpt>
      <trkpt lat="47.6671" lon="-2.58754">
        <ele>100.5</ele>
        <time>2021-04-09T13:09:52Z</time>
      </trkpt>
      <trkpt lat="47.66713" lon="-2.58747">
        <ele>101.2</ele>
        <time>2021-04-09T13:09:55Z</time>
      </trkpt>
      <trkpt lat="47.66716" lon="-2.58741">
        <ele>103</ele>
        <time>2021-04-09T13:10:00Z</time>
      </trkpt>
      <trkpt lat="47.66719" lon="-2.58736">
        <ele>105.3</ele>
        <time>2021-04-09T13:10:04Z</time>
      </trkpt>
      <trkpt lat="47.66722" lon="-2.5873">
        <ele>106</ele>
        <time>2021-04-09T13:10:07Z</time>
      </trkpt>
      <trkpt lat="47.66725" lon="-2.58724">
        <ele>104.4</ele>
        <time>2021-04-09T13:10:11Z</time>
      </trkpt>
      <trkpt lat="47.6673" lon="-2.5872">
        <ele>102.2</ele>
        <time>2021-04-09T13:10:15Z</time>
      </trkpt>
      <trkpt lat="47.66733" lon="-2.58715">
        <ele>101.1</ele>
        <time>2021-04-09T13:10:19Z</time>
      </trkpt>
      <trkpt lat="47.66735" lon="-2.58708">
        <ele>98.8</ele>
        <time>2021-04-09T13:10:24Z</time>
      </trkpt>
      <trkpt lat="47.66736" lon="-2.58701">
        <ele>97.3</ele>
        <time>2021-04-09T13:10:28Z</time>
      </trkpt>
      <trkpt lat="47.66739" lon="-2.58695">
        <ele>96.1</ele>
        <time>2021-04-09T13:10:31Z</time>
      </trkpt>
      <trkpt lat="47.66742" lon="-2.58687">
        <ele>94.3</ele>
        <time>2021-04-09T13:10:36Z</time>
      </trkpt>
      <trkpt lat="47.66747" lon="-2.58682">
        <ele>92.2</ele>
        <time>2021-04-09T13:10:39Z</time>
      </trkpt>
      <trkpt lat="47.6675" lon="-2.58677">
        <ele>90.7</ele>
        <time>2021-04-09T13:10:43Z</time>
      </trkpt>
      <trkpt lat="47.66752" lon="-2.58671">
        <ele>89.3</ele>
        <time>2021-04-09T13:10:47Z</time>
      </trkpt>
      <trkpt lat="47.66753" lon="-2.58664">
        <ele>89.4</ele>
        <time>2021-04-09T13:10:50Z</time>
      </trkpt>
      <trkpt lat="47.66755" lon="-2.58657">
        <ele>89.1</ele>
        <time>2021-04-09T13:10:54Z</time>
      </trkpt>
      <trkpt lat="47.66756" lon="-2.58649">
        <ele>88.4</ele>
        <time>2021-04-09T13:10:59Z</time>
      </trkpt>
      <trkpt lat="47.66759" lon="-2.58643">
        <ele>87.3</ele>
        <time>2021-04-09T13:11:04Z</time>
      </trkpt>
      <trkpt lat="47.66761" lon="-2.58637">
        <ele>87.6</ele>
        <time>2021-04-09T13:11:13Z</time>
      </trkpt>
      <trkpt lat="47.66766" lon="-2.5864">
        <ele>88.9</ele>
        <time>2021-04-09T13:11:18Z</time>
      </trkpt>
      <trkpt lat="47.66769" lon="-2.58634">
        <ele>90.2</ele>
        <time>2021-04-09T13:11:21Z</time>
      </trkpt>
      <trkpt lat="47.66773" lon="-2.58632">
        <ele>90.8</ele>
        <time>2021-04-09T13:11:24Z</time>
      </trkpt>
      <trkpt lat="47.66779" lon="-2.58631">
        <ele>91.9</ele>
        <time>2021-04-09T13:11:28Z</time>
      </trkpt>
      <trkpt lat="47.66784" lon="-2.58632">
        <ele>93.3</ele>
        <time>2021-04-09T13:11:31Z</time>
      </trkpt>
      <trkpt lat="47.66789" lon="-2.58634">
        <ele>95</ele>
        <time>2021-04-09T13:11:35Z</time>
      </trkpt>
      <trkpt lat="47.66794" lon="-2.58635">
        <ele>96.1</ele>
        <time>2021-04-09T13:11:38Z</time>
      </trkpt>
      <trkpt lat="47.668" lon="-2.58636">
        <ele>97.1</ele>
        <time>2021-04-09T13:11:41Z</time>
      </trkpt>
      <trkpt lat="47.66806" lon="-2.58637">
        <ele>97.8</ele>
        <time>2021-04-09T13:11:44Z</time>
      </trkpt>
      <trkpt lat="47.66813" lon="-2.58638">
        <ele>98.2</ele>
        <time>2021-04-09T13:11:47Z</time>
      </trkpt>
      <trkpt lat="47.66817" lon="-2.58641">
        <ele>101.1</ele>
        <time>2021-04-09T13:11:56Z</time>
      </trkpt>
      <trkpt lat="47.66822" lon="-2.58641">
        <ele>103.1</ele>
        <time>2021-04-09T13:12:01Z</time>
      </trkpt>
      <trkpt lat="47.66827" lon="-2.58643">
        <ele>104.7</ele>
        <time>2021-04-09T13:12:05Z</time>
      </trkpt>
      <trkpt lat="47.66832" lon="-2.58641">
        <ele>105.8</ele>
        <time>2021-04-09T13:12:08Z</time>
      </trkpt>
      <trkpt lat="47.66837" lon="-2.58643">
        <ele>107.1</ele>
        <time>2021-04-09T13:12:12Z</time>
      </trkpt>
      <trkpt lat="47.66842" lon="-2.58643">
        <ele>107.9</ele>
        <time>2021-04-09T13:12:15Z</time>
      </trkpt>
      <trkpt lat="47.66848" lon="-2.58645">
        <ele>108.6</ele>
        <time>2021-04-09T13:12:18Z</time>
      </trkpt>
      <trkpt lat="47.66854" lon="-2.58644">
        <ele>108.6</ele>
        <time>2021-04-09T13:12:20Z</time>
      </trkpt>
      <trkpt lat="47.66859" lon="-2.58646">
        <ele>109.2</ele>
        <time>2021-04-09T13:12:23Z</time>
      </trkpt>
      <trkpt lat="47.66865" lon="-2.58648">
        <ele>109.4</ele>
        <time>2021-04-09T13:12:26Z</time>
      </trkpt>
      <trkpt lat="47.6687" lon="-2.58649">
        <ele>110</ele>
        <time>2021-04-09T13:12:30Z</time>
      </trkpt>
      <trkpt lat="47.66876" lon="-2.58652">
        <ele>111.1</ele>
        <time>2021-04-09T13:12:38Z</time>
      </trkpt>
      <trkpt lat="47.66879" lon="-2.58657">
        <ele>112.5</ele>
        <time>2021-04-09T13:12:42Z</time>
      </trkpt>
      <trkpt lat="47.66882" lon="-2.58666">
        <ele>113.3</ele>
        <time>2021-04-09T13:12:47Z</time>
      </trkpt>
      <trkpt lat="47.66882" lon="-2.58675">
        <ele>113.4</ele>
        <time>2021-04-09T13:12:50Z</time>
      </trkpt>
      <trkpt lat="47.66882" lon="-2.58684">
        <ele>115.1</ele>
        <time>2021-04-09T13:12:54Z</time>
      </trkpt>
      <trkpt lat="47.66881" lon="-2.58691">
        <ele>116.4</ele>
        <time>2021-04-09T13:12:59Z</time>
      </trkpt>
      <trkpt lat="47.66881" lon="-2.58699">
        <ele>116.9</ele>
        <time>2021-04-09T13:13:04Z</time>
      </trkpt>
      <trkpt lat="47.66882" lon="-2.58706">
        <ele>117.6</ele>
        <time>2021-04-09T13:13:07Z</time>
      </trkpt>
      <trkpt lat="47.66881" lon="-2.58715">
        <ele>119.1</ele>
        <time>2021-04-09T13:13:13Z</time>
      </trkpt>
      <trkpt lat="47.66881" lon="-2.58723">
        <ele>119.8</ele>
        <time>2021-04-09T13:13:17Z</time>
      </trkpt>
      <trkpt lat="47.66883" lon="-2.58731">
        <ele>120.6</ele>
        <time>2021-04-09T13:13:20Z</time>
      </trkpt>
      <trkpt lat="47.66885" lon="-2.58738">
        <ele>120.5</ele>
        <time>2021-04-09T13:13:25Z</time>
      </trkpt>
      <trkpt lat="47.66887" lon="-2.58743">
        <ele>120.1</ele>
        <time>2021-04-09T13:13:29Z</time>
      </trkpt>
      <trkpt lat="47.66889" lon="-2.5875">
        <ele>119.9</ele>
        <time>2021-04-09T13:13:33Z</time>
      </trkpt>
      <trkpt lat="47.6689" lon="-2.58757">
        <ele>120</ele>
        <time>2021-04-09T13:13:38Z</time>
      </trkpt>
      <trkpt lat="47.66894" lon="-2.58763">
        <ele>119.6</ele>
        <time>2021-04-09T13:13:43Z</time>
      </trkpt>
      <trkpt lat="47.66893" lon="-2.58771">
        <ele>119.9</ele>
        <time>2021-04-09T13:13:48Z</time>
      </trkpt>
      <trkpt lat="47.66893" lon="-2.58778">
        <ele>119.7</ele>
        <time>2021-04-09T13:13:52Z</time>
      </trkpt>
      <trkpt lat="47.66894" lon="-2.58785">
        <ele>119.8</ele>
        <time>2021-04-09T13:13:58Z</time>
      </trkpt>
      <trkpt lat="47.66894" lon="-2.58792">
        <ele>119.9</ele>
        <time>2021-04-09T13:14:04Z</time>
      </trkpt>
      <trkpt lat="47.66893" lon="-2.58795">
        <ele>120</ele>
        <time>2021-04-09T13:14:14Z</time>
      </trkpt>
      <trkpt lat="47.66893" lon="-2.58795">
        <ele>120</ele>
        <time>2021-04-09T13:14:14Z</time>
      </trkpt>
      <trkpt lat="47.66897" lon="-2.58804">
        <ele>94.9</ele>
        <time>2021-04-09T13:20:23Z</time>
      </trkpt>
      <trkpt lat="47.66892" lon="-2.58801">
        <ele>95.2</ele>
        <time>2021-04-09T13:20:29Z</time>
      </trkpt>
      <trkpt lat="47.66891" lon="-2.58809">
        <ele>95.2</ele>
        <time>2021-04-09T13:20:42Z</time>
      </trkpt>
      <trkpt lat="47.66893" lon="-2.58816">
        <ele>94.9</ele>
        <time>2021-04-09T13:20:46Z</time>
      </trkpt>
      <trkpt lat="47.66896" lon="-2.58822">
        <ele>95.6</ele>
        <time>2021-04-09T13:20:49Z</time>
      </trkpt>
      <trkpt lat="47.66897" lon="-2.58829">
        <ele>95.8</ele>
        <time>2021-04-09T13:20:52Z</time>
      </trkpt>
      <trkpt lat="47.66896" lon="-2.58837">
        <ele>96.1</ele>
        <time>2021-04-09T13:20:55Z</time>
      </trkpt>
      <trkpt lat="47.66895" lon="-2.58846">
        <ele>96.3</ele>
        <time>2021-04-09T13:20:58Z</time>
      </trkpt>
      <trkpt lat="47.66897" lon="-2.58853">
        <ele>98.6</ele>
        <time>2021-04-09T13:21:05Z</time>
      </trkpt>
      <trkpt lat="47.669" lon="-2.58858">
        <ele>98.8</ele>
        <time>2021-04-09T13:21:08Z</time>
      </trkpt>
      <trkpt lat="47.66901" lon="-2.58867">
        <ele>98</ele>
        <time>2021-04-09T13:21:12Z</time>
      </trkpt>
      <trkpt lat="47.66899" lon="-2.58874">
        <ele>98.4</ele>
        <time>2021-04-09T13:21:16Z</time>
      </trkpt>
      <trkpt lat="47.66903" lon="-2.58877">
        <ele>99</ele>
        <time>2021-04-09T13:21:21Z</time>
      </trkpt>
      <trkpt lat="47.66907" lon="-2.58879">
        <ele>99.5</ele>
        <time>2021-04-09T13:21:26Z</time>
      </trkpt>
      <trkpt lat="47.66912" lon="-2.58883">
        <ele>100.4</ele>
        <time>2021-04-09T13:21:31Z</time>
      </trkpt>
      <trkpt lat="47.66917" lon="-2.58882">
        <ele>99.6</ele>
        <time>2021-04-09T13:21:38Z</time>
      </trkpt>
      <trkpt lat="47.66923" lon="-2.58884">
        <ele>101.1</ele>
        <time>2021-04-09T13:21:42Z</time>
      </trkpt>
      <trkpt lat="47.66927" lon="-2.58884">
        <ele>102.7</ele>
        <time>2021-04-09T13:21:45Z</time>
      </trkpt>
      <trkpt lat="47.66932" lon="-2.58884">
        <ele>103.3</ele>
        <time>2021-04-09T13:21:48Z</time>
      </trkpt>
      <trkpt lat="47.66937" lon="-2.58884">
        <ele>104.1</ele>
        <time>2021-04-09T13:21:51Z</time>
      </trkpt>
      <trkpt lat="47.66943" lon="-2.58886">
        <ele>103</ele>
        <time>2021-04-09T13:21:54Z</time>
      </trkpt>
      <trkpt lat="47.66948" lon="-2.58886">
        <ele>103.2</ele>
        <time>2021-04-09T13:21:57Z</time>
      </trkpt>
      <trkpt lat="47.66953" lon="-2.58887">
        <ele>103.5</ele>
        <time>2021-04-09T13:22:00Z</time>
      </trkpt>
      <trkpt lat="47.66958" lon="-2.5889">
        <ele>103.9</ele>
        <time>2021-04-09T13:22:04Z</time>
      </trkpt>
      <trkpt lat="47.66961" lon="-2.58894">
        <ele>104.7</ele>
        <time>2021-04-09T13:22:09Z</time>
      </trkpt>
      <trkpt lat="47.66965" lon="-2.58897">
        <ele>105.7</ele>
        <time>2021-04-09T13:22:15Z</time>
      </trkpt>
      <trkpt lat="47.6697" lon="-2.589">
        <ele>106.8</ele>
        <time>2021-04-09T13:22:20Z</time>
      </trkpt>
      <trkpt lat="47.66975" lon="-2.58901">
        <ele>107.2</ele>
        <time>2021-04-09T13:22:24Z</time>
      </trkpt>
      <trkpt lat="47.6698" lon="-2.58897">
        <ele>108</ele>
        <time>2021-04-09T13:22:29Z</time>
      </trkpt>
      <trkpt lat="47.66984" lon="-2.58893">
        <ele>110.4</ele>
        <time>2021-04-09T13:22:38Z</time>
      </trkpt>
      <trkpt lat="47.66989" lon="-2.58893">
        <ele>113.2</ele>
        <time>2021-04-09T13:22:44Z</time>
      </trkpt>
      <trkpt lat="47.66992" lon="-2.58886">
        <ele>114.1</ele>
        <time>2021-04-09T13:22:48Z</time>
      </trkpt>
      <trkpt lat="47.66998" lon="-2.58882">
        <ele>115.1</ele>
        <time>2021-04-09T13:22:52Z</time>
      </trkpt>
      <trkpt lat="47.67004" lon="-2.58883">
        <ele>115.7</ele>
        <time>2021-04-09T13:22:56Z</time>
      </trkpt>
      <trkpt lat="47.67009" lon="-2.58883">
        <ele>116.1</ele>
        <time>2021-04-09T13:23:00Z</time>
      </trkpt>
      <trkpt lat="47.67013" lon="-2.58884">
        <ele>116.9</ele>
        <time>2021-04-09T13:23:05Z</time>
      </trkpt>
      <trkpt lat="47.67018" lon="-2.58881">
        <ele>117.6</ele>
        <time>2021-04-09T13:23:09Z</time>
      </trkpt>
      <trkpt lat="47.67023" lon="-2.58881">
        <ele>118.4</ele>
        <time>2021-04-09T13:23:13Z</time>
      </trkpt>
      <trkpt lat="47.67028" lon="-2.5888">
        <ele>118.9</ele>
        <time>2021-04-09T13:23:17Z</time>
      </trkpt>
      <trkpt lat="47.67033" lon="-2.58882">
        <ele>119.8</ele>
        <time>2021-04-09T13:23:21Z</time>
      </trkpt>
      <trkpt lat="47.67038" lon="-2.58884">
        <ele>120.4</ele>
        <time>2021-04-09T13:23:25Z</time>
      </trkpt>
      <trkpt lat="47.67043" lon="-2.58883">
        <ele>120.8</ele>
        <time>2021-04-09T13:23:29Z</time>
      </trkpt>
      <trkpt lat="47.67048" lon="-2.58882">
        <ele>121.4</ele>
        <time>2021-04-09T13:23:33Z</time>
      </trkpt>
      <trkpt lat="47.67052" lon="-2.58883">
        <ele>121.5</ele>
        <time>2021-04-09T13:23:37Z</time>
      </trkpt>
      <trkpt lat="47.67057" lon="-2.58887">
        <ele>121.5</ele>
        <time>2021-04-09T13:23:41Z</time>
      </trkpt>
      <trkpt lat="47.67061" lon="-2.58893">
        <ele>121.9</ele>
        <time>2021-04-09T13:23:45Z</time>
      </trkpt>
      <trkpt lat="47.67065" lon="-2.58898">
        <ele>121.8</ele>
        <time>2021-04-09T13:23:49Z</time>
      </trkpt>
      <trkpt lat="47.6707" lon="-2.58899">
        <ele>121.7</ele>
        <time>2021-04-09T13:23:52Z</time>
      </trkpt>
      <trkpt lat="47.67075" lon="-2.58902">
        <ele>121.3</ele>
        <time>2021-04-09T13:23:55Z</time>
      </trkpt>
      <trkpt lat="47.67079" lon="-2.58908">
        <ele>121</ele>
        <time>2021-04-09T13:23:58Z</time>
      </trkpt>
      <trkpt lat="47.67082" lon="-2.58915">
        <ele>120.3</ele>
        <time>2021-04-09T13:24:02Z</time>
      </trkpt>
      <trkpt lat="47.67085" lon="-2.58921">
        <ele>119.1</ele>
        <time>2021-04-09T13:24:08Z</time>
      </trkpt>
      <trkpt lat="47.67091" lon="-2.58923">
        <ele>118.1</ele>
        <time>2021-04-09T13:24:13Z</time>
      </trkpt>
      <trkpt lat="47.67095" lon="-2.58923">
        <ele>118.2</ele>
        <time>2021-04-09T13:24:17Z</time>
      </trkpt>
      <trkpt lat="47.671" lon="-2.58921">
        <ele>119.3</ele>
        <time>2021-04-09T13:24:21Z</time>
      </trkpt>
      <trkpt lat="47.67105" lon="-2.58921">
        <ele>120.1</ele>
        <time>2021-04-09T13:24:24Z</time>
      </trkpt>
      <trkpt lat="47.6711" lon="-2.58921">
        <ele>121.3</ele>
        <time>2021-04-09T13:24:27Z</time>
      </trkpt>
      <trkpt lat="47.67115" lon="-2.58922">
        <ele>122.5</ele>
        <time>2021-04-09T13:24:30Z</time>
      </trkpt>
      <trkpt lat="47.6712" lon="-2.58926">
        <ele>123.7</ele>
        <time>2021-04-09T13:24:33Z</time>
      </trkpt>
      <trkpt lat="47.67125" lon="-2.5893">
        <ele>123.8</ele>
        <time>2021-04-09T13:24:36Z</time>
      </trkpt>
      <trkpt lat="47.67129" lon="-2.58933">
        <ele>124.1</ele>
        <time>2021-04-09T13:24:39Z</time>
      </trkpt>
      <trkpt lat="47.67125" lon="-2.58935">
        <ele>121.6</ele>
        <time>2021-04-09T13:24:57Z</time>
      </trkpt>
      <trkpt lat="47.67125" lon="-2.58935">
        <ele>121.6</ele>
        <time>2021-04-09T13:24:57Z</time>
      </trkpt>
      <trkpt lat="47.67129" lon="-2.58934">
        <ele>123.2</ele>
        <time>2021-04-09T13:25:05Z</time>
      </trkpt>
      <trkpt lat="47.67132" lon="-2.58941">
        <ele>122</ele>
        <time>2021-04-09T13:25:13Z</time>
      </trkpt>
      <trkpt lat="47.67134" lon="-2.58947">
        <ele>123</ele>
        <time>2021-04-09T13:25:19Z</time>
      </trkpt>
      <trkpt lat="47.67139" lon="-2.5895">
        <ele>124.6</ele>
        <time>2021-04-09T13:25:23Z</time>
      </trkpt>
      <trkpt lat="47.67141" lon="-2.58952">
        <ele>124.6</ele>
        <time>2021-04-09T13:25:24Z</time>
      </trkpt>
      <trkpt lat="47.67146" lon="-2.58954">
        <ele>124.3</ele>
        <time>2021-04-09T13:25:27Z</time>
      </trkpt>
      <trkpt lat="47.67148" lon="-2.58955">
        <ele>124.3</ele>
        <time>2021-04-09T13:25:28Z</time>
      </trkpt>
      <trkpt lat="47.67153" lon="-2.58956">
        <ele>125</ele>
        <time>2021-04-09T13:25:31Z</time>
      </trkpt>
      <trkpt lat="47.67155" lon="-2.58957">
        <ele>125.5</ele>
        <time>2021-04-09T13:25:32Z</time>
      </trkpt>
      <trkpt lat="47.67156" lon="-2.58958">
        <ele>126.1</ele>
        <time>2021-04-09T13:25:33Z</time>
      </trkpt>
      <trkpt lat="47.67157" lon="-2.58959">
        <ele>126.7</ele>
        <time>2021-04-09T13:25:34Z</time>
      </trkpt>
      <trkpt lat="47.67159" lon="-2.58961">
        <ele>127.2</ele>
        <time>2021-04-09T13:25:35Z</time>
      </trkpt>
      <trkpt lat="47.67159" lon="-2.58963">
        <ele>127.5</ele>
        <time>2021-04-09T13:25:36Z</time>
      </trkpt>
      <trkpt lat="47.6716" lon="-2.58964">
        <ele>127.8</ele>
        <time>2021-04-09T13:25:37Z</time>
      </trkpt>
      <trkpt lat="47.67161" lon="-2.58965">
        <ele>128.3</ele>
        <time>2021-04-09T13:25:38Z</time>
      </trkpt>
      <trkpt lat="47.67161" lon="-2.58966">
        <ele>128.9</ele>
        <time>2021-04-09T13:25:39Z</time>
      </trkpt>
      <trkpt lat="47.67161" lon="-2.58967">
        <ele>129.3</ele>
        <time>2021-04-09T13:25:40Z</time>
      </trkpt>
      <trkpt lat="47.67161" lon="-2.58967">
        <ele>129.8</ele>
        <time>2021-04-09T13:25:41Z</time>
      </trkpt>
      <trkpt lat="47.67162" lon="-2.58968">
        <ele>130.4</ele>
        <time>2021-04-09T13:25:42Z</time>
      </trkpt>
      <trkpt lat="47.67162" lon="-2.58967">
        <ele>131.3</ele>
        <time>2021-04-09T13:25:43Z</time>
      </trkpt>
      <trkpt lat="47.67162" lon="-2.58968">
        <ele>131.9</ele>
        <time>2021-04-09T13:25:44Z</time>
      </trkpt>
      <trkpt lat="47.67162" lon="-2.5897">
        <ele>132.5</ele>
        <time>2021-04-09T13:25:45Z</time>
      </trkpt>
      <trkpt lat="47.67162" lon="-2.58972">
        <ele>133.1</ele>
        <time>2021-04-09T13:25:46Z</time>
      </trkpt>
      <trkpt lat="47.67162" lon="-2.58973">
        <ele>133.6</ele>
        <time>2021-04-09T13:25:47Z</time>
      </trkpt>
      <trkpt lat="47.67162" lon="-2.58975">
        <ele>134</ele>
        <time>2021-04-09T13:25:48Z</time>
      </trkpt>
      <trkpt lat="47.67162" lon="-2.58977">
        <ele>134.2</ele>
        <time>2021-04-09T13:25:49Z</time>
      </trkpt>
      <trkpt lat="47.67162" lon="-2.58978">
        <ele>134.5</ele>
        <time>2021-04-09T13:25:50Z</time>
      </trkpt>
      <trkpt lat="47.67164" lon="-2.5898">
        <ele>134.5</ele>
        <time>2021-04-09T13:25:51Z</time>
      </trkpt>
      <trkpt lat="47.67167" lon="-2.58985">
        <ele>134.7</ele>
        <time>2021-04-09T13:25:55Z</time>
      </trkpt>
      <trkpt lat="47.67167" lon="-2.58986">
        <ele>135</ele>
        <time>2021-04-09T13:25:56Z</time>
      </trkpt>
      <trkpt lat="47.67166" lon="-2.58989">
        <ele>135.4</ele>
        <time>2021-04-09T13:25:57Z</time>
      </trkpt>
      <trkpt lat="47.67165" lon="-2.58991">
        <ele>135.7</ele>
        <time>2021-04-09T13:25:58Z</time>
      </trkpt>
      <trkpt lat="47.67165" lon="-2.58993">
        <ele>135.9</ele>
        <time>2021-04-09T13:25:59Z</time>
      </trkpt>
      <trkpt lat="47.67165" lon="-2.58995">
        <ele>136</ele>
        <time>2021-04-09T13:26:00Z</time>
      </trkpt>
      <trkpt lat="47.67164" lon="-2.58997">
        <ele>136.3</ele>
        <time>2021-04-09T13:26:01Z</time>
      </trkpt>
      <trkpt lat="47.67163" lon="-2.58999">
        <ele>136.5</ele>
        <time>2021-04-09T13:26:02Z</time>
      </trkpt>
      <trkpt lat="47.67162" lon="-2.59002">
        <ele>136.9</ele>
        <time>2021-04-09T13:26:03Z</time>
      </trkpt>
      <trkpt lat="47.67161" lon="-2.59004">
        <ele>137.3</ele>
        <time>2021-04-09T13:26:04Z</time>
      </trkpt>
      <trkpt lat="47.6716" lon="-2.59006">
        <ele>137.7</ele>
        <time>2021-04-09T13:26:05Z</time>
      </trkpt>
      <trkpt lat="47.67159" lon="-2.59009">
        <ele>138.1</ele>
        <time>2021-04-09T13:26:06Z</time>
      </trkpt>
      <trkpt lat="47.67159" lon="-2.59013">
        <ele>138.5</ele>
        <time>2021-04-09T13:26:07Z</time>
      </trkpt>
      <trkpt lat="47.67159" lon="-2.59015">
        <ele>138.9</ele>
        <time>2021-04-09T13:26:08Z</time>
      </trkpt>
      <trkpt lat="47.67159" lon="-2.59018">
        <ele>139.1</ele>
        <time>2021-04-09T13:26:09Z</time>
      </trkpt>
      <trkpt lat="47.67159" lon="-2.5902">
        <ele>139.3</ele>
        <time>2021-04-09T13:26:10Z</time>
      </trkpt>
      <trkpt lat="47.67159" lon="-2.59022">
        <ele>139.6</ele>
        <time>2021-04-09T13:26:11Z</time>
      </trkpt>
      <trkpt lat="47.67159" lon="-2.59023">
        <ele>139.8</ele>
        <time>2021-04-09T13:26:12Z</time>
      </trkpt>
      <trkpt lat="47.6716" lon="-2.59025">
        <ele>140</ele>
        <time>2021-04-09T13:26:13Z</time>
      </trkpt>
      <trkpt lat="47.6716" lon="-2.59027">
        <ele>140.2</ele>
        <time>2021-04-09T13:26:14Z</time>
      </trkpt>
      <trkpt lat="47.67161" lon="-2.59029">
        <ele>140.4</ele>
        <time>2021-04-09T13:26:15Z</time>
      </trkpt>
      <trkpt lat="47.67161" lon="-2.59031">
        <ele>140</ele>
        <time>2021-04-09T13:26:16Z</time>
      </trkpt>
      <trkpt lat="47.67164" lon="-2.59038">
        <ele>139.6</ele>
        <time>2021-04-09T13:26:20Z</time>
      </trkpt>
      <trkpt lat="47.67166" lon="-2.59045">
        <ele>139.3</ele>
        <time>2021-04-09T13:26:23Z</time>
      </trkpt>
      <trkpt lat="47.67167" lon="-2.59052">
        <ele>137.5</ele>
        <time>2021-04-09T13:26:26Z</time>
      </trkpt>
      <trkpt lat="47.6717" lon="-2.59059">
        <ele>134.9</ele>
        <time>2021-04-09T13:26:28Z</time>
      </trkpt>
      <trkpt lat="47.67175" lon="-2.59064">
        <ele>131.5</ele>
        <time>2021-04-09T13:26:31Z</time>
      </trkpt>
      <trkpt lat="47.67178" lon="-2.5907">
        <ele>128.6</ele>
        <time>2021-04-09T13:26:34Z</time>
      </trkpt>
      <trkpt lat="47.67181" lon="-2.59075">
        <ele>125.4</ele>
        <time>2021-04-09T13:26:37Z</time>
      </trkpt>
      <trkpt lat="47.67183" lon="-2.59082">
        <ele>122</ele>
        <time>2021-04-09T13:26:41Z</time>
      </trkpt>
      <trkpt lat="47.67183" lon="-2.59091">
        <ele>120.4</ele>
        <time>2021-04-09T13:26:45Z</time>
      </trkpt>
      <trkpt lat="47.67183" lon="-2.59099">
        <ele>120</ele>
        <time>2021-04-09T13:26:48Z</time>
      </trkpt>
      <trkpt lat="47.6718" lon="-2.59107">
        <ele>120</ele>
        <time>2021-04-09T13:26:51Z</time>
      </trkpt>
      <trkpt lat="47.6718" lon="-2.59115">
        <ele>120</ele>
        <time>2021-04-09T13:26:54Z</time>
      </trkpt>
      <trkpt lat="47.67183" lon="-2.59122">
        <ele>119.5</ele>
        <time>2021-04-09T13:26:59Z</time>
      </trkpt>
      <trkpt lat="47.67186" lon="-2.59128">
        <ele>119.1</ele>
        <time>2021-04-09T13:27:03Z</time>
      </trkpt>
      <trkpt lat="47.6719" lon="-2.59134">
        <ele>118.4</ele>
        <time>2021-04-09T13:27:07Z</time>
      </trkpt>
      <trkpt lat="47.67193" lon="-2.59142">
        <ele>116.2</ele>
        <time>2021-04-09T13:27:11Z</time>
      </trkpt>
      <trkpt lat="47.67196" lon="-2.59149">
        <ele>115.1</ele>
        <time>2021-04-09T13:27:14Z</time>
      </trkpt>
      <trkpt lat="47.67199" lon="-2.59157">
        <ele>114.7</ele>
        <time>2021-04-09T13:27:18Z</time>
      </trkpt>
      <trkpt lat="47.67201" lon="-2.59165">
        <ele>114.9</ele>
        <time>2021-04-09T13:27:22Z</time>
      </trkpt>
      <trkpt lat="47.67203" lon="-2.59171">
        <ele>115.3</ele>
        <time>2021-04-09T13:27:26Z</time>
      </trkpt>
      <trkpt lat="47.67206" lon="-2.59177">
        <ele>115.4</ele>
        <time>2021-04-09T13:27:30Z</time>
      </trkpt>
      <trkpt lat="47.6721" lon="-2.59183">
        <ele>114.4</ele>
        <time>2021-04-09T13:27:34Z</time>
      </trkpt>
      <trkpt lat="47.67213" lon="-2.59189">
        <ele>112.3</ele>
        <time>2021-04-09T13:27:38Z</time>
      </trkpt>
      <trkpt lat="47.67218" lon="-2.59194">
        <ele>111.3</ele>
        <time>2021-04-09T13:27:42Z</time>
      </trkpt>
      <trkpt lat="47.67221" lon="-2.59201">
        <ele>109.8</ele>
        <time>2021-04-09T13:27:47Z</time>
      </trkpt>
      <trkpt lat="47.67219" lon="-2.59208">
        <ele>107.6</ele>
        <time>2021-04-09T13:27:51Z</time>
      </trkpt>
      <trkpt lat="47.67218" lon="-2.59215">
        <ele>106.8</ele>
        <time>2021-04-09T13:27:54Z</time>
      </trkpt>
      <trkpt lat="47.67217" lon="-2.59222">
        <ele>105.6</ele>
        <time>2021-04-09T13:27:58Z</time>
      </trkpt>
      <trkpt lat="47.67215" lon="-2.59229">
        <ele>103.9</ele>
        <time>2021-04-09T13:28:02Z</time>
      </trkpt>
      <trkpt lat="47.67215" lon="-2.59235">
        <ele>102.5</ele>
        <time>2021-04-09T13:28:07Z</time>
      </trkpt>
      <trkpt lat="47.67215" lon="-2.59244">
        <ele>98.8</ele>
        <time>2021-04-09T13:28:16Z</time>
      </trkpt>
      <trkpt lat="47.67218" lon="-2.5925">
        <ele>99.1</ele>
        <time>2021-04-09T13:28:19Z</time>
      </trkpt>
      <trkpt lat="47.67217" lon="-2.59259">
        <ele>99.1</ele>
        <time>2021-04-09T13:28:23Z</time>
      </trkpt>
      <trkpt lat="47.67218" lon="-2.59268">
        <ele>99.8</ele>
        <time>2021-04-09T13:28:25Z</time>
      </trkpt>
      <trkpt lat="47.67218" lon="-2.59277">
        <ele>100.8</ele>
        <time>2021-04-09T13:28:27Z</time>
      </trkpt>
      <trkpt lat="47.67218" lon="-2.59285">
        <ele>102.5</ele>
        <time>2021-04-09T13:28:29Z</time>
      </trkpt>
      <trkpt lat="47.67218" lon="-2.59293">
        <ele>104.4</ele>
        <time>2021-04-09T13:28:31Z</time>
      </trkpt>
      <trkpt lat="47.6722" lon="-2.59303">
        <ele>109.8</ele>
        <time>2021-04-09T13:28:34Z</time>
      </trkpt>
      <trkpt lat="47.67221" lon="-2.5931">
        <ele>113.6</ele>
        <time>2021-04-09T13:28:39Z</time>
      </trkpt>
      <trkpt lat="47.67221" lon="-2.59317">
        <ele>115.4</ele>
        <time>2021-04-09T13:28:44Z</time>
      </trkpt>
      <trkpt lat="47.67219" lon="-2.59325">
        <ele>116</ele>
        <time>2021-04-09T13:28:48Z</time>
      </trkpt>
      <trkpt lat="47.67218" lon="-2.59333">
        <ele>116.6</ele>
        <time>2021-04-09T13:28:51Z</time>
      </trkpt>
      <trkpt lat="47.67218" lon="-2.59341">
        <ele>117.8</ele>
        <time>2021-04-09T13:28:54Z</time>
      </trkpt>
      <trkpt lat="47.6722" lon="-2.59349">
        <ele>118.8</ele>
        <time>2021-04-09T13:28:58Z</time>
      </trkpt>
      <trkpt lat="47.67223" lon="-2.59355">
        <ele>119.4</ele>
        <time>2021-04-09T13:29:02Z</time>
      </trkpt>
      <trkpt lat="47.67225" lon="-2.59363">
        <ele>120.2</ele>
        <time>2021-04-09T13:29:05Z</time>
      </trkpt>
      <trkpt lat="47.67227" lon="-2.59369">
        <ele>121.8</ele>
        <time>2021-04-09T13:29:07Z</time>
      </trkpt>
      <trkpt lat="47.6723" lon="-2.59378">
        <ele>122.6</ele>
        <time>2021-04-09T13:29:10Z</time>
      </trkpt>
      <trkpt lat="47.67231" lon="-2.59385">
        <ele>123.2</ele>
        <time>2021-04-09T13:29:14Z</time>
      </trkpt>
      <trkpt lat="47.6723" lon="-2.59393">
        <ele>123.7</ele>
        <time>2021-04-09T13:29:18Z</time>
      </trkpt>
      <trkpt lat="47.67231" lon="-2.594">
        <ele>124.6</ele>
        <time>2021-04-09T13:29:22Z</time>
      </trkpt>
      <trkpt lat="47.67233" lon="-2.59408">
        <ele>125.9</ele>
        <time>2021-04-09T13:29:25Z</time>
      </trkpt>
      <trkpt lat="47.67234" lon="-2.59415">
        <ele>126.9</ele>
        <time>2021-04-09T13:29:28Z</time>
      </trkpt>
      <trkpt lat="47.67234" lon="-2.59424">
        <ele>127.6</ele>
        <time>2021-04-09T13:29:31Z</time>
      </trkpt>
      <trkpt lat="47.67234" lon="-2.59432">
        <ele>127.9</ele>
        <time>2021-04-09T13:29:34Z</time>
      </trkpt>
      <trkpt lat="47.67234" lon="-2.5944">
        <ele>128.3</ele>
        <time>2021-04-09T13:29:37Z</time>
      </trkpt>
      <trkpt lat="47.67236" lon="-2.59447">
        <ele>129</ele>
        <time>2021-04-09T13:29:41Z</time>
      </trkpt>
      <trkpt lat="47.67236" lon="-2.59454">
        <ele>129.6</ele>
        <time>2021-04-09T13:29:44Z</time>
      </trkpt>
      <trkpt lat="47.67236" lon="-2.59461">
        <ele>130.3</ele>
        <time>2021-04-09T13:29:47Z</time>
      </trkpt>
      <trkpt lat="47.67235" lon="-2.59468">
        <ele>131.3</ele>
        <time>2021-04-09T13:29:50Z</time>
      </trkpt>
      <trkpt lat="47.67236" lon="-2.59478">
        <ele>130.9</ele>
        <time>2021-04-09T13:29:53Z</time>
      </trkpt>
      <trkpt lat="47.67237" lon="-2.59485">
        <ele>129.9</ele>
        <time>2021-04-09T13:29:56Z</time>
      </trkpt>
      <trkpt lat="47.67238" lon="-2.59491">
        <ele>129</ele>
        <time>2021-04-09T13:29:59Z</time>
      </trkpt>
      <trkpt lat="47.67238" lon="-2.595">
        <ele>128.7</ele>
        <time>2021-04-09T13:30:03Z</time>
      </trkpt>
      <trkpt lat="47.67238" lon="-2.59508">
        <ele>129.8</ele>
        <time>2021-04-09T13:30:07Z</time>
      </trkpt>
      <trkpt lat="47.67241" lon="-2.59516">
        <ele>129.6</ele>
        <time>2021-04-09T13:30:11Z</time>
      </trkpt>
      <trkpt lat="47.6724" lon="-2.59524">
        <ele>129.8</ele>
        <time>2021-04-09T13:30:15Z</time>
      </trkpt>
      <trkpt lat="47.67241" lon="-2.59531">
        <ele>129.7</ele>
        <time>2021-04-09T13:30:19Z</time>
      </trkpt>
      <trkpt lat="47.67243" lon="-2.59537">
        <ele>129</ele>
        <time>2021-04-09T13:30:23Z</time>
      </trkpt>
      <trkpt lat="47.67244" lon="-2.59545">
        <ele>128.2</ele>
        <time>2021-04-09T13:30:27Z</time>
      </trkpt>
      <trkpt lat="47.67245" lon="-2.59552">
        <ele>127.9</ele>
        <time>2021-04-09T13:30:30Z</time>
      </trkpt>
      <trkpt lat="47.67244" lon="-2.59561">
        <ele>127.2</ele>
        <time>2021-04-09T13:30:34Z</time>
      </trkpt>
      <trkpt lat="47.67245" lon="-2.59568">
        <ele>126.8</ele>
        <time>2021-04-09T13:30:38Z</time>
      </trkpt>
      <trkpt lat="47.67245" lon="-2.59575">
        <ele>126.3</ele>
        <time>2021-04-09T13:30:42Z</time>
      </trkpt>
      <trkpt lat="47.67247" lon="-2.59583">
        <ele>123.6</ele>
        <time>2021-04-09T13:30:47Z</time>
      </trkpt>
      <trkpt lat="47.67248" lon="-2.5959">
        <ele>120.3</ele>
        <time>2021-04-09T13:30:51Z</time>
      </trkpt>
      <trkpt lat="47.67249" lon="-2.59596">
        <ele>118.5</ele>
        <time>2021-04-09T13:30:54Z</time>
      </trkpt>
      <trkpt lat="47.67248" lon="-2.59604">
        <ele>117.7</ele>
        <time>2021-04-09T13:30:57Z</time>
      </trkpt>
      <trkpt lat="47.67248" lon="-2.59612">
        <ele>118</ele>
        <time>2021-04-09T13:31:00Z</time>
      </trkpt>
      <trkpt lat="47.6725" lon="-2.5962">
        <ele>118.9</ele>
        <time>2021-04-09T13:31:04Z</time>
      </trkpt>
      <trkpt lat="47.67251" lon="-2.59627">
        <ele>118.7</ele>
        <time>2021-04-09T13:31:08Z</time>
      </trkpt>
      <trkpt lat="47.67252" lon="-2.59635">
        <ele>118.5</ele>
        <time>2021-04-09T13:31:12Z</time>
      </trkpt>
      <trkpt lat="47.67252" lon="-2.59643">
        <ele>118.9</ele>
        <time>2021-04-09T13:31:16Z</time>
      </trkpt>
      <trkpt lat="47.67254" lon="-2.59651">
        <ele>119.3</ele>
        <time>2021-04-09T13:31:20Z</time>
      </trkpt>
      <trkpt lat="47.67255" lon="-2.59658">
        <ele>119.2</ele>
        <time>2021-04-09T13:31:23Z</time>
      </trkpt>
      <trkpt lat="47.67256" lon="-2.59666">
        <ele>119.2</ele>
        <time>2021-04-09T13:31:26Z</time>
      </trkpt>
      <trkpt lat="47.67257" lon="-2.59673">
        <ele>119.1</ele>
        <time>2021-04-09T13:31:29Z</time>
      </trkpt>
      <trkpt lat="47.67257" lon="-2.5968">
        <ele>119.7</ele>
        <time>2021-04-09T13:31:32Z</time>
      </trkpt>
      <trkpt lat="47.67257" lon="-2.59689">
        <ele>120.7</ele>
        <time>2021-04-09T13:31:35Z</time>
      </trkpt>
      <trkpt lat="47.67256" lon="-2.59696">
        <ele>121.9</ele>
        <time>2021-04-09T13:31:38Z</time>
      </trkpt>
      <trkpt lat="47.67256" lon="-2.59703">
        <ele>123.7</ele>
        <time>2021-04-09T13:31:41Z</time>
      </trkpt>
      <trkpt lat="47.67257" lon="-2.59711">
        <ele>125.9</ele>
        <time>2021-04-09T13:31:45Z</time>
      </trkpt>
      <trkpt lat="47.67257" lon="-2.59718">
        <ele>127.3</ele>
        <time>2021-04-09T13:31:49Z</time>
      </trkpt>
      <trkpt lat="47.67262" lon="-2.59723">
        <ele>127.6</ele>
        <time>2021-04-09T13:31:53Z</time>
      </trkpt>
      <trkpt lat="47.67263" lon="-2.59731">
        <ele>128</ele>
        <time>2021-04-09T13:31:56Z</time>
      </trkpt>
      <trkpt lat="47.67263" lon="-2.59739">
        <ele>127.2</ele>
        <time>2021-04-09T13:31:59Z</time>
      </trkpt>
      <trkpt lat="47.67262" lon="-2.59746">
        <ele>126.7</ele>
        <time>2021-04-09T13:32:02Z</time>
      </trkpt>
      <trkpt lat="47.67259" lon="-2.59751">
        <ele>126.5</ele>
        <time>2021-04-09T13:32:05Z</time>
      </trkpt>
      <trkpt lat="47.67253" lon="-2.59751">
        <ele>126.6</ele>
        <time>2021-04-09T13:32:09Z</time>
      </trkpt>
      <trkpt lat="47.67247" lon="-2.5975">
        <ele>127.7</ele>
        <time>2021-04-09T13:32:13Z</time>
      </trkpt>
      <trkpt lat="47.67243" lon="-2.59749">
        <ele>128.7</ele>
        <time>2021-04-09T13:32:19Z</time>
      </trkpt>
      <trkpt lat="47.67238" lon="-2.59748">
        <ele>127.3</ele>
        <time>2021-04-09T13:32:26Z</time>
      </trkpt>
      <trkpt lat="47.67234" lon="-2.59751">
        <ele>121.4</ele>
        <time>2021-04-09T13:32:32Z</time>
      </trkpt>
      <trkpt lat="47.6723" lon="-2.59756">
        <ele>114.5</ele>
        <time>2021-04-09T13:32:39Z</time>
      </trkpt>
      <trkpt lat="47.67224" lon="-2.59756">
        <ele>110.5</ele>
        <time>2021-04-09T13:32:42Z</time>
      </trkpt>
      <trkpt lat="47.6722" lon="-2.5976">
        <ele>102.7</ele>
        <time>2021-04-09T13:32:47Z</time>
      </trkpt>
      <trkpt lat="47.67215" lon="-2.59762">
        <ele>97.2</ele>
        <time>2021-04-09T13:32:52Z</time>
      </trkpt>
      <trkpt lat="47.6721" lon="-2.59763">
        <ele>94.4</ele>
        <time>2021-04-09T13:32:55Z</time>
      </trkpt>
      <trkpt lat="47.67204" lon="-2.59763">
        <ele>93.1</ele>
        <time>2021-04-09T13:32:57Z</time>
      </trkpt>
      <trkpt lat="47.67199" lon="-2.59762">
        <ele>92.4</ele>
        <time>2021-04-09T13:32:59Z</time>
      </trkpt>
      <trkpt lat="47.67192" lon="-2.5976">
        <ele>92</ele>
        <time>2021-04-09T13:33:01Z</time>
      </trkpt>
      <trkpt lat="47.67185" lon="-2.59758">
        <ele>91.6</ele>
        <time>2021-04-09T13:33:03Z</time>
      </trkpt>
      <trkpt lat="47.67178" lon="-2.59755">
        <ele>88.5</ele>
        <time>2021-04-09T13:33:06Z</time>
      </trkpt>
      <trkpt lat="47.67174" lon="-2.59751">
        <ele>86.7</ele>
        <time>2021-04-09T13:33:08Z</time>
      </trkpt>
      <trkpt lat="47.6717" lon="-2.59747">
        <ele>86.7</ele>
        <time>2021-04-09T13:33:09Z</time>
      </trkpt>
      <trkpt lat="47.67164" lon="-2.59745">
        <ele>85.4</ele>
        <time>2021-04-09T13:33:12Z</time>
      </trkpt>
      <trkpt lat="47.6716" lon="-2.59743">
        <ele>80.6</ele>
        <time>2021-04-09T13:33:18Z</time>
      </trkpt>
      <trkpt lat="47.67159" lon="-2.59735">
        <ele>76</ele>
        <time>2021-04-09T13:33:27Z</time>
      </trkpt>
      <trkpt lat="47.67164" lon="-2.59731">
        <ele>77</ele>
        <time>2021-04-09T13:33:33Z</time>
      </trkpt>
      <trkpt lat="47.6717" lon="-2.59731">
        <ele>76.6</ele>
        <time>2021-04-09T13:33:37Z</time>
      </trkpt>
      <trkpt lat="47.67175" lon="-2.59729">
        <ele>75.7</ele>
        <time>2021-04-09T13:33:39Z</time>
      </trkpt>
      <trkpt lat="47.67181" lon="-2.59729">
        <ele>74.2</ele>
        <time>2021-04-09T13:33:42Z</time>
      </trkpt>
      <trkpt lat="47.67186" lon="-2.59727">
        <ele>73.1</ele>
        <time>2021-04-09T13:33:45Z</time>
      </trkpt>
      <trkpt lat="47.67189" lon="-2.5972">
        <ele>71.8</ele>
        <time>2021-04-09T13:33:48Z</time>
      </trkpt>
      <trkpt lat="47.67194" lon="-2.59716">
        <ele>71.2</ele>
        <time>2021-04-09T13:33:50Z</time>
      </trkpt>
      <trkpt lat="47.67198" lon="-2.59715">
        <ele>69.9</ele>
        <time>2021-04-09T13:33:53Z</time>
      </trkpt>
      <trkpt lat="47.67201" lon="-2.59709">
        <ele>68.5</ele>
        <time>2021-04-09T13:33:56Z</time>
      </trkpt>
      <trkpt lat="47.67201" lon="-2.59701">
        <ele>68.1</ele>
        <time>2021-04-09T13:33:59Z</time>
      </trkpt>
      <trkpt lat="47.67196" lon="-2.59697">
        <ele>67.8</ele>
        <time>2021-04-09T13:34:03Z</time>
      </trkpt>
      <trkpt lat="47.67063" lon="-2.59834">
        <ele>74.2</ele>
        <time>2021-04-09T13:34:41Z</time>
      </trkpt>
      <trkpt lat="47.67035" lon="-2.59875">
        <ele>79.1</ele>
        <time>2021-04-09T13:34:59Z</time>
      </trkpt>
      <trkpt lat="47.67024" lon="-2.59894">
        <ele>79.7</ele>
        <time>2021-04-09T13:35:08Z</time>
      </trkpt>
      <trkpt lat="47.67012" lon="-2.599">
        <ele>71.5</ele>
        <time>2021-04-09T13:35:37Z</time>
      </trkpt>
      <trkpt lat="47.67009" lon="-2.59895">
        <ele>70.5</ele>
        <time>2021-04-09T13:35:41Z</time>
      </trkpt>
      <trkpt lat="47.67012" lon="-2.5989">
        <ele>68.7</ele>
        <time>2021-04-09T13:35:44Z</time>
      </trkpt>
      <trkpt lat="47.67017" lon="-2.59889">
        <ele>68.9</ele>
        <time>2021-04-09T13:35:48Z</time>
      </trkpt>
      <trkpt lat="47.67019" lon="-2.59897">
        <ele>70.9</ele>
        <time>2021-04-09T13:35:53Z</time>
      </trkpt>
      <trkpt lat="47.67021" lon="-2.59905">
        <ele>72.6</ele>
        <time>2021-04-09T13:35:56Z</time>
      </trkpt>
      <trkpt lat="47.6702" lon="-2.59914">
        <ele>74.5</ele>
        <time>2021-04-09T13:35:59Z</time>
      </trkpt>
      <trkpt lat="47.67022" lon="-2.59921">
        <ele>77.3</ele>
        <time>2021-04-09T13:36:02Z</time>
      </trkpt>
      <trkpt lat="47.67026" lon="-2.5993">
        <ele>80.5</ele>
        <time>2021-04-09T13:36:05Z</time>
      </trkpt>
      <trkpt lat="47.67028" lon="-2.59939">
        <ele>83.2</ele>
        <time>2021-04-09T13:36:09Z</time>
      </trkpt>
      <trkpt lat="47.6703" lon="-2.59951">
        <ele>88.4</ele>
        <time>2021-04-09T13:36:14Z</time>
      </trkpt>
      <trkpt lat="47.67032" lon="-2.59958">
        <ele>91.7</ele>
        <time>2021-04-09T13:36:17Z</time>
      </trkpt>
      <trkpt lat="47.67033" lon="-2.59967">
        <ele>94.3</ele>
        <time>2021-04-09T13:36:20Z</time>
      </trkpt>
      <trkpt lat="47.67035" lon="-2.59973">
        <ele>96.9</ele>
        <time>2021-04-09T13:36:23Z</time>
      </trkpt>
      <trkpt lat="47.67036" lon="-2.59982">
        <ele>97.9</ele>
        <time>2021-04-09T13:36:26Z</time>
      </trkpt>
      <trkpt lat="47.67035" lon="-2.59989">
        <ele>98.1</ele>
        <time>2021-04-09T13:36:28Z</time>
      </trkpt>
      <trkpt lat="47.67035" lon="-2.59999">
        <ele>99.2</ele>
        <time>2021-04-09T13:36:31Z</time>
      </trkpt>
      <trkpt lat="47.67038" lon="-2.60004">
        <ele>100.4</ele>
        <time>2021-04-09T13:36:33Z</time>
      </trkpt>
      <trkpt lat="47.6704" lon="-2.60011">
        <ele>97.6</ele>
        <time>2021-04-09T13:36:37Z</time>
      </trkpt>
      <trkpt lat="47.6704" lon="-2.60019">
        <ele>98.7</ele>
        <time>2021-04-09T13:36:41Z</time>
      </trkpt>
      <trkpt lat="47.67043" lon="-2.60026">
        <ele>99.4</ele>
        <time>2021-04-09T13:36:45Z</time>
      </trkpt>
      <trkpt lat="47.67046" lon="-2.6003">
        <ele>98.2</ele>
        <time>2021-04-09T13:36:48Z</time>
      </trkpt>
      <trkpt lat="47.67049" lon="-2.60039">
        <ele>94.4</ele>
        <time>2021-04-09T13:36:55Z</time>
      </trkpt>
      <trkpt lat="47.67049" lon="-2.60046">
        <ele>93.5</ele>
        <time>2021-04-09T13:36:58Z</time>
      </trkpt>
      <trkpt lat="47.67049" lon="-2.60053">
        <ele>91.3</ele>
        <time>2021-04-09T13:37:02Z</time>
      </trkpt>
      <trkpt lat="47.67048" lon="-2.6006">
        <ele>90</ele>
        <time>2021-04-09T13:37:06Z</time>
      </trkpt>
      <trkpt lat="47.67046" lon="-2.60068">
        <ele>90.3</ele>
        <time>2021-04-09T13:37:09Z</time>
      </trkpt>
      <trkpt lat="47.67047" lon="-2.60075">
        <ele>88.8</ele>
        <time>2021-04-09T13:37:13Z</time>
      </trkpt>
      <trkpt lat="47.67048" lon="-2.60083">
        <ele>88</ele>
        <time>2021-04-09T13:37:17Z</time>
      </trkpt>
      <trkpt lat="47.67051" lon="-2.60092">
        <ele>88.8</ele>
        <time>2021-04-09T13:37:21Z</time>
      </trkpt>
      <trkpt lat="47.67051" lon="-2.60099">
        <ele>90.1</ele>
        <time>2021-04-09T13:37:24Z</time>
      </trkpt>
      <trkpt lat="47.67051" lon="-2.60108">
        <ele>92.4</ele>
        <time>2021-04-09T13:37:28Z</time>
      </trkpt>
      <trkpt lat="47.6705" lon="-2.60115">
        <ele>94.2</ele>
        <time>2021-04-09T13:37:31Z</time>
      </trkpt>
      <trkpt lat="47.67049" lon="-2.60123">
        <ele>96.6</ele>
        <time>2021-04-09T13:37:34Z</time>
      </trkpt>
      <trkpt lat="47.67049" lon="-2.6013">
        <ele>99.3</ele>
        <time>2021-04-09T13:37:37Z</time>
      </trkpt>
      <trkpt lat="47.67049" lon="-2.60138">
        <ele>102</ele>
        <time>2021-04-09T13:37:40Z</time>
      </trkpt>
      <trkpt lat="47.67049" lon="-2.60147">
        <ele>104.8</ele>
        <time>2021-04-09T13:37:43Z</time>
      </trkpt>
      <trkpt lat="47.67049" lon="-2.60155">
        <ele>107.6</ele>
        <time>2021-04-09T13:37:46Z</time>
      </trkpt>
      <trkpt lat="47.67049" lon="-2.60163">
        <ele>110.2</ele>
        <time>2021-04-09T13:37:50Z</time>
      </trkpt>
      <trkpt lat="47.6705" lon="-2.60172">
        <ele>112.2</ele>
        <time>2021-04-09T13:37:54Z</time>
      </trkpt>
      <trkpt lat="47.67051" lon="-2.6018">
        <ele>113.9</ele>
        <time>2021-04-09T13:37:57Z</time>
      </trkpt>
      <trkpt lat="47.67052" lon="-2.60188">
        <ele>114.2</ele>
        <time>2021-04-09T13:38:01Z</time>
      </trkpt>
      <trkpt lat="47.67054" lon="-2.60196">
        <ele>115</ele>
        <time>2021-04-09T13:38:06Z</time>
      </trkpt>
      <trkpt lat="47.67056" lon="-2.60202">
        <ele>114</ele>
        <time>2021-04-09T13:38:09Z</time>
      </trkpt>
      <trkpt lat="47.67056" lon="-2.60209">
        <ele>113.7</ele>
        <time>2021-04-09T13:38:12Z</time>
      </trkpt>
      <trkpt lat="47.67059" lon="-2.60217">
        <ele>112.8</ele>
        <time>2021-04-09T13:38:17Z</time>
      </trkpt>
      <trkpt lat="47.67064" lon="-2.60221">
        <ele>112.5</ele>
        <time>2021-04-09T13:38:21Z</time>
      </trkpt>
      <trkpt lat="47.67065" lon="-2.60228">
        <ele>112.5</ele>
        <time>2021-04-09T13:38:24Z</time>
      </trkpt>
      <trkpt lat="47.67066" lon="-2.60235">
        <ele>112.5</ele>
        <time>2021-04-09T13:38:28Z</time>
      </trkpt>
      <trkpt lat="47.67067" lon="-2.60242">
        <ele>112.8</ele>
        <time>2021-04-09T13:38:32Z</time>
      </trkpt>
      <trkpt lat="47.67068" lon="-2.60249">
        <ele>112.7</ele>
        <time>2021-04-09T13:38:36Z</time>
      </trkpt>
      <trkpt lat="47.67069" lon="-2.60258">
        <ele>112.8</ele>
        <time>2021-04-09T13:38:40Z</time>
      </trkpt>
      <trkpt lat="47.6707" lon="-2.60266">
        <ele>112.9</ele>
        <time>2021-04-09T13:38:44Z</time>
      </trkpt>
      <trkpt lat="47.67073" lon="-2.60272">
        <ele>112.7</ele>
        <time>2021-04-09T13:38:48Z</time>
      </trkpt>
      <trkpt lat="47.67077" lon="-2.60279">
        <ele>112.2</ele>
        <time>2021-04-09T13:38:51Z</time>
      </trkpt>
      <trkpt lat="47.6708" lon="-2.60284">
        <ele>111.8</ele>
        <time>2021-04-09T13:38:54Z</time>
      </trkpt>
      <trkpt lat="47.67082" lon="-2.60291">
        <ele>110.3</ele>
        <time>2021-04-09T13:38:58Z</time>
      </trkpt>
      <trkpt lat="47.67088" lon="-2.60294">
        <ele>108.6</ele>
        <time>2021-04-09T13:39:02Z</time>
      </trkpt>
      <trkpt lat="47.67092" lon="-2.603">
        <ele>107.3</ele>
        <time>2021-04-09T13:39:05Z</time>
      </trkpt>
      <trkpt lat="47.67096" lon="-2.60305">
        <ele>105.8</ele>
        <time>2021-04-09T13:39:09Z</time>
      </trkpt>
      <trkpt lat="47.67098" lon="-2.60315">
        <ele>105.8</ele>
        <time>2021-04-09T13:39:13Z</time>
      </trkpt>
      <trkpt lat="47.67099" lon="-2.60323">
        <ele>106.3</ele>
        <time>2021-04-09T13:39:16Z</time>
      </trkpt>
      <trkpt lat="47.67098" lon="-2.6033">
        <ele>106.4</ele>
        <time>2021-04-09T13:39:18Z</time>
      </trkpt>
      <trkpt lat="47.67099" lon="-2.60337">
        <ele>106.2</ele>
        <time>2021-04-09T13:39:21Z</time>
      </trkpt>
      <trkpt lat="47.67096" lon="-2.60344">
        <ele>105.6</ele>
        <time>2021-04-09T13:39:25Z</time>
      </trkpt>
      <trkpt lat="47.67093" lon="-2.60349">
        <ele>103.7</ele>
        <time>2021-04-09T13:39:30Z</time>
      </trkpt>
      <trkpt lat="47.6709" lon="-2.60357">
        <ele>103.8</ele>
        <time>2021-04-09T13:39:32Z</time>
      </trkpt>
      <trkpt lat="47.67086" lon="-2.60362">
        <ele>102.4</ele>
        <time>2021-04-09T13:39:37Z</time>
      </trkpt>
      <trkpt lat="47.67082" lon="-2.60366">
        <ele>100.4</ele>
        <time>2021-04-09T13:39:40Z</time>
      </trkpt>
      <trkpt lat="47.67075" lon="-2.60371">
        <ele>99.6</ele>
        <time>2021-04-09T13:39:43Z</time>
      </trkpt>
      <trkpt lat="47.67072" lon="-2.60375">
        <ele>99.6</ele>
        <time>2021-04-09T13:39:45Z</time>
      </trkpt>
      <trkpt lat="47.67067" lon="-2.60378">
        <ele>100</ele>
        <time>2021-04-09T13:39:48Z</time>
      </trkpt>
      <trkpt lat="47.67062" lon="-2.60382">
        <ele>99.9</ele>
        <time>2021-04-09T13:39:51Z</time>
      </trkpt>
      <trkpt lat="47.67059" lon="-2.60388">
        <ele>100.4</ele>
        <time>2021-04-09T13:39:54Z</time>
      </trkpt>
      <trkpt lat="47.67054" lon="-2.60397">
        <ele>99.2</ele>
        <time>2021-04-09T13:39:59Z</time>
      </trkpt>
      <trkpt lat="47.67049" lon="-2.60405">
        <ele>98.4</ele>
        <time>2021-04-09T13:40:04Z</time>
      </trkpt>
      <trkpt lat="47.67042" lon="-2.60411">
        <ele>97.8</ele>
        <time>2021-04-09T13:40:10Z</time>
      </trkpt>
      <trkpt lat="47.67038" lon="-2.60415">
        <ele>97.4</ele>
        <time>2021-04-09T13:40:13Z</time>
      </trkpt>
      <trkpt lat="47.67032" lon="-2.6042">
        <ele>96.8</ele>
        <time>2021-04-09T13:40:17Z</time>
      </trkpt>
      <trkpt lat="47.67027" lon="-2.60427">
        <ele>96.7</ele>
        <time>2021-04-09T13:40:21Z</time>
      </trkpt>
      <trkpt lat="47.67024" lon="-2.60432">
        <ele>96.7</ele>
        <time>2021-04-09T13:40:24Z</time>
      </trkpt>
      <trkpt lat="47.6702" lon="-2.60437">
        <ele>96.4</ele>
        <time>2021-04-09T13:40:27Z</time>
      </trkpt>
      <trkpt lat="47.67017" lon="-2.60441">
        <ele>96.3</ele>
        <time>2021-04-09T13:40:30Z</time>
      </trkpt>
      <trkpt lat="47.67012" lon="-2.60445">
        <ele>96.9</ele>
        <time>2021-04-09T13:40:34Z</time>
      </trkpt>
      <trkpt lat="47.67006" lon="-2.60447">
        <ele>98.6</ele>
        <time>2021-04-09T13:40:38Z</time>
      </trkpt>
      <trkpt lat="47.67002" lon="-2.60453">
        <ele>99.5</ele>
        <time>2021-04-09T13:40:42Z</time>
      </trkpt>
      <trkpt lat="47.66999" lon="-2.60459">
        <ele>100.1</ele>
        <time>2021-04-09T13:40:46Z</time>
      </trkpt>
      <trkpt lat="47.66995" lon="-2.60462">
        <ele>100.5</ele>
        <time>2021-04-09T13:40:51Z</time>
      </trkpt>
      <trkpt lat="47.6699" lon="-2.60464">
        <ele>101.4</ele>
        <time>2021-04-09T13:40:55Z</time>
      </trkpt>
      <trkpt lat="47.66982" lon="-2.60467">
        <ele>102.2</ele>
        <time>2021-04-09T13:41:00Z</time>
      </trkpt>
      <trkpt lat="47.66977" lon="-2.6047">
        <ele>102.5</ele>
        <time>2021-04-09T13:41:04Z</time>
      </trkpt>
      <trkpt lat="47.66973" lon="-2.60474">
        <ele>103</ele>
        <time>2021-04-09T13:41:07Z</time>
      </trkpt>
      <trkpt lat="47.66968" lon="-2.60477">
        <ele>102.8</ele>
        <time>2021-04-09T13:41:11Z</time>
      </trkpt>
      <trkpt lat="47.66964" lon="-2.60477">
        <ele>102.6</ele>
        <time>2021-04-09T13:41:14Z</time>
      </trkpt>
      <trkpt lat="47.66959" lon="-2.60475">
        <ele>102.3</ele>
        <time>2021-04-09T13:41:17Z</time>
      </trkpt>
      <trkpt lat="47.66955" lon="-2.60465">
        <ele>102.5</ele>
        <time>2021-04-09T13:41:23Z</time>
      </trkpt>
      <trkpt lat="47.66953" lon="-2.60459">
        <ele>100.7</ele>
        <time>2021-04-09T13:41:27Z</time>
      </trkpt>
      <trkpt lat="47.6695" lon="-2.60451">
        <ele>100.7</ele>
        <time>2021-04-09T13:41:30Z</time>
      </trkpt>
      <trkpt lat="47.6695" lon="-2.60444">
        <ele>100.6</ele>
        <time>2021-04-09T13:41:34Z</time>
      </trkpt>
      <trkpt lat="47.66949" lon="-2.60435">
        <ele>99.5</ele>
        <time>2021-04-09T13:41:38Z</time>
      </trkpt>
      <trkpt lat="47.66948" lon="-2.60427">
        <ele>98</ele>
        <time>2021-04-09T13:41:41Z</time>
      </trkpt>
      <trkpt lat="47.66948" lon="-2.60418">
        <ele>96.5</ele>
        <time>2021-04-09T13:41:44Z</time>
      </trkpt>
      <trkpt lat="47.66946" lon="-2.60412">
        <ele>95.2</ele>
        <time>2021-04-09T13:41:47Z</time>
      </trkpt>
      <trkpt lat="47.66946" lon="-2.60404">
        <ele>93.1</ele>
        <time>2021-04-09T13:41:50Z</time>
      </trkpt>
      <trkpt lat="47.66948" lon="-2.60396">
        <ele>90.5</ele>
        <time>2021-04-09T13:41:54Z</time>
      </trkpt>
      <trkpt lat="47.66948" lon="-2.60389">
        <ele>87.4</ele>
        <time>2021-04-09T13:41:58Z</time>
      </trkpt>
      <trkpt lat="47.66942" lon="-2.60389">
        <ele>84.5</ele>
        <time>2021-04-09T13:42:02Z</time>
      </trkpt>
      <trkpt lat="47.66937" lon="-2.60389">
        <ele>81.4</ele>
        <time>2021-04-09T13:42:07Z</time>
      </trkpt>
      <trkpt lat="47.66931" lon="-2.6039">
        <ele>78.2</ele>
        <time>2021-04-09T13:42:13Z</time>
      </trkpt>
      <trkpt lat="47.66927" lon="-2.60395">
        <ele>76.5</ele>
        <time>2021-04-09T13:42:17Z</time>
      </trkpt>
      <trkpt lat="47.66923" lon="-2.60399">
        <ele>76.1</ele>
        <time>2021-04-09T13:42:20Z</time>
      </trkpt>
      <trkpt lat="47.66919" lon="-2.60403">
        <ele>75.7</ele>
        <time>2021-04-09T13:42:25Z</time>
      </trkpt>
      <trkpt lat="47.66914" lon="-2.60403">
        <ele>74.6</ele>
        <time>2021-04-09T13:42:29Z</time>
      </trkpt>
      <trkpt lat="47.66902" lon="-2.60412">
        <ele>75</ele>
        <time>2021-04-09T13:42:38Z</time>
      </trkpt>
      <trkpt lat="47.66898" lon="-2.60415">
        <ele>75.3</ele>
        <time>2021-04-09T13:42:42Z</time>
      </trkpt>
      <trkpt lat="47.66893" lon="-2.60417">
        <ele>75.7</ele>
        <time>2021-04-09T13:42:44Z</time>
      </trkpt>
      <trkpt lat="47.66891" lon="-2.60424">
        <ele>76.7</ele>
        <time>2021-04-09T13:42:47Z</time>
      </trkpt>
      <trkpt lat="47.66888" lon="-2.60431">
        <ele>79.2</ele>
        <time>2021-04-09T13:42:49Z</time>
      </trkpt>
      <trkpt lat="47.66885" lon="-2.60437">
        <ele>80.1</ele>
        <time>2021-04-09T13:42:51Z</time>
      </trkpt>
      <trkpt lat="47.6688" lon="-2.60443">
        <ele>80.5</ele>
        <time>2021-04-09T13:42:54Z</time>
      </trkpt>
      <trkpt lat="47.66874" lon="-2.60446">
        <ele>80.8</ele>
        <time>2021-04-09T13:42:58Z</time>
      </trkpt>
      <trkpt lat="47.6687" lon="-2.60447">
        <ele>81</ele>
        <time>2021-04-09T13:43:01Z</time>
      </trkpt>
      <trkpt lat="47.66862" lon="-2.60449">
        <ele>81.7</ele>
        <time>2021-04-09T13:43:04Z</time>
      </trkpt>
      <trkpt lat="47.66856" lon="-2.60448">
        <ele>82</ele>
        <time>2021-04-09T13:43:07Z</time>
      </trkpt>
      <trkpt lat="47.66851" lon="-2.60449">
        <ele>82.2</ele>
        <time>2021-04-09T13:43:09Z</time>
      </trkpt>
      <trkpt lat="47.66847" lon="-2.60453">
        <ele>82.4</ele>
        <time>2021-04-09T13:43:11Z</time>
      </trkpt>
      <trkpt lat="47.6684" lon="-2.60455">
        <ele>82.7</ele>
        <time>2021-04-09T13:43:13Z</time>
      </trkpt>
      <trkpt lat="47.66835" lon="-2.60454">
        <ele>83.3</ele>
        <time>2021-04-09T13:43:16Z</time>
      </trkpt>
      <trkpt lat="47.66829" lon="-2.60451">
        <ele>84.1</ele>
        <time>2021-04-09T13:43:20Z</time>
      </trkpt>
      <trkpt lat="47.66825" lon="-2.60452">
        <ele>84.4</ele>
        <time>2021-04-09T13:43:23Z</time>
      </trkpt>
      <trkpt lat="47.66819" lon="-2.60451">
        <ele>85.2</ele>
        <time>2021-04-09T13:43:27Z</time>
      </trkpt>
      <trkpt lat="47.66814" lon="-2.60451">
        <ele>86.1</ele>
        <time>2021-04-09T13:43:31Z</time>
      </trkpt>
      <trkpt lat="47.66808" lon="-2.6045">
        <ele>86.3</ele>
        <time>2021-04-09T13:43:36Z</time>
      </trkpt>
      <trkpt lat="47.66804" lon="-2.6045">
        <ele>85.2</ele>
        <time>2021-04-09T13:43:40Z</time>
      </trkpt>
      <trkpt lat="47.66802" lon="-2.60445">
        <ele>86.7</ele>
        <time>2021-04-09T13:43:56Z</time>
      </trkpt>
      <trkpt lat="47.66802" lon="-2.60445">
        <ele>86.7</ele>
        <time>2021-04-09T13:43:56Z</time>
      </trkpt>
      <trkpt lat="47.66798" lon="-2.60431">
        <ele>90.7</ele>
        <time>2021-04-09T13:44:39Z</time>
      </trkpt>
      <trkpt lat="47.66798" lon="-2.60437">
        <ele>88</ele>
        <time>2021-04-09T13:45:11Z</time>
      </trkpt>
      <trkpt lat="47.66798" lon="-2.60437">
        <ele>88</ele>
        <time>2021-04-09T13:45:11Z</time>
      </trkpt>
      <trkpt lat="47.66798" lon="-2.60444">
        <ele>86</ele>
        <time>2021-04-09T13:46:26Z</time>
      </trkpt>
      <trkpt lat="47.66798" lon="-2.60451">
        <ele>85</ele>
        <time>2021-04-09T13:46:30Z</time>
      </trkpt>
      <trkpt lat="47.66797" lon="-2.60458">
        <ele>82</ele>
        <time>2021-04-09T13:46:49Z</time>
      </trkpt>
      <trkpt lat="47.66797" lon="-2.60458">
        <ele>81.8</ele>
        <time>2021-04-09T13:46:53Z</time>
      </trkpt>
      <trkpt lat="47.66797" lon="-2.60458">
        <ele>81.8</ele>
        <time>2021-04-09T13:46:53Z</time>
      </trkpt>
      <trkpt lat="47.66788" lon="-2.60438">
        <ele>83.3</ele>
        <time>2021-04-09T13:47:33Z</time>
      </trkpt>
      <trkpt lat="47.66784" lon="-2.6044">
        <ele>83</ele>
        <time>2021-04-09T13:47:36Z</time>
      </trkpt>
      <trkpt lat="47.66779" lon="-2.60439">
        <ele>82.8</ele>
        <time>2021-04-09T13:47:39Z</time>
      </trkpt>
      <trkpt lat="47.66774" lon="-2.60441">
        <ele>82.7</ele>
        <time>2021-04-09T13:47:43Z</time>
      </trkpt>
      <trkpt lat="47.66768" lon="-2.60443">
        <ele>82.7</ele>
        <time>2021-04-09T13:47:47Z</time>
      </trkpt>
      <trkpt lat="47.66764" lon="-2.60443">
        <ele>82.7</ele>
        <time>2021-04-09T13:47:50Z</time>
      </trkpt>
      <trkpt lat="47.66759" lon="-2.60446">
        <ele>82.9</ele>
        <time>2021-04-09T13:47:54Z</time>
      </trkpt>
      <trkpt lat="47.66753" lon="-2.60447">
        <ele>82.7</ele>
        <time>2021-04-09T13:47:58Z</time>
      </trkpt>
      <trkpt lat="47.66747" lon="-2.6045">
        <ele>82.3</ele>
        <time>2021-04-09T13:48:03Z</time>
      </trkpt>
      <trkpt lat="47.66742" lon="-2.60451">
        <ele>82</ele>
        <time>2021-04-09T13:48:06Z</time>
      </trkpt>
      <trkpt lat="47.66736" lon="-2.60453">
        <ele>81.2</ele>
        <time>2021-04-09T13:48:09Z</time>
      </trkpt>
      <trkpt lat="47.66732" lon="-2.60457">
        <ele>78.8</ele>
        <time>2021-04-09T13:48:14Z</time>
      </trkpt>
      <trkpt lat="47.66728" lon="-2.60459">
        <ele>77.6</ele>
        <time>2021-04-09T13:48:16Z</time>
      </trkpt>
      <trkpt lat="47.66723" lon="-2.60458">
        <ele>76.4</ele>
        <time>2021-04-09T13:48:20Z</time>
      </trkpt>
      <trkpt lat="47.66717" lon="-2.60458">
        <ele>76.2</ele>
        <time>2021-04-09T13:48:24Z</time>
      </trkpt>
      <trkpt lat="47.66712" lon="-2.60459">
        <ele>76</ele>
        <time>2021-04-09T13:48:27Z</time>
      </trkpt>
      <trkpt lat="47.66707" lon="-2.60461">
        <ele>75.9</ele>
        <time>2021-04-09T13:48:31Z</time>
      </trkpt>
      <trkpt lat="47.66702" lon="-2.60461">
        <ele>75.9</ele>
        <time>2021-04-09T13:48:34Z</time>
      </trkpt>
      <trkpt lat="47.66696" lon="-2.60461">
        <ele>75.8</ele>
        <time>2021-04-09T13:48:38Z</time>
      </trkpt>
      <trkpt lat="47.66691" lon="-2.6046">
        <ele>75.8</ele>
        <time>2021-04-09T13:48:42Z</time>
      </trkpt>
      <trkpt lat="47.66687" lon="-2.60462">
        <ele>75</ele>
        <time>2021-04-09T13:48:46Z</time>
      </trkpt>
      <trkpt lat="47.66681" lon="-2.60464">
        <ele>74.5</ele>
        <time>2021-04-09T13:48:50Z</time>
      </trkpt>
      <trkpt lat="47.66676" lon="-2.60463">
        <ele>74.5</ele>
        <time>2021-04-09T13:48:54Z</time>
      </trkpt>
      <trkpt lat="47.66671" lon="-2.60461">
        <ele>74</ele>
        <time>2021-04-09T13:48:58Z</time>
      </trkpt>
      <trkpt lat="47.66667" lon="-2.60455">
        <ele>74.4</ele>
        <time>2021-04-09T13:49:01Z</time>
      </trkpt>
      <trkpt lat="47.66664" lon="-2.60448">
        <ele>75.1</ele>
        <time>2021-04-09T13:49:04Z</time>
      </trkpt>
      <trkpt lat="47.66661" lon="-2.60442">
        <ele>75.8</ele>
        <time>2021-04-09T13:49:07Z</time>
      </trkpt>
      <trkpt lat="47.66657" lon="-2.60435">
        <ele>76.7</ele>
        <time>2021-04-09T13:49:10Z</time>
      </trkpt>
      <trkpt lat="47.66655" lon="-2.60425">
        <ele>77.4</ele>
        <time>2021-04-09T13:49:14Z</time>
      </trkpt>
      <trkpt lat="47.66653" lon="-2.60418">
        <ele>78</ele>
        <time>2021-04-09T13:49:17Z</time>
      </trkpt>
      <trkpt lat="47.66651" lon="-2.60411">
        <ele>78.8</ele>
        <time>2021-04-09T13:49:23Z</time>
      </trkpt>
      <trkpt lat="47.6665" lon="-2.60405">
        <ele>78.9</ele>
        <time>2021-04-09T13:49:28Z</time>
      </trkpt>
      <trkpt lat="47.66648" lon="-2.60398">
        <ele>78.8</ele>
        <time>2021-04-09T13:49:31Z</time>
      </trkpt>
      <trkpt lat="47.66646" lon="-2.60392">
        <ele>78.7</ele>
        <time>2021-04-09T13:49:34Z</time>
      </trkpt>
      <trkpt lat="47.66644" lon="-2.60384">
        <ele>78.5</ele>
        <time>2021-04-09T13:49:38Z</time>
      </trkpt>
      <trkpt lat="47.66641" lon="-2.60379">
        <ele>77.7</ele>
        <time>2021-04-09T13:49:42Z</time>
      </trkpt>
      <trkpt lat="47.66636" lon="-2.60374">
        <ele>77</ele>
        <time>2021-04-09T13:49:46Z</time>
      </trkpt>
      <trkpt lat="47.66631" lon="-2.6037">
        <ele>76.1</ele>
        <time>2021-04-09T13:49:51Z</time>
      </trkpt>
      <trkpt lat="47.66628" lon="-2.60364">
        <ele>75.8</ele>
        <time>2021-04-09T13:49:58Z</time>
      </trkpt>
      <trkpt lat="47.66626" lon="-2.60357">
        <ele>75.5</ele>
        <time>2021-04-09T13:50:01Z</time>
      </trkpt>
      <trkpt lat="47.66625" lon="-2.6035">
        <ele>75.5</ele>
        <time>2021-04-09T13:50:04Z</time>
      </trkpt>
      <trkpt lat="47.66623" lon="-2.60343">
        <ele>75.4</ele>
        <time>2021-04-09T13:50:08Z</time>
      </trkpt>
      <trkpt lat="47.66621" lon="-2.60336">
        <ele>75.2</ele>
        <time>2021-04-09T13:50:12Z</time>
      </trkpt>
      <trkpt lat="47.66617" lon="-2.6033">
        <ele>75</ele>
        <time>2021-04-09T13:50:17Z</time>
      </trkpt>
      <trkpt lat="47.66615" lon="-2.60322">
        <ele>74.7</ele>
        <time>2021-04-09T13:50:21Z</time>
      </trkpt>
      <trkpt lat="47.66613" lon="-2.60316">
        <ele>74.6</ele>
        <time>2021-04-09T13:50:24Z</time>
      </trkpt>
      <trkpt lat="47.66612" lon="-2.60309">
        <ele>74.6</ele>
        <time>2021-04-09T13:50:27Z</time>
      </trkpt>
      <trkpt lat="47.66611" lon="-2.60299">
        <ele>75</ele>
        <time>2021-04-09T13:50:30Z</time>
      </trkpt>
      <trkpt lat="47.66608" lon="-2.60289">
        <ele>75.3</ele>
        <time>2021-04-09T13:50:33Z</time>
      </trkpt>
      <trkpt lat="47.66606" lon="-2.60283">
        <ele>75.3</ele>
        <time>2021-04-09T13:50:35Z</time>
      </trkpt>
      <trkpt lat="47.66604" lon="-2.60274">
        <ele>74.8</ele>
        <time>2021-04-09T13:50:38Z</time>
      </trkpt>
      <trkpt lat="47.66603" lon="-2.60266">
        <ele>74.9</ele>
        <time>2021-04-09T13:50:42Z</time>
      </trkpt>
      <trkpt lat="47.66602" lon="-2.60259">
        <ele>75</ele>
        <time>2021-04-09T13:50:46Z</time>
      </trkpt>
      <trkpt lat="47.66602" lon="-2.60251">
        <ele>75.4</ele>
        <time>2021-04-09T13:50:49Z</time>
      </trkpt>
      <trkpt lat="47.666" lon="-2.60244">
        <ele>75.3</ele>
        <time>2021-04-09T13:50:54Z</time>
      </trkpt>
      <trkpt lat="47.66599" lon="-2.60237">
        <ele>75.2</ele>
        <time>2021-04-09T13:50:58Z</time>
      </trkpt>
      <trkpt lat="47.66599" lon="-2.60229">
        <ele>75.2</ele>
        <time>2021-04-09T13:51:03Z</time>
      </trkpt>
      <trkpt lat="47.66597" lon="-2.60222">
        <ele>75.2</ele>
        <time>2021-04-09T13:51:09Z</time>
      </trkpt>
      <trkpt lat="47.66596" lon="-2.6021">
        <ele>75.8</ele>
        <time>2021-04-09T13:51:14Z</time>
      </trkpt>
      <trkpt lat="47.66597" lon="-2.60202">
        <ele>75.9</ele>
        <time>2021-04-09T13:51:19Z</time>
      </trkpt>
      <trkpt lat="47.66597" lon="-2.60195">
        <ele>75.9</ele>
        <time>2021-04-09T13:51:23Z</time>
      </trkpt>
      <trkpt lat="47.66599" lon="-2.60188">
        <ele>75.5</ele>
        <time>2021-04-09T13:51:26Z</time>
      </trkpt>
      <trkpt lat="47.66597" lon="-2.60182">
        <ele>75.3</ele>
        <time>2021-04-09T13:51:29Z</time>
      </trkpt>
      <trkpt lat="47.66597" lon="-2.60173">
        <ele>75</ele>
        <time>2021-04-09T13:51:34Z</time>
      </trkpt>
      <trkpt lat="47.66596" lon="-2.60165">
        <ele>75.1</ele>
        <time>2021-04-09T13:51:37Z</time>
      </trkpt>
      <trkpt lat="47.66595" lon="-2.60158">
        <ele>75.5</ele>
        <time>2021-04-09T13:51:39Z</time>
      </trkpt>
      <trkpt lat="47.66594" lon="-2.60148">
        <ele>75.8</ele>
        <time>2021-04-09T13:51:41Z</time>
      </trkpt>
      <trkpt lat="47.66593" lon="-2.6014">
        <ele>75.9</ele>
        <time>2021-04-09T13:51:44Z</time>
      </trkpt>
      <trkpt lat="47.66594" lon="-2.60132">
        <ele>76</ele>
        <time>2021-04-09T13:51:47Z</time>
      </trkpt>
      <trkpt lat="47.66593" lon="-2.60125">
        <ele>76.1</ele>
        <time>2021-04-09T13:51:50Z</time>
      </trkpt>
      <trkpt lat="47.66594" lon="-2.60114">
        <ele>76.3</ele>
        <time>2021-04-09T13:51:52Z</time>
      </trkpt>
      <trkpt lat="47.66594" lon="-2.60106">
        <ele>76.5</ele>
        <time>2021-04-09T13:51:55Z</time>
      </trkpt>
      <trkpt lat="47.66594" lon="-2.60098">
        <ele>76.4</ele>
        <time>2021-04-09T13:51:58Z</time>
      </trkpt>
      <trkpt lat="47.66594" lon="-2.60088">
        <ele>75.9</ele>
        <time>2021-04-09T13:52:01Z</time>
      </trkpt>
      <trkpt lat="47.66592" lon="-2.60081">
        <ele>76</ele>
        <time>2021-04-09T13:52:04Z</time>
      </trkpt>
      <trkpt lat="47.66594" lon="-2.60075">
        <ele>76.2</ele>
        <time>2021-04-09T13:52:06Z</time>
      </trkpt>
      <trkpt lat="47.66596" lon="-2.60069">
        <ele>76.3</ele>
        <time>2021-04-09T13:52:09Z</time>
      </trkpt>
      <trkpt lat="47.666" lon="-2.60065">
        <ele>75.9</ele>
        <time>2021-04-09T13:52:15Z</time>
      </trkpt>
      <trkpt lat="47.66601" lon="-2.60065">
        <ele>75.5</ele>
        <time>2021-04-09T13:52:17Z</time>
      </trkpt>
      <trkpt lat="47.66601" lon="-2.60065">
        <ele>75.5</ele>
        <time>2021-04-09T13:52:17Z</time>
      </trkpt>
    </trkseg>
  </trk>
</gpx>